<?xml version="1.0" encoding="UTF-8" standalone="no" ?>
<gpx xmlns="http://www.topografix.com/GPX/1/1" xmlns:xsi="http://www.w3.org/2001/XMLSchema-instance" xsi:schemaLocation="http://www.topografix.com/GPX/1/1 http://www.topografix.com/GPX/1/1/gpx.xsd" version="1.1" creator="VisuGPX - https://www.visugpx.com">
  <metadata>
    <name>CYCLO Entre Gapençais, Champsaur et Avance </name>
    <desc><![CDATA[Gap/Romette/Manse Vieille/Ancelle/Moissiere/Batie Vieille/Batie Neuve:
ça monte , ça descend , ça remonte , ça redescend et puis....ça remonte et enfin ça redescend . Superbes panoramas de la campgne gapençaise sous presque tous ses aspects ]]></desc>
  </metadata>
  <trk>
    <name><![CDATA[N° Gap /Manse vieille/Ancelle/Batie Neuve/Batie vieille]]></name>
    <trkseg>
      <trkpt lat="44.56375" lon="6.07977">
        <ele>749.9658203</ele>
        <time>2016-06-10T08:09:16Z</time>
      </trkpt>
      <trkpt lat="44.56367" lon="6.08034">
        <ele>749.9658203</ele>
        <time>2016-06-10T08:09:29Z</time>
      </trkpt>
      <trkpt lat="44.56366" lon="6.08126">
        <ele>749.9658203</ele>
        <time>2016-06-10T08:09:47Z</time>
      </trkpt>
      <trkpt lat="44.56392" lon="6.08148">
        <ele>750.4465332</ele>
        <time>2016-06-10T08:09:56Z</time>
      </trkpt>
      <trkpt lat="44.56415" lon="6.08176">
        <ele>751.4077148</ele>
        <time>2016-06-10T08:10:06Z</time>
      </trkpt>
      <trkpt lat="44.56433" lon="6.08202">
        <ele>751.8884277</ele>
        <time>2016-06-10T08:10:16Z</time>
      </trkpt>
      <trkpt lat="44.56464" lon="6.08223">
        <ele>754.7722168</ele>
        <time>2016-06-10T08:10:30Z</time>
      </trkpt>
      <trkpt lat="44.56495" lon="6.08217">
        <ele>757.1755371</ele>
        <time>2016-06-10T08:10:45Z</time>
      </trkpt>
      <trkpt lat="44.56508" lon="6.08213">
        <ele>757.65625</ele>
        <time>2016-06-10T08:10:51Z</time>
      </trkpt>
      <trkpt lat="44.56545" lon="6.08204">
        <ele>759.0981445</ele>
        <time>2016-06-10T08:11:06Z</time>
      </trkpt>
      <trkpt lat="44.56589" lon="6.08195">
        <ele>760.0593262</ele>
        <time>2016-06-10T08:11:22Z</time>
      </trkpt>
      <trkpt lat="44.56631" lon="6.0818">
        <ele>761.5014648</ele>
        <time>2016-06-10T08:11:40Z</time>
      </trkpt>
      <trkpt lat="44.56651" lon="6.08173">
        <ele>762.4626465</ele>
        <time>2016-06-10T08:11:49Z</time>
      </trkpt>
      <trkpt lat="44.56669" lon="6.08212">
        <ele>763.4240723</ele>
        <time>2016-06-10T08:12:04Z</time>
      </trkpt>
      <trkpt lat="44.56691" lon="6.08263">
        <ele>763.904541</ele>
        <time>2016-06-10T08:12:20Z</time>
      </trkpt>
      <trkpt lat="44.56725" lon="6.08259">
        <ele>766.7888184</ele>
        <time>2016-06-10T08:12:36Z</time>
      </trkpt>
      <trkpt lat="44.56732" lon="6.08259">
        <ele>767.75</ele>
        <time>2016-06-10T08:12:41Z</time>
      </trkpt>
      <trkpt lat="44.56756" lon="6.08257">
        <ele>770.6340332</ele>
        <time>2016-06-10T08:12:56Z</time>
      </trkpt>
      <trkpt lat="44.56788" lon="6.08253">
        <ele>773.9985352</ele>
        <time>2016-06-10T08:13:13Z</time>
      </trkpt>
      <trkpt lat="44.56789" lon="6.08254">
        <ele>773.9985352</ele>
        <time>2016-06-10T08:13:14Z</time>
      </trkpt>
      <trkpt lat="44.56793" lon="6.08305">
        <ele>773.0373535</ele>
        <time>2016-06-10T08:13:25Z</time>
      </trkpt>
      <trkpt lat="44.56797" lon="6.08327">
        <ele>771.5952148</ele>
        <time>2016-06-10T08:13:36Z</time>
      </trkpt>
      <trkpt lat="44.56798" lon="6.08331">
        <ele>771.5952148</ele>
        <time>2016-06-10T08:13:44Z</time>
      </trkpt>
      <trkpt lat="44.56804" lon="6.08336">
        <ele>771.5952148</ele>
        <time>2016-06-10T08:13:48Z</time>
      </trkpt>
      <trkpt lat="44.56842" lon="6.08335">
        <ele>773.9985352</ele>
        <time>2016-06-10T08:14:06Z</time>
      </trkpt>
      <trkpt lat="44.56874" lon="6.08333">
        <ele>776.4018555</ele>
        <time>2016-06-10T08:14:22Z</time>
      </trkpt>
      <trkpt lat="44.56925" lon="6.0833">
        <ele>778.8051758</ele>
        <time>2016-06-10T08:14:46Z</time>
      </trkpt>
      <trkpt lat="44.56969" lon="6.08325">
        <ele>780.7280273</ele>
        <time>2016-06-10T08:15:06Z</time>
      </trkpt>
      <trkpt lat="44.56988" lon="6.08344">
        <ele>781.689209</ele>
        <time>2016-06-10T08:15:18Z</time>
      </trkpt>
      <trkpt lat="44.57" lon="6.08369">
        <ele>782.6506348</ele>
        <time>2016-06-10T08:15:30Z</time>
      </trkpt>
      <trkpt lat="44.57018" lon="6.08404">
        <ele>784.0925293</ele>
        <time>2016-06-10T08:15:43Z</time>
      </trkpt>
      <trkpt lat="44.57047" lon="6.0844">
        <ele>784.5732422</ele>
        <time>2016-06-10T08:15:59Z</time>
      </trkpt>
      <trkpt lat="44.57075" lon="6.08461">
        <ele>786.0151367</ele>
        <time>2016-06-10T08:16:12Z</time>
      </trkpt>
      <trkpt lat="44.57104" lon="6.08481">
        <ele>787.4570313</ele>
        <time>2016-06-10T08:16:25Z</time>
      </trkpt>
      <trkpt lat="44.57131" lon="6.08496">
        <ele>788.8991699</ele>
        <time>2016-06-10T08:16:39Z</time>
      </trkpt>
      <trkpt lat="44.57151" lon="6.08516">
        <ele>789.8603516</ele>
        <time>2016-06-10T08:16:51Z</time>
      </trkpt>
      <trkpt lat="44.57175" lon="6.08566">
        <ele>791.3022461</ele>
        <time>2016-06-10T08:17:10Z</time>
      </trkpt>
      <trkpt lat="44.57188" lon="6.08615">
        <ele>792.7443848</ele>
        <time>2016-06-10T08:17:27Z</time>
      </trkpt>
      <trkpt lat="44.57201" lon="6.08675">
        <ele>794.666748</ele>
        <time>2016-06-10T08:17:46Z</time>
      </trkpt>
      <trkpt lat="44.57219" lon="6.08724">
        <ele>797.0703125</ele>
        <time>2016-06-10T08:18:05Z</time>
      </trkpt>
      <trkpt lat="44.57237" lon="6.08765">
        <ele>799.9543457</ele>
        <time>2016-06-10T08:18:23Z</time>
      </trkpt>
      <trkpt lat="44.5726" lon="6.08824">
        <ele>803.3188477</ele>
        <time>2016-06-10T08:18:46Z</time>
      </trkpt>
      <trkpt lat="44.57275" lon="6.0891">
        <ele>804.2802734</ele>
        <time>2016-06-10T08:19:13Z</time>
      </trkpt>
      <trkpt lat="44.57287" lon="6.09009">
        <ele>804.2802734</ele>
        <time>2016-06-10T08:19:35Z</time>
      </trkpt>
      <trkpt lat="44.57306" lon="6.09143">
        <ele>802.8381348</ele>
        <time>2016-06-10T08:19:58Z</time>
      </trkpt>
      <trkpt lat="44.57337" lon="6.09303">
        <ele>799.4736328</ele>
        <time>2016-06-10T08:20:16Z</time>
      </trkpt>
      <trkpt lat="44.57361" lon="6.09422">
        <ele>796.5898438</ele>
        <time>2016-06-10T08:20:27Z</time>
      </trkpt>
      <trkpt lat="44.57396" lon="6.09529">
        <ele>793.2248535</ele>
        <time>2016-06-10T08:20:37Z</time>
      </trkpt>
      <trkpt lat="44.57446" lon="6.09588">
        <ele>794.1862793</ele>
        <time>2016-06-10T08:20:48Z</time>
      </trkpt>
      <trkpt lat="44.57487" lon="6.09615">
        <ele>796.1091309</ele>
        <time>2016-06-10T08:21:04Z</time>
      </trkpt>
      <trkpt lat="44.57514" lon="6.09634">
        <ele>798.0317383</ele>
        <time>2016-06-10T08:21:18Z</time>
      </trkpt>
      <trkpt lat="44.57532" lon="6.09644">
        <ele>799.9543457</ele>
        <time>2016-06-10T08:21:29Z</time>
      </trkpt>
      <trkpt lat="44.57555" lon="6.09664">
        <ele>801.8769531</ele>
        <time>2016-06-10T08:21:40Z</time>
      </trkpt>
      <trkpt lat="44.57594" lon="6.09698">
        <ele>803.7995605</ele>
        <time>2016-06-10T08:21:59Z</time>
      </trkpt>
      <trkpt lat="44.57645" lon="6.09755">
        <ele>806.6833496</ele>
        <time>2016-06-10T08:22:25Z</time>
      </trkpt>
      <trkpt lat="44.57677" lon="6.09814">
        <ele>809.0866699</ele>
        <time>2016-06-10T08:22:47Z</time>
      </trkpt>
      <trkpt lat="44.57696" lon="6.09909">
        <ele>810.5285645</ele>
        <time>2016-06-10T08:23:12Z</time>
      </trkpt>
      <trkpt lat="44.57711" lon="6.10002">
        <ele>812.9321289</ele>
        <time>2016-06-10T08:23:37Z</time>
      </trkpt>
      <trkpt lat="44.5773" lon="6.10071">
        <ele>814.3740234</ele>
        <time>2016-06-10T08:23:57Z</time>
      </trkpt>
      <trkpt lat="44.57777" lon="6.10113">
        <ele>813.8933105</ele>
        <time>2016-06-10T08:24:15Z</time>
      </trkpt>
      <trkpt lat="44.57797" lon="6.10116">
        <ele>813.8933105</ele>
        <time>2016-06-10T08:24:20Z</time>
      </trkpt>
      <trkpt lat="44.57888" lon="6.10117">
        <ele>813.4128418</ele>
        <time>2016-06-10T08:24:41Z</time>
      </trkpt>
      <trkpt lat="44.57892" lon="6.10117">
        <ele>813.8933105</ele>
        <time>2016-06-10T08:24:43Z</time>
      </trkpt>
      <trkpt lat="44.57917" lon="6.10126">
        <ele>815.3354492</ele>
        <time>2016-06-10T08:24:55Z</time>
      </trkpt>
      <trkpt lat="44.57951" lon="6.10134">
        <ele>818.2192383</ele>
        <time>2016-06-10T08:25:13Z</time>
      </trkpt>
      <trkpt lat="44.5796" lon="6.10161">
        <ele>819.661377</ele>
        <time>2016-06-10T08:25:25Z</time>
      </trkpt>
      <trkpt lat="44.57936" lon="6.10182">
        <ele>822.545166</ele>
        <time>2016-06-10T08:25:41Z</time>
      </trkpt>
      <trkpt lat="44.57897" lon="6.10202">
        <ele>825.909668</ele>
        <time>2016-06-10T08:26:03Z</time>
      </trkpt>
      <trkpt lat="44.57887" lon="6.10247">
        <ele>827.8322754</ele>
        <time>2016-06-10T08:26:22Z</time>
      </trkpt>
      <trkpt lat="44.57904" lon="6.10295">
        <ele>831.1972656</ele>
        <time>2016-06-10T08:26:43Z</time>
      </trkpt>
      <trkpt lat="44.57922" lon="6.10333">
        <ele>834.0810547</ele>
        <time>2016-06-10T08:27:01Z</time>
      </trkpt>
      <trkpt lat="44.57948" lon="6.10376">
        <ele>837.9262695</ele>
        <time>2016-06-10T08:27:25Z</time>
      </trkpt>
      <trkpt lat="44.57965" lon="6.1041">
        <ele>839.848877</ele>
        <time>2016-06-10T08:27:42Z</time>
      </trkpt>
      <trkpt lat="44.57985" lon="6.10454">
        <ele>841.7714844</ele>
        <time>2016-06-10T08:28:02Z</time>
      </trkpt>
      <trkpt lat="44.57987" lon="6.10456">
        <ele>841.7714844</ele>
        <time>2016-06-10T08:28:03Z</time>
      </trkpt>
      <trkpt lat="44.57999" lon="6.10453">
        <ele>842.2521973</ele>
        <time>2016-06-10T08:28:09Z</time>
      </trkpt>
      <trkpt lat="44.58012" lon="6.10442">
        <ele>842.2521973</ele>
        <time>2016-06-10T08:28:24Z</time>
      </trkpt>
      <trkpt lat="44.58012" lon="6.10442">
        <ele>841.2907715</ele>
        <time>2016-06-10T08:28:28Z</time>
      </trkpt>
      <trkpt lat="44.58012" lon="6.10442">
        <ele>842.2521973</ele>
        <time>2016-06-10T08:29:38Z</time>
      </trkpt>
      <trkpt lat="44.58042" lon="6.10418">
        <ele>843.6940918</ele>
        <time>2016-06-10T08:29:53Z</time>
      </trkpt>
      <trkpt lat="44.58087" lon="6.1041">
        <ele>847.5395508</ele>
        <time>2016-06-10T08:30:16Z</time>
      </trkpt>
      <trkpt lat="44.58136" lon="6.1041">
        <ele>850.423584</ele>
        <time>2016-06-10T08:30:42Z</time>
      </trkpt>
      <trkpt lat="44.58165" lon="6.10409">
        <ele>852.3459473</ele>
        <time>2016-06-10T08:30:59Z</time>
      </trkpt>
      <trkpt lat="44.58187" lon="6.10424">
        <ele>855.2299805</ele>
        <time>2016-06-10T08:31:13Z</time>
      </trkpt>
      <trkpt lat="44.5821" lon="6.10465">
        <ele>858.1140137</ele>
        <time>2016-06-10T08:31:34Z</time>
      </trkpt>
      <trkpt lat="44.58214" lon="6.10514">
        <ele>860.0366211</ele>
        <time>2016-06-10T08:31:53Z</time>
      </trkpt>
      <trkpt lat="44.58216" lon="6.106">
        <ele>862.9206543</ele>
        <time>2016-06-10T08:32:23Z</time>
      </trkpt>
      <trkpt lat="44.58218" lon="6.10642">
        <ele>865.3239746</ele>
        <time>2016-06-10T08:32:40Z</time>
      </trkpt>
      <trkpt lat="44.5822" lon="6.10674">
        <ele>866.7658691</ele>
        <time>2016-06-10T08:32:52Z</time>
      </trkpt>
      <trkpt lat="44.58224" lon="6.10697">
        <ele>866.7658691</ele>
        <time>2016-06-10T08:33:01Z</time>
      </trkpt>
      <trkpt lat="44.58229" lon="6.10719">
        <ele>867.7270508</ele>
        <time>2016-06-10T08:33:10Z</time>
      </trkpt>
      <trkpt lat="44.58243" lon="6.10761">
        <ele>870.611084</ele>
        <time>2016-06-10T08:33:29Z</time>
      </trkpt>
      <trkpt lat="44.58259" lon="6.1079">
        <ele>873.4951172</ele>
        <time>2016-06-10T08:33:45Z</time>
      </trkpt>
      <trkpt lat="44.58288" lon="6.10812">
        <ele>876.8598633</ele>
        <time>2016-06-10T08:34:05Z</time>
      </trkpt>
      <trkpt lat="44.58292" lon="6.10817">
        <ele>877.3405762</ele>
        <time>2016-06-10T08:34:08Z</time>
      </trkpt>
      <trkpt lat="44.58294" lon="6.10837">
        <ele>878.3017578</ele>
        <time>2016-06-10T08:34:15Z</time>
      </trkpt>
      <trkpt lat="44.58292" lon="6.10886">
        <ele>881.6662598</ele>
        <time>2016-06-10T08:34:35Z</time>
      </trkpt>
      <trkpt lat="44.58297" lon="6.10938">
        <ele>885.0310059</ele>
        <time>2016-06-10T08:34:58Z</time>
      </trkpt>
      <trkpt lat="44.58303" lon="6.10998">
        <ele>888.3955078</ele>
        <time>2016-06-10T08:35:24Z</time>
      </trkpt>
      <trkpt lat="44.58312" lon="6.11058">
        <ele>891.7600098</ele>
        <time>2016-06-10T08:35:49Z</time>
      </trkpt>
      <trkpt lat="44.58324" lon="6.11105">
        <ele>895.1247559</ele>
        <time>2016-06-10T08:36:13Z</time>
      </trkpt>
      <trkpt lat="44.58338" lon="6.11147">
        <ele>898.0087891</ele>
        <time>2016-06-10T08:36:34Z</time>
      </trkpt>
      <trkpt lat="44.58355" lon="6.11192">
        <ele>901.373291</ele>
        <time>2016-06-10T08:36:57Z</time>
      </trkpt>
      <trkpt lat="44.58374" lon="6.11239">
        <ele>904.2573242</ele>
        <time>2016-06-10T08:37:20Z</time>
      </trkpt>
      <trkpt lat="44.58388" lon="6.11269">
        <ele>907.6218262</ele>
        <time>2016-06-10T08:37:38Z</time>
      </trkpt>
      <trkpt lat="44.5841" lon="6.11308">
        <ele>909.5446777</ele>
        <time>2016-06-10T08:38:00Z</time>
      </trkpt>
      <trkpt lat="44.58433" lon="6.11365">
        <ele>912.9091797</ele>
        <time>2016-06-10T08:38:27Z</time>
      </trkpt>
      <trkpt lat="44.58453" lon="6.11412">
        <ele>914.3510742</ele>
        <time>2016-06-10T08:38:48Z</time>
      </trkpt>
      <trkpt lat="44.58472" lon="6.11457">
        <ele>916.7543945</ele>
        <time>2016-06-10T08:39:10Z</time>
      </trkpt>
      <trkpt lat="44.58491" lon="6.11496">
        <ele>918.1962891</ele>
        <time>2016-06-10T08:39:29Z</time>
      </trkpt>
      <trkpt lat="44.58511" lon="6.11531">
        <ele>918.1962891</ele>
        <time>2016-06-10T08:39:45Z</time>
      </trkpt>
      <trkpt lat="44.58536" lon="6.1158">
        <ele>917.7155762</ele>
        <time>2016-06-10T08:39:58Z</time>
      </trkpt>
      <trkpt lat="44.58568" lon="6.1165">
        <ele>917.7155762</ele>
        <time>2016-06-10T08:40:15Z</time>
      </trkpt>
      <trkpt lat="44.58605" lon="6.11678">
        <ele>919.1577148</ele>
        <time>2016-06-10T08:40:33Z</time>
      </trkpt>
      <trkpt lat="44.58642" lon="6.11709">
        <ele>921.560791</ele>
        <time>2016-06-10T08:40:54Z</time>
      </trkpt>
      <trkpt lat="44.58674" lon="6.11748">
        <ele>924.4450684</ele>
        <time>2016-06-10T08:41:17Z</time>
      </trkpt>
      <trkpt lat="44.58709" lon="6.11784">
        <ele>927.3291016</ele>
        <time>2016-06-10T08:41:41Z</time>
      </trkpt>
      <trkpt lat="44.5875" lon="6.11811">
        <ele>930.2128906</ele>
        <time>2016-06-10T08:42:06Z</time>
      </trkpt>
      <trkpt lat="44.58793" lon="6.11835">
        <ele>932.6162109</ele>
        <time>2016-06-10T08:42:33Z</time>
      </trkpt>
      <trkpt lat="44.58825" lon="6.11849">
        <ele>935.9807129</ele>
        <time>2016-06-10T08:42:53Z</time>
      </trkpt>
      <trkpt lat="44.58859" lon="6.11862">
        <ele>938.8647461</ele>
        <time>2016-06-10T08:43:14Z</time>
      </trkpt>
      <trkpt lat="44.58879" lon="6.11883">
        <ele>942.2294922</ele>
        <time>2016-06-10T08:43:30Z</time>
      </trkpt>
      <trkpt lat="44.58904" lon="6.11914">
        <ele>945.5939941</ele>
        <time>2016-06-10T08:43:53Z</time>
      </trkpt>
      <trkpt lat="44.58924" lon="6.1196">
        <ele>948.9584961</ele>
        <time>2016-06-10T08:44:17Z</time>
      </trkpt>
      <trkpt lat="44.58938" lon="6.11995">
        <ele>951.3618164</ele>
        <time>2016-06-10T08:44:36Z</time>
      </trkpt>
      <trkpt lat="44.58956" lon="6.12032">
        <ele>954.7263184</ele>
        <time>2016-06-10T08:44:58Z</time>
      </trkpt>
      <trkpt lat="44.58981" lon="6.12065">
        <ele>957.6105957</ele>
        <time>2016-06-10T08:45:21Z</time>
      </trkpt>
      <trkpt lat="44.59004" lon="6.12079">
        <ele>960.9750977</ele>
        <time>2016-06-10T08:45:40Z</time>
      </trkpt>
      <trkpt lat="44.59032" lon="6.1209">
        <ele>964.3395996</ele>
        <time>2016-06-10T08:46:01Z</time>
      </trkpt>
      <trkpt lat="44.59061" lon="6.12096">
        <ele>966.7429199</ele>
        <time>2016-06-10T08:46:22Z</time>
      </trkpt>
      <trkpt lat="44.59088" lon="6.12099">
        <ele>969.6269531</ele>
        <time>2016-06-10T08:46:42Z</time>
      </trkpt>
      <trkpt lat="44.59106" lon="6.12103">
        <ele>971.5493164</ele>
        <time>2016-06-10T08:46:55Z</time>
      </trkpt>
      <trkpt lat="44.59123" lon="6.12127">
        <ele>974.9143066</ele>
        <time>2016-06-10T08:47:15Z</time>
      </trkpt>
      <trkpt lat="44.59148" lon="6.12148">
        <ele>977.317627</ele>
        <time>2016-06-10T08:47:36Z</time>
      </trkpt>
      <trkpt lat="44.59155" lon="6.12152">
        <ele>977.7980957</ele>
        <time>2016-06-10T08:47:41Z</time>
      </trkpt>
      <trkpt lat="44.59163" lon="6.12154">
        <ele>978.7595215</ele>
        <time>2016-06-10T08:47:47Z</time>
      </trkpt>
      <trkpt lat="44.59165" lon="6.12155">
        <ele>979.7207031</ele>
        <time>2016-06-10T08:47:49Z</time>
      </trkpt>
      <trkpt lat="44.59187" lon="6.12155">
        <ele>981.6433105</ele>
        <time>2016-06-10T08:48:05Z</time>
      </trkpt>
      <trkpt lat="44.59199" lon="6.12132">
        <ele>983.565918</ele>
        <time>2016-06-10T08:48:21Z</time>
      </trkpt>
      <trkpt lat="44.59201" lon="6.12125">
        <ele>984.0466309</ele>
        <time>2016-06-10T08:48:24Z</time>
      </trkpt>
      <trkpt lat="44.592" lon="6.12117">
        <ele>984.5273438</ele>
        <time>2016-06-10T08:48:28Z</time>
      </trkpt>
      <trkpt lat="44.59201" lon="6.12107">
        <ele>985.0080566</ele>
        <time>2016-06-10T08:48:32Z</time>
      </trkpt>
      <trkpt lat="44.59202" lon="6.121">
        <ele>985.9692383</ele>
        <time>2016-06-10T08:48:36Z</time>
      </trkpt>
      <trkpt lat="44.59202" lon="6.12094">
        <ele>985.9692383</ele>
        <time>2016-06-10T08:48:38Z</time>
      </trkpt>
      <trkpt lat="44.59199" lon="6.12086">
        <ele>986.9304199</ele>
        <time>2016-06-10T08:48:43Z</time>
      </trkpt>
      <trkpt lat="44.59198" lon="6.12083">
        <ele>987.4111328</ele>
        <time>2016-06-10T08:48:45Z</time>
      </trkpt>
      <trkpt lat="44.59202" lon="6.12068">
        <ele>988.3728027</ele>
        <time>2016-06-10T08:48:53Z</time>
      </trkpt>
      <trkpt lat="44.59214" lon="6.12034">
        <ele>991.7373047</ele>
        <time>2016-06-10T08:49:13Z</time>
      </trkpt>
      <trkpt lat="44.59237" lon="6.12036">
        <ele>994.140625</ele>
        <time>2016-06-10T08:49:28Z</time>
      </trkpt>
      <trkpt lat="44.59251" lon="6.12078">
        <ele>996.0632324</ele>
        <time>2016-06-10T08:49:48Z</time>
      </trkpt>
      <trkpt lat="44.59261" lon="6.12128">
        <ele>998.4663086</ele>
        <time>2016-06-10T08:50:13Z</time>
      </trkpt>
      <trkpt lat="44.59268" lon="6.12164">
        <ele>1000.8696289</ele>
        <time>2016-06-10T08:50:32Z</time>
      </trkpt>
      <trkpt lat="44.59272" lon="6.12209">
        <ele>1003.7536621</ele>
        <time>2016-06-10T08:50:55Z</time>
      </trkpt>
      <trkpt lat="44.59266" lon="6.12242">
        <ele>1005.6765137</ele>
        <time>2016-06-10T08:51:12Z</time>
      </trkpt>
      <trkpt lat="44.59254" lon="6.12274">
        <ele>1008.079834</ele>
        <time>2016-06-10T08:51:28Z</time>
      </trkpt>
      <trkpt lat="44.59237" lon="6.12313">
        <ele>1009.5217285</ele>
        <time>2016-06-10T08:51:46Z</time>
      </trkpt>
      <trkpt lat="44.59222" lon="6.1235">
        <ele>1010.0021973</ele>
        <time>2016-06-10T08:52:03Z</time>
      </trkpt>
      <trkpt lat="44.59228" lon="6.12399">
        <ele>1011.4443359</ele>
        <time>2016-06-10T08:52:24Z</time>
      </trkpt>
      <trkpt lat="44.59233" lon="6.12445">
        <ele>1012.8862305</ele>
        <time>2016-06-10T08:52:43Z</time>
      </trkpt>
      <trkpt lat="44.59238" lon="6.12487">
        <ele>1016.2507324</ele>
        <time>2016-06-10T08:53:04Z</time>
      </trkpt>
      <trkpt lat="44.5924" lon="6.12529">
        <ele>1018.6540527</ele>
        <time>2016-06-10T08:53:25Z</time>
      </trkpt>
      <trkpt lat="44.5924" lon="6.12533">
        <ele>1019.1347656</ele>
        <time>2016-06-10T08:53:27Z</time>
      </trkpt>
      <trkpt lat="44.59238" lon="6.12552">
        <ele>1020.0961914</ele>
        <time>2016-06-10T08:53:36Z</time>
      </trkpt>
      <trkpt lat="44.59234" lon="6.1259">
        <ele>1022.9802246</ele>
        <time>2016-06-10T08:53:55Z</time>
      </trkpt>
      <trkpt lat="44.59232" lon="6.12599">
        <ele>1022.9802246</ele>
        <time>2016-06-10T08:53:59Z</time>
      </trkpt>
      <trkpt lat="44.59231" lon="6.12625">
        <ele>1023.9414063</ele>
        <time>2016-06-10T08:54:11Z</time>
      </trkpt>
      <trkpt lat="44.59247" lon="6.1262">
        <ele>1025.8640137</ele>
        <time>2016-06-10T08:54:25Z</time>
      </trkpt>
      <trkpt lat="44.59252" lon="6.12582">
        <ele>1027.7866211</ele>
        <time>2016-06-10T08:54:42Z</time>
      </trkpt>
      <trkpt lat="44.5926" lon="6.12573">
        <ele>1028.267334</ele>
        <time>2016-06-10T08:54:49Z</time>
      </trkpt>
      <trkpt lat="44.59275" lon="6.12564">
        <ele>1029.7092285</ele>
        <time>2016-06-10T08:54:58Z</time>
      </trkpt>
      <trkpt lat="44.593" lon="6.12563">
        <ele>1032.1125488</ele>
        <time>2016-06-10T08:55:16Z</time>
      </trkpt>
      <trkpt lat="44.59322" lon="6.12535">
        <ele>1034.5158691</ele>
        <time>2016-06-10T08:55:36Z</time>
      </trkpt>
      <trkpt lat="44.5932" lon="6.1249">
        <ele>1036.4387207</ele>
        <time>2016-06-10T08:55:57Z</time>
      </trkpt>
      <trkpt lat="44.59322" lon="6.12446">
        <ele>1039.3225098</ele>
        <time>2016-06-10T08:56:17Z</time>
      </trkpt>
      <trkpt lat="44.59337" lon="6.12398">
        <ele>1041.7258301</ele>
        <time>2016-06-10T08:56:40Z</time>
      </trkpt>
      <trkpt lat="44.59369" lon="6.12397">
        <ele>1043.1677246</ele>
        <time>2016-06-10T08:56:59Z</time>
      </trkpt>
      <trkpt lat="44.59382" lon="6.12438">
        <ele>1045.090332</ele>
        <time>2016-06-10T08:57:18Z</time>
      </trkpt>
      <trkpt lat="44.59385" lon="6.12492">
        <ele>1047.4936523</ele>
        <time>2016-06-10T08:57:42Z</time>
      </trkpt>
      <trkpt lat="44.59393" lon="6.12542">
        <ele>1050.8581543</ele>
        <time>2016-06-10T08:58:06Z</time>
      </trkpt>
      <trkpt lat="44.59399" lon="6.12589">
        <ele>1053.7424316</ele>
        <time>2016-06-10T08:58:29Z</time>
      </trkpt>
      <trkpt lat="44.594" lon="6.12622">
        <ele>1055.6650391</ele>
        <time>2016-06-10T08:58:47Z</time>
      </trkpt>
      <trkpt lat="44.594" lon="6.12664">
        <ele>1058.0683594</ele>
        <time>2016-06-10T08:59:05Z</time>
      </trkpt>
      <trkpt lat="44.59407" lon="6.12708">
        <ele>1060.9521484</ele>
        <time>2016-06-10T08:59:27Z</time>
      </trkpt>
      <trkpt lat="44.59416" lon="6.12752">
        <ele>1063.8359375</ele>
        <time>2016-06-10T08:59:50Z</time>
      </trkpt>
      <trkpt lat="44.59424" lon="6.12798">
        <ele>1066.2392578</ele>
        <time>2016-06-10T09:00:13Z</time>
      </trkpt>
      <trkpt lat="44.59428" lon="6.12851">
        <ele>1069.604248</ele>
        <time>2016-06-10T09:00:38Z</time>
      </trkpt>
      <trkpt lat="44.59432" lon="6.12876">
        <ele>1071.5266113</ele>
        <time>2016-06-10T09:00:50Z</time>
      </trkpt>
      <trkpt lat="44.59446" lon="6.12916">
        <ele>1074.8913574</ele>
        <time>2016-06-10T09:01:13Z</time>
      </trkpt>
      <trkpt lat="44.59466" lon="6.12967">
        <ele>1077.7751465</ele>
        <time>2016-06-10T09:01:41Z</time>
      </trkpt>
      <trkpt lat="44.59485" lon="6.13012">
        <ele>1080.6591797</ele>
        <time>2016-06-10T09:02:06Z</time>
      </trkpt>
      <trkpt lat="44.59499" lon="6.13052">
        <ele>1083.5429688</ele>
        <time>2016-06-10T09:02:28Z</time>
      </trkpt>
      <trkpt lat="44.59504" lon="6.13091">
        <ele>1086.4272461</ele>
        <time>2016-06-10T09:02:48Z</time>
      </trkpt>
      <trkpt lat="44.59513" lon="6.13141">
        <ele>1089.791748</ele>
        <time>2016-06-10T09:03:13Z</time>
      </trkpt>
      <trkpt lat="44.59514" lon="6.13179">
        <ele>1092.1950684</ele>
        <time>2016-06-10T09:03:31Z</time>
      </trkpt>
      <trkpt lat="44.59527" lon="6.1321">
        <ele>1094.1176758</ele>
        <time>2016-06-10T09:03:51Z</time>
      </trkpt>
      <trkpt lat="44.59538" lon="6.13178">
        <ele>1096.0402832</ele>
        <time>2016-06-10T09:04:07Z</time>
      </trkpt>
      <trkpt lat="44.5955" lon="6.13149">
        <ele>1097.9628906</ele>
        <time>2016-06-10T09:04:22Z</time>
      </trkpt>
      <trkpt lat="44.59579" lon="6.13144">
        <ele>1100.8469238</ele>
        <time>2016-06-10T09:04:42Z</time>
      </trkpt>
      <trkpt lat="44.59607" lon="6.13149">
        <ele>1103.730957</ele>
        <time>2016-06-10T09:05:02Z</time>
      </trkpt>
      <trkpt lat="44.59644" lon="6.13147">
        <ele>1106.6147461</ele>
        <time>2016-06-10T09:05:27Z</time>
      </trkpt>
      <trkpt lat="44.59667" lon="6.13123">
        <ele>1109.0180664</ele>
        <time>2016-06-10T09:05:47Z</time>
      </trkpt>
      <trkpt lat="44.59686" lon="6.131">
        <ele>1110.9406738</ele>
        <time>2016-06-10T09:06:03Z</time>
      </trkpt>
      <trkpt lat="44.59706" lon="6.13082">
        <ele>1112.8632813</ele>
        <time>2016-06-10T09:06:19Z</time>
      </trkpt>
      <trkpt lat="44.59732" lon="6.13093">
        <ele>1116.7087402</ele>
        <time>2016-06-10T09:06:39Z</time>
      </trkpt>
      <trkpt lat="44.59742" lon="6.13125">
        <ele>1118.6313477</ele>
        <time>2016-06-10T09:06:55Z</time>
      </trkpt>
      <trkpt lat="44.59751" lon="6.13153">
        <ele>1120.5539551</ele>
        <time>2016-06-10T09:07:11Z</time>
      </trkpt>
      <trkpt lat="44.59768" lon="6.13192">
        <ele>1121.9958496</ele>
        <time>2016-06-10T09:07:31Z</time>
      </trkpt>
      <trkpt lat="44.59792" lon="6.13247">
        <ele>1124.3991699</ele>
        <time>2016-06-10T09:07:57Z</time>
      </trkpt>
      <trkpt lat="44.59798" lon="6.13263">
        <ele>1124.8798828</ele>
        <time>2016-06-10T09:08:05Z</time>
      </trkpt>
      <trkpt lat="44.59807" lon="6.13319">
        <ele>1126.8024902</ele>
        <time>2016-06-10T09:08:30Z</time>
      </trkpt>
      <trkpt lat="44.59817" lon="6.13375">
        <ele>1129.2055664</ele>
        <time>2016-06-10T09:08:55Z</time>
      </trkpt>
      <trkpt lat="44.59834" lon="6.13416">
        <ele>1132.0898438</ele>
        <time>2016-06-10T09:09:17Z</time>
      </trkpt>
      <trkpt lat="44.59839" lon="6.13456">
        <ele>1134.4931641</ele>
        <time>2016-06-10T09:09:37Z</time>
      </trkpt>
      <trkpt lat="44.59828" lon="6.13504">
        <ele>1137.3769531</ele>
        <time>2016-06-10T09:10:02Z</time>
      </trkpt>
      <trkpt lat="44.59841" lon="6.13526">
        <ele>1138.8190918</ele>
        <time>2016-06-10T09:10:17Z</time>
      </trkpt>
      <trkpt lat="44.59864" lon="6.13491">
        <ele>1140.7414551</ele>
        <time>2016-06-10T09:10:38Z</time>
      </trkpt>
      <trkpt lat="44.59881" lon="6.13467">
        <ele>1143.1447754</ele>
        <time>2016-06-10T09:10:55Z</time>
      </trkpt>
      <trkpt lat="44.59891" lon="6.13488">
        <ele>1145.5480957</ele>
        <time>2016-06-10T09:11:08Z</time>
      </trkpt>
      <trkpt lat="44.59889" lon="6.1353">
        <ele>1147.951416</ele>
        <time>2016-06-10T09:11:27Z</time>
      </trkpt>
      <trkpt lat="44.59909" lon="6.13535">
        <ele>1149.3935547</ele>
        <time>2016-06-10T09:11:41Z</time>
      </trkpt>
      <trkpt lat="44.59942" lon="6.13547">
        <ele>1151.3161621</ele>
        <time>2016-06-10T09:12:02Z</time>
      </trkpt>
      <trkpt lat="44.5996" lon="6.13561">
        <ele>1152.2773438</ele>
        <time>2016-06-10T09:12:16Z</time>
      </trkpt>
      <trkpt lat="44.59979" lon="6.13574">
        <ele>1153.2387695</ele>
        <time>2016-06-10T09:12:30Z</time>
      </trkpt>
      <trkpt lat="44.59982" lon="6.13574">
        <ele>1153.7194824</ele>
        <time>2016-06-10T09:12:32Z</time>
      </trkpt>
      <trkpt lat="44.5999" lon="6.1358">
        <ele>1153.7194824</ele>
        <time>2016-06-10T09:12:37Z</time>
      </trkpt>
      <trkpt lat="44.59994" lon="6.13583">
        <ele>1153.7194824</ele>
        <time>2016-06-10T09:12:40Z</time>
      </trkpt>
      <trkpt lat="44.6" lon="6.13586">
        <ele>1154.6806641</ele>
        <time>2016-06-10T09:12:45Z</time>
      </trkpt>
      <trkpt lat="44.60006" lon="6.13592">
        <ele>1155.161377</ele>
        <time>2016-06-10T09:12:50Z</time>
      </trkpt>
      <trkpt lat="44.60037" lon="6.13609">
        <ele>1156.1225586</ele>
        <time>2016-06-10T09:13:05Z</time>
      </trkpt>
      <trkpt lat="44.60055" lon="6.13613">
        <ele>1157.0839844</ele>
        <time>2016-06-10T09:13:15Z</time>
      </trkpt>
      <trkpt lat="44.60075" lon="6.13615">
        <ele>1158.5258789</ele>
        <time>2016-06-10T09:13:29Z</time>
      </trkpt>
      <trkpt lat="44.60098" lon="6.13598">
        <ele>1160.9291992</ele>
        <time>2016-06-10T09:13:45Z</time>
      </trkpt>
      <trkpt lat="44.60103" lon="6.13589">
        <ele>1161.4099121</ele>
        <time>2016-06-10T09:13:50Z</time>
      </trkpt>
      <trkpt lat="44.60132" lon="6.13593">
        <ele>1163.8129883</ele>
        <time>2016-06-10T09:14:10Z</time>
      </trkpt>
      <trkpt lat="44.60159" lon="6.13621">
        <ele>1166.2165527</ele>
        <time>2016-06-10T09:14:30Z</time>
      </trkpt>
      <trkpt lat="44.60162" lon="6.13626">
        <ele>1166.2165527</ele>
        <time>2016-06-10T09:14:33Z</time>
      </trkpt>
      <trkpt lat="44.60188" lon="6.13633">
        <ele>1168.1391602</ele>
        <time>2016-06-10T09:14:52Z</time>
      </trkpt>
      <trkpt lat="44.60189" lon="6.13632">
        <ele>1168.1391602</ele>
        <time>2016-06-10T09:15:24Z</time>
      </trkpt>
      <trkpt lat="44.6019" lon="6.13632">
        <ele>1168.619873</ele>
        <time>2016-06-10T09:15:25Z</time>
      </trkpt>
      <trkpt lat="44.60218" lon="6.13611">
        <ele>1170.0617676</ele>
        <time>2016-06-10T09:15:42Z</time>
      </trkpt>
      <trkpt lat="44.60246" lon="6.13591">
        <ele>1172.4650879</ele>
        <time>2016-06-10T09:16:01Z</time>
      </trkpt>
      <trkpt lat="44.6026" lon="6.13581">
        <ele>1173.9069824</ele>
        <time>2016-06-10T09:16:13Z</time>
      </trkpt>
      <trkpt lat="44.60274" lon="6.13572">
        <ele>1175.348877</ele>
        <time>2016-06-10T09:16:23Z</time>
      </trkpt>
      <trkpt lat="44.6028" lon="6.1357">
        <ele>1175.8295898</ele>
        <time>2016-06-10T09:16:28Z</time>
      </trkpt>
      <trkpt lat="44.60287" lon="6.13568">
        <ele>1176.3103027</ele>
        <time>2016-06-10T09:16:33Z</time>
      </trkpt>
      <trkpt lat="44.603" lon="6.1356">
        <ele>1177.7521973</ele>
        <time>2016-06-10T09:16:41Z</time>
      </trkpt>
      <trkpt lat="44.6032" lon="6.13536">
        <ele>1179.6748047</ele>
        <time>2016-06-10T09:16:57Z</time>
      </trkpt>
      <trkpt lat="44.60337" lon="6.13525">
        <ele>1181.1171875</ele>
        <time>2016-06-10T09:17:08Z</time>
      </trkpt>
      <trkpt lat="44.60346" lon="6.13533">
        <ele>1182.0783691</ele>
        <time>2016-06-10T09:17:15Z</time>
      </trkpt>
      <trkpt lat="44.60347" lon="6.13568">
        <ele>1184.9624023</ele>
        <time>2016-06-10T09:17:33Z</time>
      </trkpt>
      <trkpt lat="44.60349" lon="6.13615">
        <ele>1187.8461914</ele>
        <time>2016-06-10T09:17:53Z</time>
      </trkpt>
      <trkpt lat="44.60354" lon="6.13659">
        <ele>1191.2106934</ele>
        <time>2016-06-10T09:18:16Z</time>
      </trkpt>
      <trkpt lat="44.60356" lon="6.13693">
        <ele>1192.652832</ele>
        <time>2016-06-10T09:18:34Z</time>
      </trkpt>
      <trkpt lat="44.60353" lon="6.13722">
        <ele>1195.0559082</ele>
        <time>2016-06-10T09:18:48Z</time>
      </trkpt>
      <trkpt lat="44.60348" lon="6.13736">
        <ele>1196.9787598</ele>
        <time>2016-06-10T09:19:01Z</time>
      </trkpt>
      <trkpt lat="44.60335" lon="6.13764">
        <ele>1199.3820801</ele>
        <time>2016-06-10T09:19:19Z</time>
      </trkpt>
      <trkpt lat="44.60331" lon="6.13772">
        <ele>1200.3435059</ele>
        <time>2016-06-10T09:19:24Z</time>
      </trkpt>
      <trkpt lat="44.60317" lon="6.13814">
        <ele>1201.7854004</ele>
        <time>2016-06-10T09:19:40Z</time>
      </trkpt>
      <trkpt lat="44.60311" lon="6.1385">
        <ele>1204.1887207</ele>
        <time>2016-06-10T09:19:57Z</time>
      </trkpt>
      <trkpt lat="44.60307" lon="6.13894">
        <ele>1207.0725098</ele>
        <time>2016-06-10T09:20:18Z</time>
      </trkpt>
      <trkpt lat="44.60312" lon="6.13937">
        <ele>1209.4758301</ele>
        <time>2016-06-10T09:20:38Z</time>
      </trkpt>
      <trkpt lat="44.6031" lon="6.13983">
        <ele>1212.3598633</ele>
        <time>2016-06-10T09:21:00Z</time>
      </trkpt>
      <trkpt lat="44.60298" lon="6.14028">
        <ele>1215.2438965</ele>
        <time>2016-06-10T09:21:22Z</time>
      </trkpt>
      <trkpt lat="44.60305" lon="6.14069">
        <ele>1218.1276855</ele>
        <time>2016-06-10T09:21:43Z</time>
      </trkpt>
      <trkpt lat="44.60324" lon="6.14085">
        <ele>1219.5698242</ele>
        <time>2016-06-10T09:21:58Z</time>
      </trkpt>
      <trkpt lat="44.60357" lon="6.141">
        <ele>1222.9343262</ele>
        <time>2016-06-10T09:22:22Z</time>
      </trkpt>
      <trkpt lat="44.60386" lon="6.14112">
        <ele>1225.8181152</ele>
        <time>2016-06-10T09:22:43Z</time>
      </trkpt>
      <trkpt lat="44.60396" lon="6.14153">
        <ele>1228.7023926</ele>
        <time>2016-06-10T09:23:04Z</time>
      </trkpt>
      <trkpt lat="44.60403" lon="6.14198">
        <ele>1232.0668945</ele>
        <time>2016-06-10T09:23:27Z</time>
      </trkpt>
      <trkpt lat="44.60406" lon="6.14235">
        <ele>1233.5087891</ele>
        <time>2016-06-10T09:23:49Z</time>
      </trkpt>
      <trkpt lat="44.60406" lon="6.14236">
        <ele>1234.9509277</ele>
        <time>2016-06-10T09:25:36Z</time>
      </trkpt>
      <trkpt lat="44.60401" lon="6.14249">
        <ele>1234.9509277</ele>
        <time>2016-06-10T09:25:42Z</time>
      </trkpt>
      <trkpt lat="44.60402" lon="6.1429">
        <ele>1238.7961426</ele>
        <time>2016-06-10T09:26:02Z</time>
      </trkpt>
      <trkpt lat="44.60401" lon="6.14322">
        <ele>1241.6799316</ele>
        <time>2016-06-10T09:26:20Z</time>
      </trkpt>
      <trkpt lat="44.60406" lon="6.14353">
        <ele>1245.0446777</ele>
        <time>2016-06-10T09:26:37Z</time>
      </trkpt>
      <trkpt lat="44.60414" lon="6.14401">
        <ele>1247.9287109</ele>
        <time>2016-06-10T09:27:02Z</time>
      </trkpt>
      <trkpt lat="44.60423" lon="6.1443">
        <ele>1249.8513184</ele>
        <time>2016-06-10T09:27:19Z</time>
      </trkpt>
      <trkpt lat="44.60445" lon="6.14455">
        <ele>1253.2158203</ele>
        <time>2016-06-10T09:27:41Z</time>
      </trkpt>
      <trkpt lat="44.60447" lon="6.14457">
        <ele>1253.2158203</ele>
        <time>2016-06-10T09:27:43Z</time>
      </trkpt>
      <trkpt lat="44.60476" lon="6.14466">
        <ele>1256.0996094</ele>
        <time>2016-06-10T09:28:05Z</time>
      </trkpt>
      <trkpt lat="44.60494" lon="6.14496">
        <ele>1258.9836426</ele>
        <time>2016-06-10T09:28:25Z</time>
      </trkpt>
      <trkpt lat="44.60496" lon="6.14525">
        <ele>1262.3483887</ele>
        <time>2016-06-10T09:28:42Z</time>
      </trkpt>
      <trkpt lat="44.60487" lon="6.14549">
        <ele>1265.2324219</ele>
        <time>2016-06-10T09:28:58Z</time>
      </trkpt>
      <trkpt lat="44.60467" lon="6.14572">
        <ele>1266.6743164</ele>
        <time>2016-06-10T09:29:16Z</time>
      </trkpt>
      <trkpt lat="44.60428" lon="6.14595">
        <ele>1269.5583496</ele>
        <time>2016-06-10T09:29:40Z</time>
      </trkpt>
      <trkpt lat="44.60431" lon="6.14635">
        <ele>1271.4807129</ele>
        <time>2016-06-10T09:29:58Z</time>
      </trkpt>
      <trkpt lat="44.60438" lon="6.14681">
        <ele>1273.8840332</ele>
        <time>2016-06-10T09:30:20Z</time>
      </trkpt>
      <trkpt lat="44.60447" lon="6.14721">
        <ele>1276.2875977</ele>
        <time>2016-06-10T09:30:41Z</time>
      </trkpt>
      <trkpt lat="44.60456" lon="6.14753">
        <ele>1277.7294922</ele>
        <time>2016-06-10T09:30:58Z</time>
      </trkpt>
      <trkpt lat="44.6046" lon="6.14766">
        <ele>1279.1713867</ele>
        <time>2016-06-10T09:31:06Z</time>
      </trkpt>
      <trkpt lat="44.60461" lon="6.14771">
        <ele>1279.1713867</ele>
        <time>2016-06-10T09:31:09Z</time>
      </trkpt>
      <trkpt lat="44.60465" lon="6.14789">
        <ele>1280.6135254</ele>
        <time>2016-06-10T09:31:19Z</time>
      </trkpt>
      <trkpt lat="44.6048" lon="6.14831">
        <ele>1283.9780273</ele>
        <time>2016-06-10T09:31:44Z</time>
      </trkpt>
      <trkpt lat="44.60497" lon="6.14854">
        <ele>1287.3425293</ele>
        <time>2016-06-10T09:32:03Z</time>
      </trkpt>
      <trkpt lat="44.60505" lon="6.14882">
        <ele>1290.7070313</ele>
        <time>2016-06-10T09:32:21Z</time>
      </trkpt>
      <trkpt lat="44.60486" lon="6.14922">
        <ele>1292.1494141</ele>
        <time>2016-06-10T09:32:41Z</time>
      </trkpt>
      <trkpt lat="44.60472" lon="6.14975">
        <ele>1294.0720215</ele>
        <time>2016-06-10T09:33:06Z</time>
      </trkpt>
      <trkpt lat="44.60471" lon="6.14983">
        <ele>1294.5524902</ele>
        <time>2016-06-10T09:33:10Z</time>
      </trkpt>
      <trkpt lat="44.60473" lon="6.15035">
        <ele>1297.9172363</ele>
        <time>2016-06-10T09:33:35Z</time>
      </trkpt>
      <trkpt lat="44.60452" lon="6.15081">
        <ele>1299.3591309</ele>
        <time>2016-06-10T09:33:57Z</time>
      </trkpt>
      <trkpt lat="44.60433" lon="6.15125">
        <ele>1302.2429199</ele>
        <time>2016-06-10T09:34:21Z</time>
      </trkpt>
      <trkpt lat="44.60426" lon="6.15202">
        <ele>1305.1269531</ele>
        <time>2016-06-10T09:34:52Z</time>
      </trkpt>
      <trkpt lat="44.60423" lon="6.1526">
        <ele>1307.0495605</ele>
        <time>2016-06-10T09:35:16Z</time>
      </trkpt>
      <trkpt lat="44.60419" lon="6.15298">
        <ele>1310.4143066</ele>
        <time>2016-06-10T09:35:34Z</time>
      </trkpt>
      <trkpt lat="44.60422" lon="6.15345">
        <ele>1312.817627</ele>
        <time>2016-06-10T09:35:58Z</time>
      </trkpt>
      <trkpt lat="44.60427" lon="6.15394">
        <ele>1316.1821289</ele>
        <time>2016-06-10T09:36:22Z</time>
      </trkpt>
      <trkpt lat="44.60432" lon="6.15419">
        <ele>1318.1047363</ele>
        <time>2016-06-10T09:36:36Z</time>
      </trkpt>
      <trkpt lat="44.60453" lon="6.15426">
        <ele>1320.5080566</ele>
        <time>2016-06-10T09:36:54Z</time>
      </trkpt>
      <trkpt lat="44.60473" lon="6.15455">
        <ele>1323.3920898</ele>
        <time>2016-06-10T09:37:13Z</time>
      </trkpt>
      <trkpt lat="44.60481" lon="6.15499">
        <ele>1326.276123</ele>
        <time>2016-06-10T09:37:35Z</time>
      </trkpt>
      <trkpt lat="44.60484" lon="6.15545">
        <ele>1328.1987305</ele>
        <time>2016-06-10T09:37:55Z</time>
      </trkpt>
      <trkpt lat="44.60489" lon="6.15596">
        <ele>1330.6020508</ele>
        <time>2016-06-10T09:38:19Z</time>
      </trkpt>
      <trkpt lat="44.60492" lon="6.15608">
        <ele>1331.5632324</ele>
        <time>2016-06-10T09:38:25Z</time>
      </trkpt>
      <trkpt lat="44.60499" lon="6.1565">
        <ele>1334.4472656</ele>
        <time>2016-06-10T09:38:47Z</time>
      </trkpt>
      <trkpt lat="44.60504" lon="6.15693">
        <ele>1337.3310547</ele>
        <time>2016-06-10T09:39:09Z</time>
      </trkpt>
      <trkpt lat="44.60507" lon="6.15743">
        <ele>1341.1765137</ele>
        <time>2016-06-10T09:39:34Z</time>
      </trkpt>
      <trkpt lat="44.60504" lon="6.158">
        <ele>1342.6186523</ele>
        <time>2016-06-10T09:39:57Z</time>
      </trkpt>
      <trkpt lat="44.60492" lon="6.15858">
        <ele>1345.0217285</ele>
        <time>2016-06-10T09:40:23Z</time>
      </trkpt>
      <trkpt lat="44.60497" lon="6.15913">
        <ele>1346.9443359</ele>
        <time>2016-06-10T09:40:47Z</time>
      </trkpt>
      <trkpt lat="44.60512" lon="6.15955">
        <ele>1348.3862305</ele>
        <time>2016-06-10T09:41:07Z</time>
      </trkpt>
      <trkpt lat="44.6052" lon="6.15994">
        <ele>1349.3476563</ele>
        <time>2016-06-10T09:41:23Z</time>
      </trkpt>
      <trkpt lat="44.6053" lon="6.16042">
        <ele>1351.2702637</ele>
        <time>2016-06-10T09:41:45Z</time>
      </trkpt>
      <trkpt lat="44.60538" lon="6.16087">
        <ele>1354.6347656</ele>
        <time>2016-06-10T09:42:05Z</time>
      </trkpt>
      <trkpt lat="44.6055" lon="6.16148">
        <ele>1357.0383301</ele>
        <time>2016-06-10T09:42:33Z</time>
      </trkpt>
      <trkpt lat="44.60553" lon="6.16164">
        <ele>1357.519043</ele>
        <time>2016-06-10T09:42:40Z</time>
      </trkpt>
      <trkpt lat="44.6056" lon="6.16206">
        <ele>1360.8835449</ele>
        <time>2016-06-10T09:43:01Z</time>
      </trkpt>
      <trkpt lat="44.6056" lon="6.16236">
        <ele>1364.2480469</ele>
        <time>2016-06-10T09:43:17Z</time>
      </trkpt>
      <trkpt lat="44.60561" lon="6.16277">
        <ele>1367.1320801</ele>
        <time>2016-06-10T09:43:38Z</time>
      </trkpt>
      <trkpt lat="44.60572" lon="6.16309">
        <ele>1370.0158691</ele>
        <time>2016-06-10T09:43:56Z</time>
      </trkpt>
      <trkpt lat="44.60583" lon="6.16347">
        <ele>1373.3808594</ele>
        <time>2016-06-10T09:44:17Z</time>
      </trkpt>
      <trkpt lat="44.60593" lon="6.16399">
        <ele>1376.2646484</ele>
        <time>2016-06-10T09:44:43Z</time>
      </trkpt>
      <trkpt lat="44.60603" lon="6.16443">
        <ele>1378.6679688</ele>
        <time>2016-06-10T09:45:04Z</time>
      </trkpt>
      <trkpt lat="44.60612" lon="6.16485">
        <ele>1380.5905762</ele>
        <time>2016-06-10T09:45:23Z</time>
      </trkpt>
      <trkpt lat="44.60628" lon="6.1653">
        <ele>1382.9936523</ele>
        <time>2016-06-10T09:45:46Z</time>
      </trkpt>
      <trkpt lat="44.60627" lon="6.16578">
        <ele>1384.9165039</ele>
        <time>2016-06-10T09:46:05Z</time>
      </trkpt>
      <trkpt lat="44.60628" lon="6.16625">
        <ele>1386.3583984</ele>
        <time>2016-06-10T09:46:23Z</time>
      </trkpt>
      <trkpt lat="44.60626" lon="6.16678">
        <ele>1388.7619629</ele>
        <time>2016-06-10T09:46:44Z</time>
      </trkpt>
      <trkpt lat="44.60625" lon="6.16729">
        <ele>1390.6843262</ele>
        <time>2016-06-10T09:47:06Z</time>
      </trkpt>
      <trkpt lat="44.60624" lon="6.16778">
        <ele>1393.5683594</ele>
        <time>2016-06-10T09:47:27Z</time>
      </trkpt>
      <trkpt lat="44.60623" lon="6.16835">
        <ele>1396.9328613</ele>
        <time>2016-06-10T09:47:52Z</time>
      </trkpt>
      <trkpt lat="44.60625" lon="6.16873">
        <ele>1398.8554688</ele>
        <time>2016-06-10T09:48:10Z</time>
      </trkpt>
      <trkpt lat="44.60623" lon="6.16913">
        <ele>1401.2587891</ele>
        <time>2016-06-10T09:48:29Z</time>
      </trkpt>
      <trkpt lat="44.60616" lon="6.1696">
        <ele>1402.7006836</ele>
        <time>2016-06-10T09:48:49Z</time>
      </trkpt>
      <trkpt lat="44.60616" lon="6.16962">
        <ele>1402.7006836</ele>
        <time>2016-06-10T09:49:11Z</time>
      </trkpt>
      <trkpt lat="44.60617" lon="6.16964">
        <ele>1402.7006836</ele>
        <time>2016-06-10T09:50:45Z</time>
      </trkpt>
      <trkpt lat="44.60615" lon="6.1699">
        <ele>1404.1430664</ele>
        <time>2016-06-10T09:50:58Z</time>
      </trkpt>
      <trkpt lat="44.6061" lon="6.17033">
        <ele>1406.5461426</ele>
        <time>2016-06-10T09:51:17Z</time>
      </trkpt>
      <trkpt lat="44.60608" lon="6.17072">
        <ele>1409.4301758</ele>
        <time>2016-06-10T09:51:37Z</time>
      </trkpt>
      <trkpt lat="44.60606" lon="6.17114">
        <ele>1413.2753906</ele>
        <time>2016-06-10T09:51:58Z</time>
      </trkpt>
      <trkpt lat="44.60604" lon="6.17163">
        <ele>1416.1591797</ele>
        <time>2016-06-10T09:52:23Z</time>
      </trkpt>
      <trkpt lat="44.60599" lon="6.17218">
        <ele>1419.5239258</ele>
        <time>2016-06-10T09:52:49Z</time>
      </trkpt>
      <trkpt lat="44.60596" lon="6.1727">
        <ele>1421.4465332</ele>
        <time>2016-06-10T09:53:13Z</time>
      </trkpt>
      <trkpt lat="44.60592" lon="6.17316">
        <ele>1424.8112793</ele>
        <time>2016-06-10T09:53:37Z</time>
      </trkpt>
      <trkpt lat="44.60586" lon="6.17354">
        <ele>1427.2145996</ele>
        <time>2016-06-10T09:53:56Z</time>
      </trkpt>
      <trkpt lat="44.60578" lon="6.17403">
        <ele>1428.6564941</ele>
        <time>2016-06-10T09:54:17Z</time>
      </trkpt>
      <trkpt lat="44.6055" lon="6.17457">
        <ele>1428.6564941</ele>
        <time>2016-06-10T09:54:34Z</time>
      </trkpt>
      <trkpt lat="44.60544" lon="6.17456">
        <ele>1427.2145996</ele>
        <time>2016-06-10T09:54:48Z</time>
      </trkpt>
      <trkpt lat="44.60546" lon="6.17455">
        <ele>1426.7338867</ele>
        <time>2016-06-10T09:55:17Z</time>
      </trkpt>
      <trkpt lat="44.60551" lon="6.17468">
        <ele>1425.7724609</ele>
        <time>2016-06-10T09:55:41Z</time>
      </trkpt>
      <trkpt lat="44.60569" lon="6.17495">
        <ele>1424.5585938</ele>
      </trkpt>
      <trkpt lat="44.60587" lon="6.17522">
        <ele>1423.0507813</ele>
      </trkpt>
      <trkpt lat="44.60592" lon="6.1756">
        <ele>1421.8671875</ele>
      </trkpt>
      <trkpt lat="44.60614" lon="6.17588">
        <ele>1418.4921875</ele>
      </trkpt>
      <trkpt lat="44.60632" lon="6.17604">
        <ele>1415.9179688</ele>
      </trkpt>
      <trkpt lat="44.60636" lon="6.17643">
        <ele>1413.5351563</ele>
      </trkpt>
      <trkpt lat="44.60636" lon="6.17681">
        <ele>1411.9296875</ele>
      </trkpt>
      <trkpt lat="44.60632" lon="6.17714">
        <ele>1412.0390625</ele>
      </trkpt>
      <trkpt lat="44.60636" lon="6.17758">
        <ele>1413.7304688</ele>
      </trkpt>
      <trkpt lat="44.60659" lon="6.17774">
        <ele>1409.9101563</ele>
      </trkpt>
      <trkpt lat="44.60681" lon="6.17802">
        <ele>1405.9960938</ele>
      </trkpt>
      <trkpt lat="44.60686" lon="6.1784">
        <ele>1408.515625</ele>
      </trkpt>
      <trkpt lat="44.60699" lon="6.17873">
        <ele>1405.75</ele>
      </trkpt>
      <trkpt lat="44.60713" lon="6.179">
        <ele>1402.3867188</ele>
      </trkpt>
      <trkpt lat="44.60722" lon="6.17933">
        <ele>1400.0585938</ele>
      </trkpt>
      <trkpt lat="44.60735" lon="6.17961">
        <ele>1394.90625</ele>
      </trkpt>
      <trkpt lat="44.60749" lon="6.17988">
        <ele>1390.8085938</ele>
      </trkpt>
      <trkpt lat="44.60762" lon="6.18021">
        <ele>1387.0390625</ele>
      </trkpt>
      <trkpt lat="44.60771" lon="6.18054">
        <ele>1385.4375</ele>
      </trkpt>
      <trkpt lat="44.60776" lon="6.18092">
        <ele>1386.375</ele>
      </trkpt>
      <trkpt lat="44.60785" lon="6.18131">
        <ele>1386.8984375</ele>
      </trkpt>
      <trkpt lat="44.60803" lon="6.18158">
        <ele>1385.3125</ele>
      </trkpt>
      <trkpt lat="44.60825" lon="6.18186">
        <ele>1383.9726563</ele>
      </trkpt>
      <trkpt lat="44.60848" lon="6.18197">
        <ele>1381.6015625</ele>
      </trkpt>
      <trkpt lat="44.60879" lon="6.18186">
        <ele>1377.125</ele>
      </trkpt>
      <trkpt lat="44.60906" lon="6.18202">
        <ele>1375.7265625</ele>
      </trkpt>
      <trkpt lat="44.60933" lon="6.18213">
        <ele>1372.8320313</ele>
      </trkpt>
      <trkpt lat="44.6096" lon="6.18213">
        <ele>1369.7890625</ele>
      </trkpt>
      <trkpt lat="44.60987" lon="6.18213">
        <ele>1367.25</ele>
      </trkpt>
      <trkpt lat="44.61014" lon="6.18208">
        <ele>1364.9648438</ele>
      </trkpt>
      <trkpt lat="44.61041" lon="6.18208">
        <ele>1362.6835938</ele>
      </trkpt>
      <trkpt lat="44.61063" lon="6.18218">
        <ele>1361.875</ele>
      </trkpt>
      <trkpt lat="44.61086" lon="6.18235">
        <ele>1361.0664063</ele>
      </trkpt>
      <trkpt lat="44.61113" lon="6.18246">
        <ele>1361</ele>
      </trkpt>
      <trkpt lat="44.61135" lon="6.18273">
        <ele>1360.9140625</ele>
      </trkpt>
      <trkpt lat="44.61153" lon="6.18301">
        <ele>1359.4453125</ele>
      </trkpt>
      <trkpt lat="44.61166" lon="6.18328">
        <ele>1356.1796875</ele>
      </trkpt>
      <trkpt lat="44.61193" lon="6.18345">
        <ele>1352.34375</ele>
      </trkpt>
      <trkpt lat="44.61216" lon="6.18356">
        <ele>1349.1601563</ele>
      </trkpt>
      <trkpt lat="44.61243" lon="6.18356">
        <ele>1347.734375</ele>
      </trkpt>
      <trkpt lat="44.61265" lon="6.18372">
        <ele>1343.8164063</ele>
      </trkpt>
      <trkpt lat="44.61292" lon="6.18377">
        <ele>1341.4804688</ele>
      </trkpt>
      <trkpt lat="44.61319" lon="6.18372">
        <ele>1340.1796875</ele>
      </trkpt>
      <trkpt lat="44.61342" lon="6.1835">
        <ele>1341.5742188</ele>
      </trkpt>
      <trkpt lat="44.61369" lon="6.18328">
        <ele>1341.6171875</ele>
      </trkpt>
      <trkpt lat="44.61396" lon="6.18328">
        <ele>1337.671875</ele>
      </trkpt>
      <trkpt lat="44.61422" lon="6.18317">
        <ele>1334.6679688</ele>
      </trkpt>
      <trkpt lat="44.61449" lon="6.18306">
        <ele>1330.4453125</ele>
      </trkpt>
      <trkpt lat="44.61472" lon="6.18334">
        <ele>1323.0429688</ele>
      </trkpt>
      <trkpt lat="44.61472" lon="6.18372">
        <ele>1319.703125</ele>
      </trkpt>
      <trkpt lat="44.61458" lon="6.18405">
        <ele>1318.9921875</ele>
      </trkpt>
      <trkpt lat="44.61436" lon="6.18416">
        <ele>1320.0273438</ele>
      </trkpt>
      <trkpt lat="44.61409" lon="6.18427">
        <ele>1321.4882813</ele>
      </trkpt>
      <trkpt lat="44.61387" lon="6.18443">
        <ele>1322.6328125</ele>
      </trkpt>
      <trkpt lat="44.61378" lon="6.18482">
        <ele>1321.7421875</ele>
      </trkpt>
      <trkpt lat="44.61382" lon="6.1852">
        <ele>1320.4882813</ele>
      </trkpt>
      <trkpt lat="44.61391" lon="6.18569">
        <ele>1319.0625</ele>
      </trkpt>
      <trkpt lat="44.61409" lon="6.18602">
        <ele>1317.1640625</ele>
      </trkpt>
      <trkpt lat="44.61422" lon="6.18635">
        <ele>1315.9296875</ele>
      </trkpt>
      <trkpt lat="44.61445" lon="6.18668">
        <ele>1315.046875</ele>
      </trkpt>
      <trkpt lat="44.61458" lon="6.18696">
        <ele>1314.859375</ele>
      </trkpt>
      <trkpt lat="44.61467" lon="6.18728">
        <ele>1315.25</ele>
      </trkpt>
      <trkpt lat="44.61467" lon="6.18734">
        <ele>1315.3125</ele>
      </trkpt>
      <trkpt lat="44.61481" lon="6.18767">
        <ele>1315.859375</ele>
      </trkpt>
      <trkpt lat="44.61494" lon="6.188">
        <ele>1316.125</ele>
      </trkpt>
      <trkpt lat="44.61512" lon="6.18833">
        <ele>1316.3789063</ele>
      </trkpt>
      <trkpt lat="44.61539" lon="6.18855">
        <ele>1316.0625</ele>
      </trkpt>
      <trkpt lat="44.61562" lon="6.18871">
        <ele>1315.765625</ele>
      </trkpt>
      <trkpt lat="44.61584" lon="6.18893">
        <ele>1314.8554688</ele>
      </trkpt>
      <trkpt lat="44.61598" lon="6.1892">
        <ele>1315.0625</ele>
      </trkpt>
      <trkpt lat="44.61611" lon="6.18948">
        <ele>1314.8710938</ele>
      </trkpt>
      <trkpt lat="44.61629" lon="6.18981">
        <ele>1315.3671875</ele>
      </trkpt>
      <trkpt lat="44.61643" lon="6.19014">
        <ele>1315.1367188</ele>
      </trkpt>
      <trkpt lat="44.61656" lon="6.19041">
        <ele>1316.0898438</ele>
      </trkpt>
      <trkpt lat="44.61665" lon="6.19074">
        <ele>1316.390625</ele>
      </trkpt>
      <trkpt lat="44.6167" lon="6.19112">
        <ele>1316.7070313</ele>
      </trkpt>
      <trkpt lat="44.61679" lon="6.19151">
        <ele>1318.421875</ele>
      </trkpt>
      <trkpt lat="44.61679" lon="6.19189">
        <ele>1319.5117188</ele>
      </trkpt>
      <trkpt lat="44.61687" lon="6.19227">
        <ele>1320.6914063</ele>
      </trkpt>
      <trkpt lat="44.61701" lon="6.1926">
        <ele>1323.5195313</ele>
      </trkpt>
      <trkpt lat="44.61714" lon="6.19282">
        <ele>1325.2148438</ele>
      </trkpt>
      <trkpt lat="44.61741" lon="6.19282">
        <ele>1322.0351563</ele>
      </trkpt>
      <trkpt lat="44.61764" lon="6.19266">
        <ele>1318.2070313</ele>
      </trkpt>
      <trkpt lat="44.61782" lon="6.19238">
        <ele>1315.140625</ele>
      </trkpt>
      <trkpt lat="44.61795" lon="6.19266">
        <ele>1315.2304688</ele>
      </trkpt>
      <trkpt lat="44.61818" lon="6.19282">
        <ele>1314.1289063</ele>
      </trkpt>
      <trkpt lat="44.61822" lon="6.19315">
        <ele>1314.9921875</ele>
      </trkpt>
      <trkpt lat="44.61809" lon="6.19348">
        <ele>1317.0859375</ele>
      </trkpt>
      <trkpt lat="44.61795" lon="6.19386">
        <ele>1319.2617188</ele>
      </trkpt>
      <trkpt lat="44.61782" lon="6.19425">
        <ele>1320.953125</ele>
      </trkpt>
      <trkpt lat="44.61777" lon="6.19463">
        <ele>1321.5585938</ele>
      </trkpt>
      <trkpt lat="44.61777" lon="6.19502">
        <ele>1321.4492188</ele>
      </trkpt>
      <trkpt lat="44.61791" lon="6.19534">
        <ele>1319.9921875</ele>
      </trkpt>
      <trkpt lat="44.618" lon="6.19567">
        <ele>1320.0429688</ele>
      </trkpt>
      <trkpt lat="44.61813" lon="6.196">
        <ele>1320.9101563</ele>
      </trkpt>
      <trkpt lat="44.61831" lon="6.19628">
        <ele>1320.6015625</ele>
      </trkpt>
      <trkpt lat="44.6184" lon="6.19655">
        <ele>1320.828125</ele>
      </trkpt>
      <trkpt lat="44.61854" lon="6.19688">
        <ele>1320.5585938</ele>
      </trkpt>
      <trkpt lat="44.61872" lon="6.19715">
        <ele>1319.6875</ele>
      </trkpt>
      <trkpt lat="44.61885" lon="6.19743">
        <ele>1319.9570313</ele>
      </trkpt>
      <trkpt lat="44.61899" lon="6.1977">
        <ele>1320.1367188</ele>
      </trkpt>
      <trkpt lat="44.61894" lon="6.19814">
        <ele>1322.78125</ele>
      </trkpt>
      <trkpt lat="44.61899" lon="6.19814">
        <ele>1322.4414063</ele>
      </trkpt>
      <trkpt lat="44.61921" lon="6.19836">
        <ele>1321.6367188</ele>
      </trkpt>
      <trkpt lat="44.61944" lon="6.19858">
        <ele>1320.8867188</ele>
      </trkpt>
      <trkpt lat="44.61957" lon="6.19891">
        <ele>1321.1289063</ele>
      </trkpt>
      <trkpt lat="44.6197" lon="6.19924">
        <ele>1320.3828125</ele>
      </trkpt>
      <trkpt lat="44.61984" lon="6.19962">
        <ele>1320.4140625</ele>
      </trkpt>
      <trkpt lat="44.61997" lon="6.1999">
        <ele>1319.6679688</ele>
      </trkpt>
      <trkpt lat="44.62006" lon="6.20028">
        <ele>1320.5039063</ele>
      </trkpt>
      <trkpt lat="44.62011" lon="6.20066">
        <ele>1320.7382813</ele>
      </trkpt>
      <trkpt lat="44.62015" lon="6.20099">
        <ele>1321.3203125</ele>
      </trkpt>
      <trkpt lat="44.62029" lon="6.20132">
        <ele>1321.5351563</ele>
      </trkpt>
      <trkpt lat="44.62042" lon="6.2016">
        <ele>1321.9492188</ele>
      </trkpt>
      <trkpt lat="44.62056" lon="6.20187">
        <ele>1322.7851563</ele>
      </trkpt>
      <trkpt lat="44.62047" lon="6.20225">
        <ele>1326.2734375</ele>
      </trkpt>
      <trkpt lat="44.62029" lon="6.20253">
        <ele>1329.1992188</ele>
      </trkpt>
      <trkpt lat="44.62015" lon="6.2028">
        <ele>1331.9570313</ele>
      </trkpt>
      <trkpt lat="44.61993" lon="6.20313">
        <ele>1334.4179688</ele>
      </trkpt>
      <trkpt lat="44.61979" lon="6.20346">
        <ele>1336.2539063</ele>
      </trkpt>
      <trkpt lat="44.61966" lon="6.20373">
        <ele>1337.7421875</ele>
      </trkpt>
      <trkpt lat="44.61952" lon="6.20401">
        <ele>1339.2617188</ele>
      </trkpt>
      <trkpt lat="44.61935" lon="6.20428">
        <ele>1341.5625</ele>
      </trkpt>
      <trkpt lat="44.61917" lon="6.2045">
        <ele>1342.4921875</ele>
      </trkpt>
      <trkpt lat="44.61894" lon="6.20478">
        <ele>1343.6601563</ele>
      </trkpt>
      <trkpt lat="44.61881" lon="6.20516">
        <ele>1344.40625</ele>
      </trkpt>
      <trkpt lat="44.61872" lon="6.20554">
        <ele>1346.3828125</ele>
      </trkpt>
      <trkpt lat="44.61854" lon="6.20587">
        <ele>1348.8046875</ele>
      </trkpt>
      <trkpt lat="44.61845" lon="6.20626">
        <ele>1351.8554688</ele>
      </trkpt>
      <trkpt lat="44.61836" lon="6.20664">
        <ele>1353.5625</ele>
      </trkpt>
      <trkpt lat="44.61822" lon="6.20702">
        <ele>1355.4296875</ele>
      </trkpt>
      <trkpt lat="44.61809" lon="6.20735">
        <ele>1355.0351563</ele>
      </trkpt>
      <trkpt lat="44.61795" lon="6.20785">
        <ele>1356.0039063</ele>
      </trkpt>
      <trkpt lat="44.61786" lon="6.20823">
        <ele>1355.8242188</ele>
      </trkpt>
      <trkpt lat="44.61809" lon="6.2085">
        <ele>1355.015625</ele>
      </trkpt>
      <trkpt lat="44.61831" lon="6.20878">
        <ele>1354.2070313</ele>
      </trkpt>
      <trkpt lat="44.61849" lon="6.20911">
        <ele>1353.3007813</ele>
      </trkpt>
      <trkpt lat="44.61858" lon="6.20922">
        <ele>1353.0859375</ele>
      </trkpt>
      <trkpt lat="44.61849" lon="6.20936">
        <ele>1358.4802246</ele>
        <time>2016-06-10T10:19:14Z</time>
      </trkpt>
      <trkpt lat="44.61851" lon="6.20934">
        <ele>1357.519043</ele>
        <time>2016-06-10T10:19:17Z</time>
      </trkpt>
      <trkpt lat="44.61846" lon="6.20935">
        <ele>1341.1765137</ele>
        <time>2016-06-10T10:19:30Z</time>
      </trkpt>
      <trkpt lat="44.61846" lon="6.20936">
        <ele>1341.1765137</ele>
        <time>2016-06-10T10:19:31Z</time>
      </trkpt>
      <trkpt lat="44.61846" lon="6.20935">
        <ele>1345.0217285</ele>
        <time>2016-06-10T10:19:38Z</time>
      </trkpt>
      <trkpt lat="44.61846" lon="6.20935">
        <ele>1345.0217285</ele>
        <time>2016-06-10T10:19:39Z</time>
      </trkpt>
      <trkpt lat="44.61847" lon="6.20936">
        <ele>1348.3862305</ele>
        <time>2016-06-10T10:19:44Z</time>
      </trkpt>
      <trkpt lat="44.61847" lon="6.20936">
        <ele>1348.8669434</ele>
        <time>2016-06-10T10:19:45Z</time>
      </trkpt>
      <trkpt lat="44.61848" lon="6.20936">
        <ele>1350.309082</ele>
        <time>2016-06-10T10:19:48Z</time>
      </trkpt>
      <trkpt lat="44.61848" lon="6.20936">
        <ele>1353.1928711</ele>
        <time>2016-06-10T10:19:58Z</time>
      </trkpt>
      <trkpt lat="44.61848" lon="6.20935">
        <ele>1356.0769043</ele>
        <time>2016-06-10T10:20:08Z</time>
      </trkpt>
      <trkpt lat="44.61848" lon="6.20936">
        <ele>1358.4802246</ele>
        <time>2016-06-10T10:20:17Z</time>
      </trkpt>
      <trkpt lat="44.61826" lon="6.20957">
        <ele>1361.8449707</ele>
        <time>2016-06-10T10:20:30Z</time>
      </trkpt>
      <trkpt lat="44.6179" lon="6.20987">
        <ele>1365.2094727</ele>
        <time>2016-06-10T10:20:48Z</time>
      </trkpt>
      <trkpt lat="44.61747" lon="6.21023">
        <ele>1367.6125488</ele>
        <time>2016-06-10T10:21:10Z</time>
      </trkpt>
      <trkpt lat="44.61728" lon="6.21038">
        <ele>1368.5739746</ele>
        <time>2016-06-10T10:21:20Z</time>
      </trkpt>
      <trkpt lat="44.61735" lon="6.21039">
        <ele>1369.0546875</ele>
        <time>2016-06-10T10:21:26Z</time>
      </trkpt>
      <trkpt lat="44.61756" lon="6.21014">
        <ele>1367.6125488</ele>
        <time>2016-06-10T10:21:34Z</time>
      </trkpt>
      <trkpt lat="44.61759" lon="6.21024">
        <ele>1367.6125488</ele>
        <time>2016-06-10T10:21:39Z</time>
      </trkpt>
      <trkpt lat="44.61742" lon="6.21063">
        <ele>1367.1320801</ele>
        <time>2016-06-10T10:21:53Z</time>
      </trkpt>
      <trkpt lat="44.61743" lon="6.21068">
        <ele>1367.1320801</ele>
        <time>2016-06-10T10:22:04Z</time>
      </trkpt>
      <trkpt lat="44.61748" lon="6.21067">
        <ele>1366.6513672</ele>
        <time>2016-06-10T10:22:19Z</time>
      </trkpt>
      <trkpt lat="44.61738" lon="6.21065">
        <ele>1366.6513672</ele>
        <time>2016-06-10T10:22:53Z</time>
      </trkpt>
      <trkpt lat="44.61743" lon="6.21069">
        <ele>1366.1706543</ele>
        <time>2016-06-10T10:23:16Z</time>
      </trkpt>
      <trkpt lat="44.61743" lon="6.21068">
        <ele>1366.6513672</ele>
        <time>2016-06-10T10:23:33Z</time>
      </trkpt>
      <trkpt lat="44.61751" lon="6.21061">
        <ele>1366.6513672</ele>
        <time>2016-06-10T10:23:44Z</time>
      </trkpt>
      <trkpt lat="44.61752" lon="6.21061">
        <ele>1367.1320801</ele>
        <time>2016-06-10T10:24:21Z</time>
      </trkpt>
      <trkpt lat="44.61752" lon="6.21059">
        <ele>1367.6125488</ele>
        <time>2016-06-10T10:24:49Z</time>
      </trkpt>
      <trkpt lat="44.6176" lon="6.2103">
        <ele>1367.6125488</ele>
        <time>2016-06-10T10:25:01Z</time>
      </trkpt>
      <trkpt lat="44.61759" lon="6.21019">
        <ele>1368.0932617</ele>
        <time>2016-06-10T10:25:07Z</time>
      </trkpt>
      <trkpt lat="44.6173" lon="6.21038">
        <ele>1370.0158691</ele>
        <time>2016-06-10T10:25:22Z</time>
      </trkpt>
      <trkpt lat="44.61705" lon="6.21066">
        <ele>1371.9384766</ele>
        <time>2016-06-10T10:25:38Z</time>
      </trkpt>
      <trkpt lat="44.61691" lon="6.21078">
        <ele>1373.3808594</ele>
        <time>2016-06-10T10:25:46Z</time>
      </trkpt>
      <trkpt lat="44.61659" lon="6.21115">
        <ele>1374.342041</ele>
        <time>2016-06-10T10:26:06Z</time>
      </trkpt>
      <trkpt lat="44.61644" lon="6.21165">
        <ele>1376.7453613</ele>
        <time>2016-06-10T10:26:27Z</time>
      </trkpt>
      <trkpt lat="44.61637" lon="6.21219">
        <ele>1379.6291504</ele>
        <time>2016-06-10T10:26:49Z</time>
      </trkpt>
      <trkpt lat="44.61636" lon="6.21275">
        <ele>1382.5131836</ele>
        <time>2016-06-10T10:27:13Z</time>
      </trkpt>
      <trkpt lat="44.61642" lon="6.21325">
        <ele>1385.8776855</ele>
        <time>2016-06-10T10:27:35Z</time>
      </trkpt>
      <trkpt lat="44.61648" lon="6.21374">
        <ele>1388.7619629</ele>
        <time>2016-06-10T10:27:57Z</time>
      </trkpt>
      <trkpt lat="44.61653" lon="6.21424">
        <ele>1391.645752</ele>
        <time>2016-06-10T10:28:20Z</time>
      </trkpt>
      <trkpt lat="44.6166" lon="6.21475">
        <ele>1395.0102539</ele>
        <time>2016-06-10T10:28:43Z</time>
      </trkpt>
      <trkpt lat="44.61661" lon="6.21517">
        <ele>1397.8942871</ele>
        <time>2016-06-10T10:29:03Z</time>
      </trkpt>
      <trkpt lat="44.6164" lon="6.21565">
        <ele>1401.2587891</ele>
        <time>2016-06-10T10:29:29Z</time>
      </trkpt>
      <trkpt lat="44.61613" lon="6.21589">
        <ele>1403.6621094</ele>
        <time>2016-06-10T10:29:50Z</time>
      </trkpt>
      <trkpt lat="44.61597" lon="6.21599">
        <ele>1405.5849609</ele>
        <time>2016-06-10T10:30:00Z</time>
      </trkpt>
      <trkpt lat="44.61576" lon="6.21617">
        <ele>1407.9882813</ele>
        <time>2016-06-10T10:30:16Z</time>
      </trkpt>
      <trkpt lat="44.61574" lon="6.21621">
        <ele>1407.9882813</ele>
        <time>2016-06-10T10:30:18Z</time>
      </trkpt>
      <trkpt lat="44.6154" lon="6.21643">
        <ele>1410.8720703</ele>
        <time>2016-06-10T10:30:41Z</time>
      </trkpt>
      <trkpt lat="44.6152" lon="6.21655">
        <ele>1412.7946777</ele>
        <time>2016-06-10T10:30:55Z</time>
      </trkpt>
      <trkpt lat="44.61518" lon="6.21655">
        <ele>1412.7946777</ele>
        <time>2016-06-10T10:30:56Z</time>
      </trkpt>
      <trkpt lat="44.6151" lon="6.21667">
        <ele>1413.2753906</ele>
        <time>2016-06-10T10:31:03Z</time>
      </trkpt>
      <trkpt lat="44.61504" lon="6.2167">
        <ele>1413.7558594</ele>
        <time>2016-06-10T10:31:06Z</time>
      </trkpt>
      <trkpt lat="44.61491" lon="6.21671">
        <ele>1414.2365723</ele>
        <time>2016-06-10T10:31:12Z</time>
      </trkpt>
      <trkpt lat="44.61489" lon="6.21675">
        <ele>1414.7172852</ele>
        <time>2016-06-10T10:31:15Z</time>
      </trkpt>
      <trkpt lat="44.61465" lon="6.2167">
        <ele>1415.6787109</ele>
        <time>2016-06-10T10:31:30Z</time>
      </trkpt>
      <trkpt lat="44.61437" lon="6.21672">
        <ele>1417.6010742</ele>
        <time>2016-06-10T10:31:44Z</time>
      </trkpt>
      <trkpt lat="44.61434" lon="6.21679">
        <ele>1418.0817871</ele>
        <time>2016-06-10T10:31:48Z</time>
      </trkpt>
      <trkpt lat="44.6145" lon="6.21704">
        <ele>1419.0432129</ele>
        <time>2016-06-10T10:32:04Z</time>
      </trkpt>
      <trkpt lat="44.61473" lon="6.21696">
        <ele>1420.9660645</ele>
        <time>2016-06-10T10:32:22Z</time>
      </trkpt>
      <trkpt lat="44.61509" lon="6.21698">
        <ele>1424.3305664</ele>
        <time>2016-06-10T10:32:46Z</time>
      </trkpt>
      <trkpt lat="44.61539" lon="6.21684">
        <ele>1427.6950684</ele>
        <time>2016-06-10T10:33:09Z</time>
      </trkpt>
      <trkpt lat="44.6154" lon="6.21684">
        <ele>1427.6950684</ele>
        <time>2016-06-10T10:33:10Z</time>
      </trkpt>
      <trkpt lat="44.61569" lon="6.21665">
        <ele>1431.0598145</ele>
        <time>2016-06-10T10:33:32Z</time>
      </trkpt>
      <trkpt lat="44.61602" lon="6.2165">
        <ele>1433.4628906</ele>
        <time>2016-06-10T10:33:55Z</time>
      </trkpt>
      <trkpt lat="44.61634" lon="6.21642">
        <ele>1436.347168</ele>
        <time>2016-06-10T10:34:15Z</time>
      </trkpt>
      <trkpt lat="44.61666" lon="6.21644">
        <ele>1437.7890625</ele>
        <time>2016-06-10T10:34:32Z</time>
      </trkpt>
      <trkpt lat="44.61685" lon="6.21641">
        <ele>1438.2697754</ele>
        <time>2016-06-10T10:34:43Z</time>
      </trkpt>
      <trkpt lat="44.61688" lon="6.21658">
        <ele>1439.7116699</ele>
        <time>2016-06-10T10:34:49Z</time>
      </trkpt>
      <trkpt lat="44.61687" lon="6.21664">
        <ele>1440.1923828</ele>
        <time>2016-06-10T10:34:52Z</time>
      </trkpt>
      <trkpt lat="44.61658" lon="6.21665">
        <ele>1441.1535645</ele>
        <time>2016-06-10T10:35:07Z</time>
      </trkpt>
      <trkpt lat="44.61652" lon="6.21664">
        <ele>1442.5957031</ele>
        <time>2016-06-10T10:35:10Z</time>
      </trkpt>
      <trkpt lat="44.61621" lon="6.21662">
        <ele>1444.9987793</ele>
        <time>2016-06-10T10:35:28Z</time>
      </trkpt>
      <trkpt lat="44.61607" lon="6.21682">
        <ele>1445.9602051</ele>
        <time>2016-06-10T10:35:43Z</time>
      </trkpt>
      <trkpt lat="44.61602" lon="6.21687">
        <ele>1447.4020996</ele>
        <time>2016-06-10T10:35:47Z</time>
      </trkpt>
      <trkpt lat="44.616" lon="6.21691">
        <ele>1446.9213867</ele>
        <time>2016-06-10T10:35:50Z</time>
      </trkpt>
      <trkpt lat="44.61594" lon="6.21693">
        <ele>1448.3632813</ele>
        <time>2016-06-10T10:35:54Z</time>
      </trkpt>
      <trkpt lat="44.61583" lon="6.21703">
        <ele>1448.8439941</ele>
        <time>2016-06-10T10:36:02Z</time>
      </trkpt>
      <trkpt lat="44.61567" lon="6.21743">
        <ele>1451.2473145</ele>
        <time>2016-06-10T10:36:23Z</time>
      </trkpt>
      <trkpt lat="44.61561" lon="6.21755">
        <ele>1453.170166</ele>
        <time>2016-06-10T10:36:31Z</time>
      </trkpt>
      <trkpt lat="44.61557" lon="6.21758">
        <ele>1454.1315918</ele>
        <time>2016-06-10T10:36:34Z</time>
      </trkpt>
      <trkpt lat="44.61553" lon="6.21761">
        <ele>1454.1315918</ele>
        <time>2016-06-10T10:36:38Z</time>
      </trkpt>
      <trkpt lat="44.61552" lon="6.21764">
        <ele>1454.6120605</ele>
        <time>2016-06-10T10:36:40Z</time>
      </trkpt>
      <trkpt lat="44.61542" lon="6.21772">
        <ele>1454.6120605</ele>
        <time>2016-06-10T10:36:46Z</time>
      </trkpt>
      <trkpt lat="44.61525" lon="6.2178">
        <ele>1457.0153809</ele>
        <time>2016-06-10T10:36:57Z</time>
      </trkpt>
      <trkpt lat="44.61517" lon="6.21776">
        <ele>1457.9768066</ele>
        <time>2016-06-10T10:37:01Z</time>
      </trkpt>
      <trkpt lat="44.61507" lon="6.21781">
        <ele>1457.9768066</ele>
        <time>2016-06-10T10:37:07Z</time>
      </trkpt>
      <trkpt lat="44.61495" lon="6.21781">
        <ele>1458.9379883</ele>
        <time>2016-06-10T10:37:14Z</time>
      </trkpt>
      <trkpt lat="44.61489" lon="6.21785">
        <ele>1459.8991699</ele>
        <time>2016-06-10T10:37:19Z</time>
      </trkpt>
      <trkpt lat="44.61482" lon="6.21787">
        <ele>1460.3798828</ele>
        <time>2016-06-10T10:37:24Z</time>
      </trkpt>
      <trkpt lat="44.61478" lon="6.21792">
        <ele>1460.8605957</ele>
        <time>2016-06-10T10:37:28Z</time>
      </trkpt>
      <trkpt lat="44.61455" lon="6.21823">
        <ele>1463.7443848</ele>
        <time>2016-06-10T10:37:51Z</time>
      </trkpt>
      <trkpt lat="44.61452" lon="6.21828">
        <ele>1463.7443848</ele>
        <time>2016-06-10T10:37:54Z</time>
      </trkpt>
      <trkpt lat="44.61446" lon="6.21834">
        <ele>1464.7058105</ele>
        <time>2016-06-10T10:38:00Z</time>
      </trkpt>
      <trkpt lat="44.61442" lon="6.2184">
        <ele>1466.1477051</ele>
        <time>2016-06-10T10:38:11Z</time>
      </trkpt>
      <trkpt lat="44.61435" lon="6.21841">
        <ele>1467.5895996</ele>
        <time>2016-06-10T10:38:15Z</time>
      </trkpt>
      <trkpt lat="44.61427" lon="6.21844">
        <ele>1467.5895996</ele>
        <time>2016-06-10T10:38:19Z</time>
      </trkpt>
      <trkpt lat="44.61423" lon="6.21844">
        <ele>1467.5895996</ele>
        <time>2016-06-10T10:38:23Z</time>
      </trkpt>
      <trkpt lat="44.61418" lon="6.21849">
        <ele>1468.5512695</ele>
        <time>2016-06-10T10:38:29Z</time>
      </trkpt>
      <trkpt lat="44.61414" lon="6.21848">
        <ele>1468.5512695</ele>
        <time>2016-06-10T10:38:32Z</time>
      </trkpt>
      <trkpt lat="44.61413" lon="6.2185">
        <ele>1469.0319824</ele>
        <time>2016-06-10T10:38:34Z</time>
      </trkpt>
      <trkpt lat="44.61412" lon="6.21857">
        <ele>1469.5126953</ele>
        <time>2016-06-10T10:38:38Z</time>
      </trkpt>
      <trkpt lat="44.61396" lon="6.21873">
        <ele>1471.4350586</ele>
        <time>2016-06-10T10:38:52Z</time>
      </trkpt>
      <trkpt lat="44.61386" lon="6.21873">
        <ele>1472.3964844</ele>
        <time>2016-06-10T10:39:00Z</time>
      </trkpt>
      <trkpt lat="44.61383" lon="6.2187">
        <ele>1472.8771973</ele>
        <time>2016-06-10T10:39:05Z</time>
      </trkpt>
      <trkpt lat="44.61338" lon="6.21813">
        <ele>1475.2802734</ele>
        <time>2016-06-10T10:39:20Z</time>
      </trkpt>
      <trkpt lat="44.61322" lon="6.21791">
        <ele>1477.203125</ele>
        <time>2016-06-10T10:39:38Z</time>
      </trkpt>
      <trkpt lat="44.61299" lon="6.2178">
        <ele>1478.6450195</ele>
        <time>2016-06-10T10:39:48Z</time>
      </trkpt>
      <trkpt lat="44.61292" lon="6.21775">
        <ele>1479.1254883</ele>
        <time>2016-06-10T10:39:52Z</time>
      </trkpt>
      <trkpt lat="44.61277" lon="6.21779">
        <ele>1480.567627</ele>
        <time>2016-06-10T10:40:05Z</time>
      </trkpt>
      <trkpt lat="44.61277" lon="6.21783">
        <ele>1480.567627</ele>
        <time>2016-06-10T10:40:07Z</time>
      </trkpt>
      <trkpt lat="44.61268" lon="6.21791">
        <ele>1482.4902344</ele>
        <time>2016-06-10T10:40:19Z</time>
      </trkpt>
      <trkpt lat="44.61265" lon="6.21792">
        <ele>1482.9707031</ele>
        <time>2016-06-10T10:40:21Z</time>
      </trkpt>
      <trkpt lat="44.61253" lon="6.21791">
        <ele>1483.451416</ele>
        <time>2016-06-10T10:40:26Z</time>
      </trkpt>
      <trkpt lat="44.61244" lon="6.218">
        <ele>1484.4130859</ele>
        <time>2016-06-10T10:40:39Z</time>
      </trkpt>
      <trkpt lat="44.61226" lon="6.21831">
        <ele>1486.3356934</ele>
        <time>2016-06-10T10:40:56Z</time>
      </trkpt>
      <trkpt lat="44.61203" lon="6.21865">
        <ele>1487.7775879</ele>
        <time>2016-06-10T10:41:15Z</time>
      </trkpt>
      <trkpt lat="44.61192" lon="6.21876">
        <ele>1489.2194824</ele>
        <time>2016-06-10T10:41:24Z</time>
      </trkpt>
      <trkpt lat="44.61175" lon="6.21888">
        <ele>1490.1809082</ele>
        <time>2016-06-10T10:41:36Z</time>
      </trkpt>
      <trkpt lat="44.61171" lon="6.21893">
        <ele>1490.661377</ele>
        <time>2016-06-10T10:41:39Z</time>
      </trkpt>
      <trkpt lat="44.61164" lon="6.21898">
        <ele>1491.1420898</ele>
        <time>2016-06-10T10:41:45Z</time>
      </trkpt>
      <trkpt lat="44.61145" lon="6.2191">
        <ele>1493.0646973</ele>
        <time>2016-06-10T10:42:02Z</time>
      </trkpt>
      <trkpt lat="44.61115" lon="6.21913">
        <ele>1494.026123</ele>
        <time>2016-06-10T10:42:14Z</time>
      </trkpt>
      <trkpt lat="44.611" lon="6.21913">
        <ele>1494.5065918</ele>
        <time>2016-06-10T10:42:20Z</time>
      </trkpt>
      <trkpt lat="44.61087" lon="6.21922">
        <ele>1495.9487305</ele>
        <time>2016-06-10T10:42:30Z</time>
      </trkpt>
      <trkpt lat="44.61078" lon="6.21924">
        <ele>1496.4294434</ele>
        <time>2016-06-10T10:42:40Z</time>
      </trkpt>
      <trkpt lat="44.61066" lon="6.21923">
        <ele>1496.9099121</ele>
        <time>2016-06-10T10:42:47Z</time>
      </trkpt>
      <trkpt lat="44.61019" lon="6.21909">
        <ele>1496.9099121</ele>
        <time>2016-06-10T10:43:04Z</time>
      </trkpt>
      <trkpt lat="44.6099" lon="6.21891">
        <ele>1497.8713379</ele>
        <time>2016-06-10T10:43:19Z</time>
      </trkpt>
      <trkpt lat="44.60953" lon="6.21881">
        <ele>1497.8713379</ele>
        <time>2016-06-10T10:43:33Z</time>
      </trkpt>
      <trkpt lat="44.60913" lon="6.21884">
        <ele>1497.8713379</ele>
        <time>2016-06-10T10:43:49Z</time>
      </trkpt>
      <trkpt lat="44.60892" lon="6.21863">
        <ele>1498.3518066</ele>
        <time>2016-06-10T10:44:00Z</time>
      </trkpt>
      <trkpt lat="44.60874" lon="6.218">
        <ele>1498.3518066</ele>
        <time>2016-06-10T10:44:15Z</time>
      </trkpt>
      <trkpt lat="44.60877" lon="6.21731">
        <ele>1498.8325195</ele>
        <time>2016-06-10T10:44:33Z</time>
      </trkpt>
      <trkpt lat="44.60873" lon="6.21685">
        <ele>1499.3132324</ele>
        <time>2016-06-10T10:44:48Z</time>
      </trkpt>
      <trkpt lat="44.60874" lon="6.21639">
        <ele>1500.2749023</ele>
        <time>2016-06-10T10:45:05Z</time>
      </trkpt>
      <trkpt lat="44.60897" lon="6.21606">
        <ele>1502.6779785</ele>
        <time>2016-06-10T10:45:24Z</time>
      </trkpt>
      <trkpt lat="44.60899" lon="6.21593">
        <ele>1503.6394043</ele>
        <time>2016-06-10T10:45:30Z</time>
      </trkpt>
      <trkpt lat="44.60897" lon="6.21587">
        <ele>1503.6394043</ele>
        <time>2016-06-10T10:45:33Z</time>
      </trkpt>
      <trkpt lat="44.60891" lon="6.21585">
        <ele>1504.1201172</ele>
        <time>2016-06-10T10:45:37Z</time>
      </trkpt>
      <trkpt lat="44.60867" lon="6.21618">
        <ele>1506.0424805</ele>
        <time>2016-06-10T10:45:57Z</time>
      </trkpt>
      <trkpt lat="44.60848" lon="6.21626">
        <ele>1507.4846191</ele>
        <time>2016-06-10T10:46:08Z</time>
      </trkpt>
      <trkpt lat="44.60839" lon="6.21624">
        <ele>1508.4458008</ele>
        <time>2016-06-10T10:46:13Z</time>
      </trkpt>
      <trkpt lat="44.60834" lon="6.21623">
        <ele>1508.9265137</ele>
        <time>2016-06-10T10:46:16Z</time>
      </trkpt>
      <trkpt lat="44.60816" lon="6.21627">
        <ele>1511.329834</ele>
        <time>2016-06-10T10:46:28Z</time>
      </trkpt>
      <trkpt lat="44.60806" lon="6.21627">
        <ele>1511.8105469</ele>
        <time>2016-06-10T10:46:35Z</time>
      </trkpt>
      <trkpt lat="44.60803" lon="6.21633">
        <ele>1512.7717285</ele>
        <time>2016-06-10T10:46:44Z</time>
      </trkpt>
      <trkpt lat="44.6078" lon="6.21662">
        <ele>1514.213623</ele>
        <time>2016-06-10T10:47:02Z</time>
      </trkpt>
      <trkpt lat="44.60757" lon="6.21692">
        <ele>1515.1750488</ele>
        <time>2016-06-10T10:47:19Z</time>
      </trkpt>
      <trkpt lat="44.60734" lon="6.21713">
        <ele>1516.1364746</ele>
        <time>2016-06-10T10:47:36Z</time>
      </trkpt>
      <trkpt lat="44.60727" lon="6.21723">
        <ele>1516.1364746</ele>
        <time>2016-06-10T10:47:43Z</time>
      </trkpt>
      <trkpt lat="44.60712" lon="6.21756">
        <ele>1517.5783691</ele>
        <time>2016-06-10T10:47:59Z</time>
      </trkpt>
      <trkpt lat="44.60721" lon="6.21766">
        <ele>1518.059082</ele>
        <time>2016-06-10T10:48:05Z</time>
      </trkpt>
      <trkpt lat="44.60743" lon="6.2178">
        <ele>1519.9816895</ele>
        <time>2016-06-10T10:48:21Z</time>
      </trkpt>
      <trkpt lat="44.60751" lon="6.21818">
        <ele>1523.3464355</ele>
        <time>2016-06-10T10:48:40Z</time>
      </trkpt>
      <trkpt lat="44.60735" lon="6.2184">
        <ele>1525.2687988</ele>
        <time>2016-06-10T10:48:55Z</time>
      </trkpt>
      <trkpt lat="44.60727" lon="6.21855">
        <ele>1526.7109375</ele>
        <time>2016-06-10T10:49:04Z</time>
      </trkpt>
      <trkpt lat="44.6073" lon="6.21906">
        <ele>1529.1140137</ele>
        <time>2016-06-10T10:49:29Z</time>
      </trkpt>
      <trkpt lat="44.60721" lon="6.21951">
        <ele>1531.9980469</ele>
        <time>2016-06-10T10:49:53Z</time>
      </trkpt>
      <trkpt lat="44.60716" lon="6.21957">
        <ele>1532.9594727</ele>
        <time>2016-06-10T10:49:58Z</time>
      </trkpt>
      <trkpt lat="44.60696" lon="6.21951">
        <ele>1535.362793</ele>
        <time>2016-06-10T10:50:13Z</time>
      </trkpt>
      <trkpt lat="44.60672" lon="6.21929">
        <ele>1537.7661133</ele>
        <time>2016-06-10T10:50:31Z</time>
      </trkpt>
      <trkpt lat="44.60647" lon="6.21919">
        <ele>1539.6887207</ele>
        <time>2016-06-10T10:50:46Z</time>
      </trkpt>
      <trkpt lat="44.60619" lon="6.2191">
        <ele>1542.5727539</ele>
        <time>2016-06-10T10:51:05Z</time>
      </trkpt>
      <trkpt lat="44.60594" lon="6.219">
        <ele>1544.4951172</ele>
        <time>2016-06-10T10:51:24Z</time>
      </trkpt>
      <trkpt lat="44.60582" lon="6.21902">
        <ele>1545.9372559</ele>
        <time>2016-06-10T10:51:32Z</time>
      </trkpt>
      <trkpt lat="44.60569" lon="6.21893">
        <ele>1546.8984375</ele>
        <time>2016-06-10T10:51:42Z</time>
      </trkpt>
      <trkpt lat="44.6054" lon="6.21887">
        <ele>1549.302002</ele>
        <time>2016-06-10T10:52:02Z</time>
      </trkpt>
      <trkpt lat="44.60531" lon="6.2188">
        <ele>1550.2634277</ele>
        <time>2016-06-10T10:52:08Z</time>
      </trkpt>
      <trkpt lat="44.60502" lon="6.21884">
        <ele>1553.1472168</ele>
        <time>2016-06-10T10:52:27Z</time>
      </trkpt>
      <trkpt lat="44.6047" lon="6.21904">
        <ele>1555.0698242</ele>
        <time>2016-06-10T10:52:49Z</time>
      </trkpt>
      <trkpt lat="44.60457" lon="6.21915">
        <ele>1556.5117188</ele>
        <time>2016-06-10T10:52:59Z</time>
      </trkpt>
      <trkpt lat="44.60455" lon="6.2192">
        <ele>1556.9924316</ele>
        <time>2016-06-10T10:53:03Z</time>
      </trkpt>
      <trkpt lat="44.60417" lon="6.2193">
        <ele>1559.8762207</ele>
        <time>2016-06-10T10:53:25Z</time>
      </trkpt>
      <trkpt lat="44.60388" lon="6.21932">
        <ele>1562.279541</ele>
        <time>2016-06-10T10:53:44Z</time>
      </trkpt>
      <trkpt lat="44.60355" lon="6.21937">
        <ele>1564.6831055</ele>
        <time>2016-06-10T10:54:05Z</time>
      </trkpt>
      <trkpt lat="44.6033" lon="6.21941">
        <ele>1566.6057129</ele>
        <time>2016-06-10T10:54:22Z</time>
      </trkpt>
      <trkpt lat="44.60289" lon="6.21948">
        <ele>1569.0090332</ele>
        <time>2016-06-10T10:54:48Z</time>
      </trkpt>
      <trkpt lat="44.60256" lon="6.21955">
        <ele>1570.9316406</ele>
        <time>2016-06-10T10:55:08Z</time>
      </trkpt>
      <trkpt lat="44.60215" lon="6.21969">
        <ele>1573.3349609</ele>
        <time>2016-06-10T10:55:33Z</time>
      </trkpt>
      <trkpt lat="44.60178" lon="6.21982">
        <ele>1575.7380371</ele>
        <time>2016-06-10T10:55:54Z</time>
      </trkpt>
      <trkpt lat="44.60132" lon="6.22">
        <ele>1577.6606445</ele>
        <time>2016-06-10T10:56:20Z</time>
      </trkpt>
      <trkpt lat="44.60094" lon="6.22018">
        <ele>1578.1413574</ele>
        <time>2016-06-10T10:56:40Z</time>
      </trkpt>
      <trkpt lat="44.60057" lon="6.22046">
        <ele>1577.6606445</ele>
        <time>2016-06-10T10:56:55Z</time>
      </trkpt>
      <trkpt lat="44.60021" lon="6.22068">
        <ele>1576.21875</ele>
        <time>2016-06-10T10:57:08Z</time>
      </trkpt>
      <trkpt lat="44.60016" lon="6.22066">
        <ele>1576.21875</ele>
        <time>2016-06-10T10:57:11Z</time>
      </trkpt>
      <trkpt lat="44.60012" lon="6.22058">
        <ele>1574.7768555</ele>
        <time>2016-06-10T10:57:26Z</time>
      </trkpt>
      <trkpt lat="44.60014" lon="6.22052">
        <ele>1575.2573242</ele>
        <time>2016-06-10T10:58:04Z</time>
      </trkpt>
      <trkpt lat="44.60013" lon="6.22051">
        <ele>1575.2573242</ele>
        <time>2016-06-10T10:58:58Z</time>
      </trkpt>
      <trkpt lat="44.60018" lon="6.22057">
        <ele>1574.7768555</ele>
        <time>2016-06-10T10:59:17Z</time>
      </trkpt>
      <trkpt lat="44.60017" lon="6.22056">
        <ele>1574.7768555</ele>
        <time>2016-06-10T10:59:54Z</time>
      </trkpt>
      <trkpt lat="44.60017" lon="6.22056">
        <ele>1575.7380371</ele>
        <time>2016-06-10T11:02:28Z</time>
      </trkpt>
      <trkpt lat="44.60018" lon="6.22055">
        <ele>1574.7768555</ele>
        <time>2016-06-10T11:06:36Z</time>
      </trkpt>
      <trkpt lat="44.60016" lon="6.22052">
        <ele>1575.7380371</ele>
        <time>2016-06-10T11:07:53Z</time>
      </trkpt>
      <trkpt lat="44.60015" lon="6.22054">
        <ele>1575.7380371</ele>
        <time>2016-06-10T11:07:56Z</time>
      </trkpt>
      <trkpt lat="44.60013" lon="6.22068">
        <ele>1576.21875</ele>
        <time>2016-06-10T11:08:16Z</time>
      </trkpt>
      <trkpt lat="44.60012" lon="6.22069">
        <ele>1575.7380371</ele>
        <time>2016-06-10T11:08:22Z</time>
      </trkpt>
      <trkpt lat="44.6001" lon="6.2207">
        <ele>1576.21875</ele>
        <time>2016-06-10T11:08:27Z</time>
      </trkpt>
      <trkpt lat="44.59978" lon="6.22058">
        <ele>1575.7380371</ele>
        <time>2016-06-10T11:08:41Z</time>
      </trkpt>
      <trkpt lat="44.59967" lon="6.22038">
        <ele>1574.7768555</ele>
        <time>2016-06-10T11:08:46Z</time>
      </trkpt>
      <trkpt lat="44.59969" lon="6.21981">
        <ele>1573.8154297</ele>
        <time>2016-06-10T11:08:54Z</time>
      </trkpt>
      <trkpt lat="44.5996" lon="6.21939">
        <ele>1570.9316406</ele>
        <time>2016-06-10T11:09:03Z</time>
      </trkpt>
      <trkpt lat="44.59944" lon="6.21959">
        <ele>1570.9316406</ele>
        <time>2016-06-10T11:09:08Z</time>
      </trkpt>
      <trkpt lat="44.59927" lon="6.22034">
        <ele>1567.0864258</ele>
        <time>2016-06-10T11:09:16Z</time>
      </trkpt>
      <trkpt lat="44.59924" lon="6.22045">
        <ele>1567.0864258</ele>
        <time>2016-06-10T11:09:17Z</time>
      </trkpt>
      <trkpt lat="44.59918" lon="6.22076">
        <ele>1565.1638184</ele>
        <time>2016-06-10T11:09:20Z</time>
      </trkpt>
      <trkpt lat="44.59912" lon="6.22135">
        <ele>1562.279541</ele>
        <time>2016-06-10T11:09:25Z</time>
      </trkpt>
      <trkpt lat="44.59914" lon="6.22158">
        <ele>1561.3183594</ele>
        <time>2016-06-10T11:09:27Z</time>
      </trkpt>
      <trkpt lat="44.59919" lon="6.22181">
        <ele>1558.4343262</ele>
        <time>2016-06-10T11:09:29Z</time>
      </trkpt>
      <trkpt lat="44.59921" lon="6.22202">
        <ele>1557.4731445</ele>
        <time>2016-06-10T11:09:31Z</time>
      </trkpt>
      <trkpt lat="44.59915" lon="6.22236">
        <ele>1554.1086426</ele>
        <time>2016-06-10T11:09:34Z</time>
      </trkpt>
      <trkpt lat="44.5989" lon="6.2229">
        <ele>1550.7438965</ele>
        <time>2016-06-10T11:09:39Z</time>
      </trkpt>
      <trkpt lat="44.59876" lon="6.22307">
        <ele>1548.8212891</ele>
        <time>2016-06-10T11:09:41Z</time>
      </trkpt>
      <trkpt lat="44.59859" lon="6.22319">
        <ele>1547.8598633</ele>
        <time>2016-06-10T11:09:43Z</time>
      </trkpt>
      <trkpt lat="44.59839" lon="6.22326">
        <ele>1547.3791504</ele>
        <time>2016-06-10T11:09:45Z</time>
      </trkpt>
      <trkpt lat="44.59811" lon="6.22333">
        <ele>1543.0532227</ele>
        <time>2016-06-10T11:09:48Z</time>
      </trkpt>
      <trkpt lat="44.59794" lon="6.22339">
        <ele>1540.6499023</ele>
        <time>2016-06-10T11:09:50Z</time>
      </trkpt>
      <trkpt lat="44.59774" lon="6.22353">
        <ele>1537.7661133</ele>
        <time>2016-06-10T11:09:53Z</time>
      </trkpt>
      <trkpt lat="44.59768" lon="6.22358">
        <ele>1536.3242188</ele>
        <time>2016-06-10T11:09:54Z</time>
      </trkpt>
      <trkpt lat="44.59757" lon="6.22373">
        <ele>1534.8823242</ele>
        <time>2016-06-10T11:09:57Z</time>
      </trkpt>
      <trkpt lat="44.59756" lon="6.22407">
        <ele>1532.4790039</ele>
        <time>2016-06-10T11:10:01Z</time>
      </trkpt>
      <trkpt lat="44.5976" lon="6.22435">
        <ele>1530.5561523</ele>
        <time>2016-06-10T11:10:04Z</time>
      </trkpt>
      <trkpt lat="44.59772" lon="6.22496">
        <ele>1526.7109375</ele>
        <time>2016-06-10T11:10:10Z</time>
      </trkpt>
      <trkpt lat="44.59774" lon="6.22531">
        <ele>1524.7883301</ele>
        <time>2016-06-10T11:10:13Z</time>
      </trkpt>
      <trkpt lat="44.59773" lon="6.22556">
        <ele>1523.3464355</ele>
        <time>2016-06-10T11:10:15Z</time>
      </trkpt>
      <trkpt lat="44.59771" lon="6.2258">
        <ele>1519.0205078</ele>
        <time>2016-06-10T11:10:17Z</time>
      </trkpt>
      <trkpt lat="44.5977" lon="6.22593">
        <ele>1519.0205078</ele>
        <time>2016-06-10T11:10:18Z</time>
      </trkpt>
      <trkpt lat="44.5977" lon="6.22619">
        <ele>1516.6171875</ele>
        <time>2016-06-10T11:10:20Z</time>
      </trkpt>
      <trkpt lat="44.5977" lon="6.22645">
        <ele>1513.7329102</ele>
        <time>2016-06-10T11:10:22Z</time>
      </trkpt>
      <trkpt lat="44.59771" lon="6.2267">
        <ele>1509.8876953</ele>
        <time>2016-06-10T11:10:24Z</time>
      </trkpt>
      <trkpt lat="44.5977" lon="6.22708">
        <ele>1507.965332</ele>
        <time>2016-06-10T11:10:27Z</time>
      </trkpt>
      <trkpt lat="44.5977" lon="6.22734">
        <ele>1506.5231934</ele>
        <time>2016-06-10T11:10:29Z</time>
      </trkpt>
      <trkpt lat="44.59769" lon="6.22761">
        <ele>1502.6779785</ele>
        <time>2016-06-10T11:10:31Z</time>
      </trkpt>
      <trkpt lat="44.59769" lon="6.22774">
        <ele>1502.6779785</ele>
        <time>2016-06-10T11:10:32Z</time>
      </trkpt>
      <trkpt lat="44.59767" lon="6.2281">
        <ele>1499.7939453</ele>
        <time>2016-06-10T11:10:35Z</time>
      </trkpt>
      <trkpt lat="44.59766" lon="6.22821">
        <ele>1499.7939453</ele>
        <time>2016-06-10T11:10:36Z</time>
      </trkpt>
      <trkpt lat="44.59766" lon="6.2283">
        <ele>1497.8713379</ele>
        <time>2016-06-10T11:10:37Z</time>
      </trkpt>
      <trkpt lat="44.59763" lon="6.22849">
        <ele>1495.4680176</ele>
        <time>2016-06-10T11:10:39Z</time>
      </trkpt>
      <trkpt lat="44.59762" lon="6.22868">
        <ele>1494.5065918</ele>
        <time>2016-06-10T11:10:41Z</time>
      </trkpt>
      <trkpt lat="44.59765" lon="6.22886">
        <ele>1493.0646973</ele>
        <time>2016-06-10T11:10:43Z</time>
      </trkpt>
      <trkpt lat="44.59768" lon="6.22905">
        <ele>1491.1420898</ele>
        <time>2016-06-10T11:10:45Z</time>
      </trkpt>
      <trkpt lat="44.59774" lon="6.22922">
        <ele>1487.7775879</ele>
        <time>2016-06-10T11:10:47Z</time>
      </trkpt>
      <trkpt lat="44.59776" lon="6.22931">
        <ele>1487.7775879</ele>
        <time>2016-06-10T11:10:48Z</time>
      </trkpt>
      <trkpt lat="44.5978" lon="6.2295">
        <ele>1486.3356934</ele>
        <time>2016-06-10T11:10:50Z</time>
      </trkpt>
      <trkpt lat="44.59781" lon="6.22972">
        <ele>1485.3742676</ele>
        <time>2016-06-10T11:10:52Z</time>
      </trkpt>
      <trkpt lat="44.5978" lon="6.22997">
        <ele>1482.4902344</ele>
        <time>2016-06-10T11:10:54Z</time>
      </trkpt>
      <trkpt lat="44.59777" lon="6.23032">
        <ele>1480.0869141</ele>
        <time>2016-06-10T11:10:57Z</time>
      </trkpt>
      <trkpt lat="44.59775" lon="6.23052">
        <ele>1478.6450195</ele>
        <time>2016-06-10T11:10:59Z</time>
      </trkpt>
      <trkpt lat="44.59773" lon="6.23079">
        <ele>1475.7609863</ele>
        <time>2016-06-10T11:11:02Z</time>
      </trkpt>
      <trkpt lat="44.59771" lon="6.23095">
        <ele>1473.8383789</ele>
        <time>2016-06-10T11:11:04Z</time>
      </trkpt>
      <trkpt lat="44.5977" lon="6.23113">
        <ele>1471.9157715</ele>
        <time>2016-06-10T11:11:06Z</time>
      </trkpt>
      <trkpt lat="44.59768" lon="6.23122">
        <ele>1471.4350586</ele>
        <time>2016-06-10T11:11:07Z</time>
      </trkpt>
      <trkpt lat="44.59762" lon="6.2314">
        <ele>1469.9931641</ele>
        <time>2016-06-10T11:11:09Z</time>
      </trkpt>
      <trkpt lat="44.59754" lon="6.23155">
        <ele>1468.5512695</ele>
        <time>2016-06-10T11:11:11Z</time>
      </trkpt>
      <trkpt lat="44.59744" lon="6.23164">
        <ele>1466.628418</ele>
        <time>2016-06-10T11:11:13Z</time>
      </trkpt>
      <trkpt lat="44.5973" lon="6.23159">
        <ele>1463.7443848</ele>
        <time>2016-06-10T11:11:16Z</time>
      </trkpt>
      <trkpt lat="44.59718" lon="6.23139">
        <ele>1462.3024902</ele>
        <time>2016-06-10T11:11:19Z</time>
      </trkpt>
      <trkpt lat="44.59707" lon="6.23112">
        <ele>1460.8605957</ele>
        <time>2016-06-10T11:11:22Z</time>
      </trkpt>
      <trkpt lat="44.59695" lon="6.23083">
        <ele>1458.9379883</ele>
        <time>2016-06-10T11:11:25Z</time>
      </trkpt>
      <trkpt lat="44.59676" lon="6.23047">
        <ele>1456.534668</ele>
        <time>2016-06-10T11:11:29Z</time>
      </trkpt>
      <trkpt lat="44.59663" lon="6.23021">
        <ele>1454.1315918</ele>
        <time>2016-06-10T11:11:32Z</time>
      </trkpt>
      <trkpt lat="44.59642" lon="6.22983">
        <ele>1451.2473145</ele>
        <time>2016-06-10T11:11:36Z</time>
      </trkpt>
      <trkpt lat="44.59634" lon="6.22975">
        <ele>1448.8439941</ele>
        <time>2016-06-10T11:11:37Z</time>
      </trkpt>
      <trkpt lat="44.59621" lon="6.22961">
        <ele>1446.9213867</ele>
        <time>2016-06-10T11:11:39Z</time>
      </trkpt>
      <trkpt lat="44.59603" lon="6.22947">
        <ele>1444.9987793</ele>
        <time>2016-06-10T11:11:41Z</time>
      </trkpt>
      <trkpt lat="44.59588" lon="6.22937">
        <ele>1443.0761719</ele>
        <time>2016-06-10T11:11:43Z</time>
      </trkpt>
      <trkpt lat="44.59572" lon="6.22927">
        <ele>1439.7116699</ele>
        <time>2016-06-10T11:11:45Z</time>
      </trkpt>
      <trkpt lat="44.59564" lon="6.22922">
        <ele>1439.7116699</ele>
        <time>2016-06-10T11:11:46Z</time>
      </trkpt>
      <trkpt lat="44.59549" lon="6.22909">
        <ele>1437.7890625</ele>
        <time>2016-06-10T11:11:48Z</time>
      </trkpt>
      <trkpt lat="44.59543" lon="6.22902">
        <ele>1436.347168</ele>
        <time>2016-06-10T11:11:49Z</time>
      </trkpt>
      <trkpt lat="44.59522" lon="6.22871">
        <ele>1433.9436035</ele>
        <time>2016-06-10T11:11:53Z</time>
      </trkpt>
      <trkpt lat="44.59512" lon="6.22854">
        <ele>1432.501709</ele>
        <time>2016-06-10T11:11:55Z</time>
      </trkpt>
      <trkpt lat="44.59504" lon="6.22833">
        <ele>1430.5791016</ele>
        <time>2016-06-10T11:11:57Z</time>
      </trkpt>
      <trkpt lat="44.59491" lon="6.22806">
        <ele>1428.6564941</ele>
        <time>2016-06-10T11:12:00Z</time>
      </trkpt>
      <trkpt lat="44.59487" lon="6.22798">
        <ele>1427.6950684</ele>
        <time>2016-06-10T11:12:01Z</time>
      </trkpt>
      <trkpt lat="44.59461" lon="6.22765">
        <ele>1424.8112793</ele>
        <time>2016-06-10T11:12:06Z</time>
      </trkpt>
      <trkpt lat="44.59456" lon="6.2276">
        <ele>1421.9272461</ele>
        <time>2016-06-10T11:12:07Z</time>
      </trkpt>
      <trkpt lat="44.59451" lon="6.22745">
        <ele>1420.4853516</ele>
        <time>2016-06-10T11:12:09Z</time>
      </trkpt>
      <trkpt lat="44.59461" lon="6.2271">
        <ele>1418.5625</ele>
        <time>2016-06-10T11:12:13Z</time>
      </trkpt>
      <trkpt lat="44.59478" lon="6.22682">
        <ele>1415.197998</ele>
        <time>2016-06-10T11:12:16Z</time>
      </trkpt>
      <trkpt lat="44.59489" lon="6.2266">
        <ele>1412.7946777</ele>
        <time>2016-06-10T11:12:18Z</time>
      </trkpt>
      <trkpt lat="44.59498" lon="6.22638">
        <ele>1411.3527832</ele>
        <time>2016-06-10T11:12:20Z</time>
      </trkpt>
      <trkpt lat="44.59501" lon="6.22628">
        <ele>1408.46875</ele>
        <time>2016-06-10T11:12:21Z</time>
      </trkpt>
      <trkpt lat="44.59507" lon="6.22609">
        <ele>1406.0654297</ele>
        <time>2016-06-10T11:12:23Z</time>
      </trkpt>
      <trkpt lat="44.59509" lon="6.22588">
        <ele>1404.6235352</ele>
        <time>2016-06-10T11:12:25Z</time>
      </trkpt>
      <trkpt lat="44.59509" lon="6.22577">
        <ele>1401.2587891</ele>
        <time>2016-06-10T11:12:26Z</time>
      </trkpt>
      <trkpt lat="44.59509" lon="6.22567">
        <ele>1401.2587891</ele>
        <time>2016-06-10T11:12:27Z</time>
      </trkpt>
      <trkpt lat="44.59509" lon="6.22557">
        <ele>1399.3361816</ele>
        <time>2016-06-10T11:12:28Z</time>
      </trkpt>
      <trkpt lat="44.59507" lon="6.22537">
        <ele>1396.9328613</ele>
        <time>2016-06-10T11:12:30Z</time>
      </trkpt>
      <trkpt lat="44.59501" lon="6.22518">
        <ele>1395.0102539</ele>
        <time>2016-06-10T11:12:32Z</time>
      </trkpt>
      <trkpt lat="44.59495" lon="6.22498">
        <ele>1393.0876465</ele>
        <time>2016-06-10T11:12:34Z</time>
      </trkpt>
      <trkpt lat="44.59489" lon="6.2248">
        <ele>1389.2424316</ele>
        <time>2016-06-10T11:12:36Z</time>
      </trkpt>
      <trkpt lat="44.59487" lon="6.2247">
        <ele>1389.2424316</ele>
        <time>2016-06-10T11:12:37Z</time>
      </trkpt>
      <trkpt lat="44.59484" lon="6.22461">
        <ele>1387.3195801</ele>
        <time>2016-06-10T11:12:38Z</time>
      </trkpt>
      <trkpt lat="44.59473" lon="6.22433">
        <ele>1385.3969727</ele>
        <time>2016-06-10T11:12:41Z</time>
      </trkpt>
      <trkpt lat="44.59465" lon="6.22417">
        <ele>1381.5517578</ele>
        <time>2016-06-10T11:12:43Z</time>
      </trkpt>
      <trkpt lat="44.59462" lon="6.22407">
        <ele>1381.5517578</ele>
        <time>2016-06-10T11:12:44Z</time>
      </trkpt>
      <trkpt lat="44.59455" lon="6.22388">
        <ele>1379.6291504</ele>
        <time>2016-06-10T11:12:46Z</time>
      </trkpt>
      <trkpt lat="44.59454" lon="6.22369">
        <ele>1378.1872559</ele>
        <time>2016-06-10T11:12:48Z</time>
      </trkpt>
      <trkpt lat="44.59444" lon="6.22343">
        <ele>1373.3808594</ele>
        <time>2016-06-10T11:12:53Z</time>
      </trkpt>
      <trkpt lat="44.59437" lon="6.22366">
        <ele>1371.9384766</ele>
        <time>2016-06-10T11:12:57Z</time>
      </trkpt>
      <trkpt lat="44.59436" lon="6.22384">
        <ele>1370.9772949</ele>
        <time>2016-06-10T11:12:59Z</time>
      </trkpt>
      <trkpt lat="44.59411" lon="6.22436">
        <ele>1369.5354004</ele>
        <time>2016-06-10T11:13:05Z</time>
      </trkpt>
      <trkpt lat="44.59398" lon="6.22447">
        <ele>1368.0932617</ele>
        <time>2016-06-10T11:13:07Z</time>
      </trkpt>
      <trkpt lat="44.59386" lon="6.22459">
        <ele>1367.6125488</ele>
        <time>2016-06-10T11:13:09Z</time>
      </trkpt>
      <trkpt lat="44.59367" lon="6.22474">
        <ele>1365.2094727</ele>
        <time>2016-06-10T11:13:12Z</time>
      </trkpt>
      <trkpt lat="44.59326" lon="6.22496">
        <ele>1362.8061523</ele>
        <time>2016-06-10T11:13:18Z</time>
      </trkpt>
      <trkpt lat="44.59301" lon="6.22499">
        <ele>1361.3642578</ele>
        <time>2016-06-10T11:13:21Z</time>
      </trkpt>
      <trkpt lat="44.59285" lon="6.22502">
        <ele>1359.9221191</ele>
        <time>2016-06-10T11:13:23Z</time>
      </trkpt>
      <trkpt lat="44.59271" lon="6.22506">
        <ele>1358.4802246</ele>
        <time>2016-06-10T11:13:25Z</time>
      </trkpt>
      <trkpt lat="44.59258" lon="6.22509">
        <ele>1355.5961914</ele>
        <time>2016-06-10T11:13:27Z</time>
      </trkpt>
      <trkpt lat="44.59227" lon="6.22487">
        <ele>1352.7121582</ele>
        <time>2016-06-10T11:13:34Z</time>
      </trkpt>
      <trkpt lat="44.5923" lon="6.22454">
        <ele>1349.8283691</ele>
        <time>2016-06-10T11:13:37Z</time>
      </trkpt>
      <trkpt lat="44.59231" lon="6.22428">
        <ele>1348.3862305</ele>
        <time>2016-06-10T11:13:39Z</time>
      </trkpt>
      <trkpt lat="44.59233" lon="6.22416">
        <ele>1346.4638672</ele>
        <time>2016-06-10T11:13:40Z</time>
      </trkpt>
      <trkpt lat="44.59237" lon="6.22393">
        <ele>1343.0991211</ele>
        <time>2016-06-10T11:13:42Z</time>
      </trkpt>
      <trkpt lat="44.59241" lon="6.22375">
        <ele>1340.6958008</ele>
        <time>2016-06-10T11:13:44Z</time>
      </trkpt>
      <trkpt lat="44.59241" lon="6.22362">
        <ele>1338.7731934</ele>
        <time>2016-06-10T11:13:46Z</time>
      </trkpt>
      <trkpt lat="44.59222" lon="6.22356">
        <ele>1335.8891602</ele>
        <time>2016-06-10T11:13:51Z</time>
      </trkpt>
      <trkpt lat="44.59212" lon="6.22367">
        <ele>1335.4084473</ele>
        <time>2016-06-10T11:13:53Z</time>
      </trkpt>
      <trkpt lat="44.5918" lon="6.2241">
        <ele>1333.005127</ele>
        <time>2016-06-10T11:14:00Z</time>
      </trkpt>
      <trkpt lat="44.5916" lon="6.22407">
        <ele>1330.1213379</ele>
        <time>2016-06-10T11:14:05Z</time>
      </trkpt>
      <trkpt lat="44.59162" lon="6.22392">
        <ele>1328.1987305</ele>
        <time>2016-06-10T11:14:08Z</time>
      </trkpt>
      <trkpt lat="44.5917" lon="6.22378">
        <ele>1327.2375488</ele>
        <time>2016-06-10T11:14:10Z</time>
      </trkpt>
      <trkpt lat="44.59176" lon="6.22342">
        <ele>1326.7568359</ele>
        <time>2016-06-10T11:14:14Z</time>
      </trkpt>
      <trkpt lat="44.59175" lon="6.22305">
        <ele>1325.7954102</ele>
        <time>2016-06-10T11:14:19Z</time>
      </trkpt>
      <trkpt lat="44.59162" lon="6.2225">
        <ele>1322.911377</ele>
        <time>2016-06-10T11:14:25Z</time>
      </trkpt>
      <trkpt lat="44.59157" lon="6.22241">
        <ele>1321.4692383</ele>
        <time>2016-06-10T11:14:26Z</time>
      </trkpt>
      <trkpt lat="44.59149" lon="6.22226">
        <ele>1319.546875</ele>
        <time>2016-06-10T11:14:28Z</time>
      </trkpt>
      <trkpt lat="44.59145" lon="6.22218">
        <ele>1318.5854492</ele>
        <time>2016-06-10T11:14:29Z</time>
      </trkpt>
      <trkpt lat="44.59129" lon="6.22197">
        <ele>1317.1435547</ele>
        <time>2016-06-10T11:14:32Z</time>
      </trkpt>
      <trkpt lat="44.59123" lon="6.22191">
        <ele>1315.7016602</ele>
        <time>2016-06-10T11:14:33Z</time>
      </trkpt>
      <trkpt lat="44.59109" lon="6.2218">
        <ele>1314.7402344</ele>
        <time>2016-06-10T11:14:35Z</time>
      </trkpt>
      <trkpt lat="44.59095" lon="6.22169">
        <ele>1312.817627</ele>
        <time>2016-06-10T11:14:37Z</time>
      </trkpt>
      <trkpt lat="44.59088" lon="6.22166">
        <ele>1311.3757324</ele>
        <time>2016-06-10T11:14:38Z</time>
      </trkpt>
      <trkpt lat="44.59059" lon="6.22147">
        <ele>1308.4916992</ele>
        <time>2016-06-10T11:14:42Z</time>
      </trkpt>
      <trkpt lat="44.59044" lon="6.22138">
        <ele>1308.4916992</ele>
        <time>2016-06-10T11:14:44Z</time>
      </trkpt>
      <trkpt lat="44.59028" lon="6.22132">
        <ele>1307.5302734</ele>
        <time>2016-06-10T11:14:46Z</time>
      </trkpt>
      <trkpt lat="44.59011" lon="6.22126">
        <ele>1304.1657715</ele>
        <time>2016-06-10T11:14:48Z</time>
      </trkpt>
      <trkpt lat="44.59003" lon="6.22122">
        <ele>1304.1657715</ele>
        <time>2016-06-10T11:14:49Z</time>
      </trkpt>
      <trkpt lat="44.58963" lon="6.22106">
        <ele>1300.8010254</ele>
        <time>2016-06-10T11:14:54Z</time>
      </trkpt>
      <trkpt lat="44.58932" lon="6.22095">
        <ele>1298.3977051</ele>
        <time>2016-06-10T11:14:58Z</time>
      </trkpt>
      <trkpt lat="44.5889" lon="6.2208">
        <ele>1295.0332031</ele>
        <time>2016-06-10T11:15:03Z</time>
      </trkpt>
      <trkpt lat="44.58876" lon="6.22074">
        <ele>1293.5913086</ele>
        <time>2016-06-10T11:15:05Z</time>
      </trkpt>
      <trkpt lat="44.58861" lon="6.22069">
        <ele>1292.1494141</ele>
        <time>2016-06-10T11:15:07Z</time>
      </trkpt>
      <trkpt lat="44.58846" lon="6.22063">
        <ele>1290.7070313</ele>
        <time>2016-06-10T11:15:09Z</time>
      </trkpt>
      <trkpt lat="44.58826" lon="6.22055">
        <ele>1287.8232422</ele>
        <time>2016-06-10T11:15:12Z</time>
      </trkpt>
      <trkpt lat="44.58814" lon="6.22053">
        <ele>1286.3813477</ele>
        <time>2016-06-10T11:15:14Z</time>
      </trkpt>
      <trkpt lat="44.58804" lon="6.22059">
        <ele>1285.4199219</ele>
        <time>2016-06-10T11:15:16Z</time>
      </trkpt>
      <trkpt lat="44.58794" lon="6.22069">
        <ele>1284.9394531</ele>
        <time>2016-06-10T11:15:18Z</time>
      </trkpt>
      <trkpt lat="44.58762" lon="6.2208">
        <ele>1283.4973145</ele>
        <time>2016-06-10T11:15:23Z</time>
      </trkpt>
      <trkpt lat="44.58708" lon="6.22099">
        <ele>1279.6520996</ele>
        <time>2016-06-10T11:15:31Z</time>
      </trkpt>
      <trkpt lat="44.58694" lon="6.22099">
        <ele>1278.690918</ele>
        <time>2016-06-10T11:15:33Z</time>
      </trkpt>
      <trkpt lat="44.58681" lon="6.22097">
        <ele>1278.2102051</ele>
        <time>2016-06-10T11:15:35Z</time>
      </trkpt>
      <trkpt lat="44.58657" lon="6.22088">
        <ele>1276.2875977</ele>
        <time>2016-06-10T11:15:39Z</time>
      </trkpt>
      <trkpt lat="44.58651" lon="6.22085">
        <ele>1275.3259277</ele>
        <time>2016-06-10T11:15:40Z</time>
      </trkpt>
      <trkpt lat="44.58642" lon="6.22083">
        <ele>1274.3647461</ele>
        <time>2016-06-10T11:15:42Z</time>
      </trkpt>
      <trkpt lat="44.58618" lon="6.22068">
        <ele>1272.4421387</ele>
        <time>2016-06-10T11:15:49Z</time>
      </trkpt>
      <trkpt lat="44.58589" lon="6.22058">
        <ele>1270.5195313</ele>
        <time>2016-06-10T11:15:54Z</time>
      </trkpt>
      <trkpt lat="44.58575" lon="6.22056">
        <ele>1269.0776367</ele>
        <time>2016-06-10T11:15:56Z</time>
      </trkpt>
      <trkpt lat="44.58562" lon="6.22054">
        <ele>1267.635498</ele>
        <time>2016-06-10T11:15:58Z</time>
      </trkpt>
      <trkpt lat="44.58549" lon="6.2205">
        <ele>1265.7131348</ele>
        <time>2016-06-10T11:16:00Z</time>
      </trkpt>
      <trkpt lat="44.58532" lon="6.22045">
        <ele>1263.7902832</ele>
        <time>2016-06-10T11:16:03Z</time>
      </trkpt>
      <trkpt lat="44.58505" lon="6.22039">
        <ele>1260.4257813</ele>
        <time>2016-06-10T11:16:08Z</time>
      </trkpt>
      <trkpt lat="44.58499" lon="6.22038">
        <ele>1259.4643555</ele>
        <time>2016-06-10T11:16:09Z</time>
      </trkpt>
      <trkpt lat="44.58479" lon="6.2204">
        <ele>1257.541748</ele>
        <time>2016-06-10T11:16:12Z</time>
      </trkpt>
      <trkpt lat="44.58473" lon="6.22042">
        <ele>1256.5803223</ele>
        <time>2016-06-10T11:16:13Z</time>
      </trkpt>
      <trkpt lat="44.58448" lon="6.22049">
        <ele>1255.1384277</ele>
        <time>2016-06-10T11:16:17Z</time>
      </trkpt>
      <trkpt lat="44.58421" lon="6.22049">
        <ele>1252.2543945</ele>
        <time>2016-06-10T11:16:21Z</time>
      </trkpt>
      <trkpt lat="44.5841" lon="6.22046">
        <ele>1251.2932129</ele>
        <time>2016-06-10T11:16:23Z</time>
      </trkpt>
      <trkpt lat="44.58396" lon="6.22035">
        <ele>1248.8898926</ele>
        <time>2016-06-10T11:16:25Z</time>
      </trkpt>
      <trkpt lat="44.58359" lon="6.21981">
        <ele>1246.9672852</ele>
        <time>2016-06-10T11:16:33Z</time>
      </trkpt>
      <trkpt lat="44.58351" lon="6.2197">
        <ele>1245.0446777</ele>
        <time>2016-06-10T11:16:35Z</time>
      </trkpt>
      <trkpt lat="44.58347" lon="6.21958">
        <ele>1243.6025391</ele>
        <time>2016-06-10T11:16:37Z</time>
      </trkpt>
      <trkpt lat="44.58346" lon="6.21951">
        <ele>1242.6413574</ele>
        <time>2016-06-10T11:16:38Z</time>
      </trkpt>
      <trkpt lat="44.58346" lon="6.21864">
        <ele>1239.7573242</ele>
        <time>2016-06-10T11:16:47Z</time>
      </trkpt>
      <trkpt lat="44.58347" lon="6.21839">
        <ele>1238.3154297</ele>
        <time>2016-06-10T11:16:49Z</time>
      </trkpt>
      <trkpt lat="44.58343" lon="6.21769">
        <ele>1235.4313965</ele>
        <time>2016-06-10T11:16:54Z</time>
      </trkpt>
      <trkpt lat="44.58339" lon="6.21745">
        <ele>1233.989502</ele>
        <time>2016-06-10T11:16:56Z</time>
      </trkpt>
      <trkpt lat="44.58335" lon="6.21723">
        <ele>1232.5476074</ele>
        <time>2016-06-10T11:16:58Z</time>
      </trkpt>
      <trkpt lat="44.58329" lon="6.21696">
        <ele>1229.6635742</ele>
        <time>2016-06-10T11:17:01Z</time>
      </trkpt>
      <trkpt lat="44.58324" lon="6.21683">
        <ele>1228.2216797</ele>
        <time>2016-06-10T11:17:03Z</time>
      </trkpt>
      <trkpt lat="44.58303" lon="6.2169">
        <ele>1227.7407227</ele>
        <time>2016-06-10T11:17:08Z</time>
      </trkpt>
      <trkpt lat="44.58301" lon="6.21697">
        <ele>1227.2602539</ele>
        <time>2016-06-10T11:17:09Z</time>
      </trkpt>
      <trkpt lat="44.58289" lon="6.21775">
        <ele>1223.8955078</ele>
        <time>2016-06-10T11:17:16Z</time>
      </trkpt>
      <trkpt lat="44.58287" lon="6.21788">
        <ele>1223.8955078</ele>
        <time>2016-06-10T11:17:17Z</time>
      </trkpt>
      <trkpt lat="44.58267" lon="6.21838">
        <ele>1221.4921875</ele>
        <time>2016-06-10T11:17:21Z</time>
      </trkpt>
      <trkpt lat="44.58249" lon="6.21867">
        <ele>1219.0891113</ele>
        <time>2016-06-10T11:17:24Z</time>
      </trkpt>
      <trkpt lat="44.58238" lon="6.21885">
        <ele>1216.685791</ele>
        <time>2016-06-10T11:17:26Z</time>
      </trkpt>
      <trkpt lat="44.5823" lon="6.21902">
        <ele>1215.2438965</ele>
        <time>2016-06-10T11:17:28Z</time>
      </trkpt>
      <trkpt lat="44.58223" lon="6.21919">
        <ele>1212.3598633</ele>
        <time>2016-06-10T11:17:30Z</time>
      </trkpt>
      <trkpt lat="44.58204" lon="6.2193">
        <ele>1210.4370117</ele>
        <time>2016-06-10T11:17:35Z</time>
      </trkpt>
      <trkpt lat="44.58206" lon="6.21906">
        <ele>1208.5144043</ele>
        <time>2016-06-10T11:17:39Z</time>
      </trkpt>
      <trkpt lat="44.58216" lon="6.21886">
        <ele>1208.0339355</ele>
        <time>2016-06-10T11:17:42Z</time>
      </trkpt>
      <trkpt lat="44.58233" lon="6.21771">
        <ele>1203.7080078</ele>
        <time>2016-06-10T11:17:52Z</time>
      </trkpt>
      <trkpt lat="44.58233" lon="6.21742">
        <ele>1202.746582</ele>
        <time>2016-06-10T11:17:54Z</time>
      </trkpt>
      <trkpt lat="44.58232" lon="6.21711">
        <ele>1201.3046875</ele>
        <time>2016-06-10T11:17:56Z</time>
      </trkpt>
      <trkpt lat="44.58228" lon="6.21679">
        <ele>1199.3820801</ele>
        <time>2016-06-10T11:17:58Z</time>
      </trkpt>
      <trkpt lat="44.58223" lon="6.21651">
        <ele>1195.5366211</ele>
        <time>2016-06-10T11:18:00Z</time>
      </trkpt>
      <trkpt lat="44.58221" lon="6.21637">
        <ele>1195.5366211</ele>
        <time>2016-06-10T11:18:01Z</time>
      </trkpt>
      <trkpt lat="44.58215" lon="6.21609">
        <ele>1193.6140137</ele>
        <time>2016-06-10T11:18:03Z</time>
      </trkpt>
      <trkpt lat="44.58203" lon="6.21553">
        <ele>1189.2880859</ele>
        <time>2016-06-10T11:18:07Z</time>
      </trkpt>
      <trkpt lat="44.582" lon="6.21541">
        <ele>1189.2880859</ele>
        <time>2016-06-10T11:18:08Z</time>
      </trkpt>
      <trkpt lat="44.58198" lon="6.21528">
        <ele>1187.8461914</ele>
        <time>2016-06-10T11:18:09Z</time>
      </trkpt>
      <trkpt lat="44.58184" lon="6.21495">
        <ele>1186.4042969</ele>
        <time>2016-06-10T11:18:12Z</time>
      </trkpt>
      <trkpt lat="44.58161" lon="6.21466">
        <ele>1183.5202637</ele>
        <time>2016-06-10T11:18:15Z</time>
      </trkpt>
      <trkpt lat="44.58104" lon="6.21424">
        <ele>1178.2329102</ele>
        <time>2016-06-10T11:18:21Z</time>
      </trkpt>
      <trkpt lat="44.58095" lon="6.21418">
        <ele>1178.2329102</ele>
        <time>2016-06-10T11:18:22Z</time>
      </trkpt>
      <trkpt lat="44.58079" lon="6.21408">
        <ele>1175.8295898</ele>
        <time>2016-06-10T11:18:24Z</time>
      </trkpt>
      <trkpt lat="44.58062" lon="6.21396">
        <ele>1174.3876953</ele>
        <time>2016-06-10T11:18:26Z</time>
      </trkpt>
      <trkpt lat="44.58037" lon="6.21376">
        <ele>1171.5036621</ele>
        <time>2016-06-10T11:18:29Z</time>
      </trkpt>
      <trkpt lat="44.58007" lon="6.2134">
        <ele>1169.1005859</ele>
        <time>2016-06-10T11:18:33Z</time>
      </trkpt>
      <trkpt lat="44.57996" lon="6.21318">
        <ele>1168.1391602</ele>
        <time>2016-06-10T11:18:35Z</time>
      </trkpt>
      <trkpt lat="44.57989" lon="6.21293">
        <ele>1164.7746582</ele>
        <time>2016-06-10T11:18:37Z</time>
      </trkpt>
      <trkpt lat="44.57986" lon="6.2128">
        <ele>1164.7746582</ele>
        <time>2016-06-10T11:18:38Z</time>
      </trkpt>
      <trkpt lat="44.57979" lon="6.21228">
        <ele>1162.3710938</ele>
        <time>2016-06-10T11:18:42Z</time>
      </trkpt>
      <trkpt lat="44.57977" lon="6.21205">
        <ele>1158.5258789</ele>
        <time>2016-06-10T11:18:44Z</time>
      </trkpt>
      <trkpt lat="44.57976" lon="6.21195">
        <ele>1158.5258789</ele>
        <time>2016-06-10T11:18:45Z</time>
      </trkpt>
      <trkpt lat="44.57973" lon="6.21174">
        <ele>1156.6032715</ele>
        <time>2016-06-10T11:18:47Z</time>
      </trkpt>
      <trkpt lat="44.57969" lon="6.21157">
        <ele>1154.6806641</ele>
        <time>2016-06-10T11:18:49Z</time>
      </trkpt>
      <trkpt lat="44.57958" lon="6.21139">
        <ele>1152.7580566</ele>
        <time>2016-06-10T11:18:52Z</time>
      </trkpt>
      <trkpt lat="44.57942" lon="6.21134">
        <ele>1150.8354492</ele>
        <time>2016-06-10T11:18:56Z</time>
      </trkpt>
      <trkpt lat="44.57917" lon="6.21182">
        <ele>1149.3935547</ele>
        <time>2016-06-10T11:19:04Z</time>
      </trkpt>
      <trkpt lat="44.57915" lon="6.21211">
        <ele>1147.951416</ele>
        <time>2016-06-10T11:19:07Z</time>
      </trkpt>
      <trkpt lat="44.57906" lon="6.21251">
        <ele>1147.4707031</ele>
        <time>2016-06-10T11:19:11Z</time>
      </trkpt>
      <trkpt lat="44.5787" lon="6.21343">
        <ele>1144.1062012</ele>
        <time>2016-06-10T11:19:19Z</time>
      </trkpt>
      <trkpt lat="44.57853" lon="6.21396">
        <ele>1140.2609863</ele>
        <time>2016-06-10T11:19:23Z</time>
      </trkpt>
      <trkpt lat="44.57849" lon="6.21408">
        <ele>1140.2609863</ele>
        <time>2016-06-10T11:19:24Z</time>
      </trkpt>
      <trkpt lat="44.57842" lon="6.21429">
        <ele>1137.857666</ele>
        <time>2016-06-10T11:19:26Z</time>
      </trkpt>
      <trkpt lat="44.57831" lon="6.21476">
        <ele>1133.5317383</ele>
        <time>2016-06-10T11:19:30Z</time>
      </trkpt>
      <trkpt lat="44.57829" lon="6.21486">
        <ele>1133.5317383</ele>
        <time>2016-06-10T11:19:31Z</time>
      </trkpt>
      <trkpt lat="44.57826" lon="6.21509">
        <ele>1132.5705566</ele>
        <time>2016-06-10T11:19:33Z</time>
      </trkpt>
      <trkpt lat="44.57823" lon="6.21545">
        <ele>1130.6477051</ele>
        <time>2016-06-10T11:19:36Z</time>
      </trkpt>
      <trkpt lat="44.57821" lon="6.21617">
        <ele>1128.7250977</ele>
        <time>2016-06-10T11:19:42Z</time>
      </trkpt>
      <trkpt lat="44.57827" lon="6.21708">
        <ele>1124.8798828</ele>
        <time>2016-06-10T11:19:49Z</time>
      </trkpt>
      <trkpt lat="44.57826" lon="6.2172">
        <ele>1124.8798828</ele>
        <time>2016-06-10T11:19:50Z</time>
      </trkpt>
      <trkpt lat="44.57825" lon="6.21743">
        <ele>1122.9572754</ele>
        <time>2016-06-10T11:19:52Z</time>
      </trkpt>
      <trkpt lat="44.57823" lon="6.21765">
        <ele>1121.5151367</ele>
        <time>2016-06-10T11:19:54Z</time>
      </trkpt>
      <trkpt lat="44.57819" lon="6.21795">
        <ele>1119.5927734</ele>
        <time>2016-06-10T11:19:57Z</time>
      </trkpt>
      <trkpt lat="44.57817" lon="6.21814">
        <ele>1118.6313477</ele>
        <time>2016-06-10T11:19:59Z</time>
      </trkpt>
      <trkpt lat="44.578" lon="6.21878">
        <ele>1114.3051758</ele>
        <time>2016-06-10T11:20:05Z</time>
      </trkpt>
      <trkpt lat="44.57796" lon="6.21889">
        <ele>1114.3051758</ele>
        <time>2016-06-10T11:20:06Z</time>
      </trkpt>
      <trkpt lat="44.57774" lon="6.21937">
        <ele>1110.9406738</ele>
        <time>2016-06-10T11:20:11Z</time>
      </trkpt>
      <trkpt lat="44.57766" lon="6.21955">
        <ele>1109.979248</ele>
        <time>2016-06-10T11:20:13Z</time>
      </trkpt>
      <trkpt lat="44.57755" lon="6.22015">
        <ele>1108.0568848</ele>
        <time>2016-06-10T11:20:18Z</time>
      </trkpt>
      <trkpt lat="44.57754" lon="6.22044">
        <ele>1107.095459</ele>
        <time>2016-06-10T11:20:20Z</time>
      </trkpt>
      <trkpt lat="44.57754" lon="6.2207">
        <ele>1105.6535645</ele>
        <time>2016-06-10T11:20:22Z</time>
      </trkpt>
      <trkpt lat="44.57753" lon="6.22097">
        <ele>1104.2116699</ele>
        <time>2016-06-10T11:20:24Z</time>
      </trkpt>
      <trkpt lat="44.57748" lon="6.22138">
        <ele>1101.3276367</ele>
        <time>2016-06-10T11:20:27Z</time>
      </trkpt>
      <trkpt lat="44.57742" lon="6.22163">
        <ele>1098.9240723</ele>
        <time>2016-06-10T11:20:29Z</time>
      </trkpt>
      <trkpt lat="44.57728" lon="6.22211">
        <ele>1095.5595703</ele>
        <time>2016-06-10T11:20:33Z</time>
      </trkpt>
      <trkpt lat="44.57725" lon="6.22223">
        <ele>1095.5595703</ele>
        <time>2016-06-10T11:20:34Z</time>
      </trkpt>
      <trkpt lat="44.57719" lon="6.22246">
        <ele>1094.1176758</ele>
        <time>2016-06-10T11:20:36Z</time>
      </trkpt>
      <trkpt lat="44.57714" lon="6.22278">
        <ele>1091.7143555</ele>
        <time>2016-06-10T11:20:39Z</time>
      </trkpt>
      <trkpt lat="44.57713" lon="6.22307">
        <ele>1087.3884277</ele>
        <time>2016-06-10T11:20:42Z</time>
      </trkpt>
      <trkpt lat="44.57712" lon="6.22316">
        <ele>1087.3884277</ele>
        <time>2016-06-10T11:20:43Z</time>
      </trkpt>
      <trkpt lat="44.57708" lon="6.22331">
        <ele>1085.9465332</ele>
        <time>2016-06-10T11:20:45Z</time>
      </trkpt>
      <trkpt lat="44.57686" lon="6.22326">
        <ele>1083.0622559</ele>
        <time>2016-06-10T11:20:50Z</time>
      </trkpt>
      <trkpt lat="44.57684" lon="6.22308">
        <ele>1082.1010742</ele>
        <time>2016-06-10T11:20:52Z</time>
      </trkpt>
      <trkpt lat="44.57682" lon="6.22263">
        <ele>1078.7365723</ele>
        <time>2016-06-10T11:20:56Z</time>
      </trkpt>
      <trkpt lat="44.57668" lon="6.2221">
        <ele>1075.8525391</ele>
        <time>2016-06-10T11:21:01Z</time>
      </trkpt>
      <trkpt lat="44.57656" lon="6.22194">
        <ele>1073.9299316</ele>
        <time>2016-06-10T11:21:03Z</time>
      </trkpt>
      <trkpt lat="44.57623" lon="6.2216">
        <ele>1071.5266113</ele>
        <time>2016-06-10T11:21:08Z</time>
      </trkpt>
      <trkpt lat="44.5761" lon="6.22147">
        <ele>1068.6428223</ele>
        <time>2016-06-10T11:21:10Z</time>
      </trkpt>
      <trkpt lat="44.57598" lon="6.22133">
        <ele>1067.6811523</ele>
        <time>2016-06-10T11:21:12Z</time>
      </trkpt>
      <trkpt lat="44.57584" lon="6.22105">
        <ele>1066.2392578</ele>
        <time>2016-06-10T11:21:15Z</time>
      </trkpt>
      <trkpt lat="44.57573" lon="6.22076">
        <ele>1064.3166504</ele>
        <time>2016-06-10T11:21:18Z</time>
      </trkpt>
      <trkpt lat="44.57567" lon="6.22051">
        <ele>1061.4328613</ele>
        <time>2016-06-10T11:21:21Z</time>
      </trkpt>
      <trkpt lat="44.57562" lon="6.22027">
        <ele>1060.9521484</ele>
        <time>2016-06-10T11:21:24Z</time>
      </trkpt>
      <trkpt lat="44.57554" lon="6.22009">
        <ele>1059.029541</ele>
        <time>2016-06-10T11:21:27Z</time>
      </trkpt>
      <trkpt lat="44.57539" lon="6.22023">
        <ele>1057.1069336</ele>
        <time>2016-06-10T11:21:32Z</time>
      </trkpt>
      <trkpt lat="44.57541" lon="6.2204">
        <ele>1056.1455078</ele>
        <time>2016-06-10T11:21:34Z</time>
      </trkpt>
      <trkpt lat="44.57548" lon="6.22071">
        <ele>1054.7036133</ele>
        <time>2016-06-10T11:21:37Z</time>
      </trkpt>
      <trkpt lat="44.57551" lon="6.22119">
        <ele>1054.7036133</ele>
        <time>2016-06-10T11:21:41Z</time>
      </trkpt>
      <trkpt lat="44.57543" lon="6.22174">
        <ele>1052.7810059</ele>
        <time>2016-06-10T11:21:45Z</time>
      </trkpt>
      <trkpt lat="44.57539" lon="6.22201">
        <ele>1049.4162598</ele>
        <time>2016-06-10T11:21:47Z</time>
      </trkpt>
      <trkpt lat="44.57536" lon="6.22214">
        <ele>1049.4162598</ele>
        <time>2016-06-10T11:21:48Z</time>
      </trkpt>
      <trkpt lat="44.57533" lon="6.22241">
        <ele>1047.4936523</ele>
        <time>2016-06-10T11:21:50Z</time>
      </trkpt>
      <trkpt lat="44.57533" lon="6.22281">
        <ele>1044.6096191</ele>
        <time>2016-06-10T11:21:53Z</time>
      </trkpt>
      <trkpt lat="44.57535" lon="6.22305">
        <ele>1041.7258301</ele>
        <time>2016-06-10T11:21:55Z</time>
      </trkpt>
      <trkpt lat="44.57548" lon="6.22353">
        <ele>1039.8032227</ele>
        <time>2016-06-10T11:21:59Z</time>
      </trkpt>
      <trkpt lat="44.57557" lon="6.22374">
        <ele>1035.4770508</ele>
        <time>2016-06-10T11:22:01Z</time>
      </trkpt>
      <trkpt lat="44.57562" lon="6.22384">
        <ele>1035.4770508</ele>
        <time>2016-06-10T11:22:02Z</time>
      </trkpt>
      <trkpt lat="44.57574" lon="6.22401">
        <ele>1034.5158691</ele>
        <time>2016-06-10T11:22:04Z</time>
      </trkpt>
      <trkpt lat="44.57585" lon="6.22417">
        <ele>1032.1125488</ele>
        <time>2016-06-10T11:22:06Z</time>
      </trkpt>
      <trkpt lat="44.57596" lon="6.22434">
        <ele>1030.1899414</ele>
        <time>2016-06-10T11:22:08Z</time>
      </trkpt>
      <trkpt lat="44.57609" lon="6.22462">
        <ele>1027.3061523</ele>
        <time>2016-06-10T11:22:11Z</time>
      </trkpt>
      <trkpt lat="44.57613" lon="6.2248">
        <ele>1025.8640137</ele>
        <time>2016-06-10T11:22:13Z</time>
      </trkpt>
      <trkpt lat="44.5761" lon="6.22495">
        <ele>1024.4221191</ele>
        <time>2016-06-10T11:22:15Z</time>
      </trkpt>
      <trkpt lat="44.57599" lon="6.22509">
        <ele>1022.4995117</ele>
        <time>2016-06-10T11:22:18Z</time>
      </trkpt>
      <trkpt lat="44.57576" lon="6.22499">
        <ele>1021.5380859</ele>
        <time>2016-06-10T11:22:22Z</time>
      </trkpt>
      <trkpt lat="44.57543" lon="6.22467">
        <ele>1019.1347656</ele>
        <time>2016-06-10T11:22:27Z</time>
      </trkpt>
      <trkpt lat="44.5751" lon="6.2245">
        <ele>1015.2895508</ele>
        <time>2016-06-10T11:22:31Z</time>
      </trkpt>
      <trkpt lat="44.575" lon="6.22447">
        <ele>1015.2895508</ele>
        <time>2016-06-10T11:22:32Z</time>
      </trkpt>
      <trkpt lat="44.57473" lon="6.22436">
        <ele>1012.4055176</ele>
        <time>2016-06-10T11:22:35Z</time>
      </trkpt>
      <trkpt lat="44.57449" lon="6.22419">
        <ele>1007.1184082</ele>
        <time>2016-06-10T11:22:38Z</time>
      </trkpt>
      <trkpt lat="44.57442" lon="6.22412">
        <ele>1007.1184082</ele>
        <time>2016-06-10T11:22:39Z</time>
      </trkpt>
      <trkpt lat="44.57422" lon="6.22374">
        <ele>1005.6765137</ele>
        <time>2016-06-10T11:22:43Z</time>
      </trkpt>
      <trkpt lat="44.57413" lon="6.22344">
        <ele>1002.3115234</ele>
        <time>2016-06-10T11:22:46Z</time>
      </trkpt>
      <trkpt lat="44.57411" lon="6.22335">
        <ele>1001.3503418</ele>
        <time>2016-06-10T11:22:47Z</time>
      </trkpt>
      <trkpt lat="44.57401" lon="6.22316">
        <ele>999.9084473</ele>
        <time>2016-06-10T11:22:50Z</time>
      </trkpt>
      <trkpt lat="44.57378" lon="6.22341">
        <ele>997.505127</ele>
        <time>2016-06-10T11:22:56Z</time>
      </trkpt>
      <trkpt lat="44.57369" lon="6.22364">
        <ele>996.0632324</ele>
        <time>2016-06-10T11:22:59Z</time>
      </trkpt>
      <trkpt lat="44.57353" lon="6.22369">
        <ele>994.6210938</ele>
        <time>2016-06-10T11:23:02Z</time>
      </trkpt>
      <trkpt lat="44.57333" lon="6.2236">
        <ele>992.6987305</ele>
        <time>2016-06-10T11:23:05Z</time>
      </trkpt>
      <trkpt lat="44.57304" lon="6.22341">
        <ele>991.7373047</ele>
        <time>2016-06-10T11:23:09Z</time>
      </trkpt>
      <trkpt lat="44.57267" lon="6.22331">
        <ele>989.3339844</ele>
        <time>2016-06-10T11:23:13Z</time>
      </trkpt>
      <trkpt lat="44.57258" lon="6.22329">
        <ele>987.4111328</ele>
        <time>2016-06-10T11:23:14Z</time>
      </trkpt>
      <trkpt lat="44.57244" lon="6.22321">
        <ele>985.0080566</ele>
        <time>2016-06-10T11:23:16Z</time>
      </trkpt>
      <trkpt lat="44.57232" lon="6.22305">
        <ele>983.565918</ele>
        <time>2016-06-10T11:23:18Z</time>
      </trkpt>
      <trkpt lat="44.57222" lon="6.22269">
        <ele>981.1628418</ele>
        <time>2016-06-10T11:23:21Z</time>
      </trkpt>
      <trkpt lat="44.57217" lon="6.2224">
        <ele>980.201416</ele>
        <time>2016-06-10T11:23:23Z</time>
      </trkpt>
      <trkpt lat="44.57214" lon="6.22212">
        <ele>977.7980957</ele>
        <time>2016-06-10T11:23:25Z</time>
      </trkpt>
      <trkpt lat="44.57209" lon="6.22184">
        <ele>976.8369141</ele>
        <time>2016-06-10T11:23:27Z</time>
      </trkpt>
      <trkpt lat="44.57202" lon="6.22141">
        <ele>974.4335938</ele>
        <time>2016-06-10T11:23:30Z</time>
      </trkpt>
      <trkpt lat="44.57196" lon="6.22114">
        <ele>972.9916992</ele>
        <time>2016-06-10T11:23:32Z</time>
      </trkpt>
      <trkpt lat="44.57184" lon="6.22075">
        <ele>970.1074219</ele>
        <time>2016-06-10T11:23:35Z</time>
      </trkpt>
      <trkpt lat="44.57179" lon="6.22064">
        <ele>970.1074219</ele>
        <time>2016-06-10T11:23:36Z</time>
      </trkpt>
      <trkpt lat="44.57169" lon="6.22042">
        <ele>965.3010254</ele>
        <time>2016-06-10T11:23:38Z</time>
      </trkpt>
      <trkpt lat="44.57163" lon="6.22033">
        <ele>965.3010254</ele>
        <time>2016-06-10T11:23:39Z</time>
      </trkpt>
      <trkpt lat="44.5715" lon="6.22013">
        <ele>963.378418</ele>
        <time>2016-06-10T11:23:41Z</time>
      </trkpt>
      <trkpt lat="44.57121" lon="6.21971">
        <ele>960.0136719</ele>
        <time>2016-06-10T11:23:45Z</time>
      </trkpt>
      <trkpt lat="44.57114" lon="6.21961">
        <ele>960.0136719</ele>
        <time>2016-06-10T11:23:46Z</time>
      </trkpt>
      <trkpt lat="44.57099" lon="6.2194">
        <ele>958.5717773</ele>
        <time>2016-06-10T11:23:48Z</time>
      </trkpt>
      <trkpt lat="44.57092" lon="6.2193">
        <ele>954.7263184</ele>
        <time>2016-06-10T11:23:49Z</time>
      </trkpt>
      <trkpt lat="44.57085" lon="6.2192">
        <ele>954.7263184</ele>
        <time>2016-06-10T11:23:50Z</time>
      </trkpt>
      <trkpt lat="44.57072" lon="6.21899">
        <ele>951.3618164</ele>
        <time>2016-06-10T11:23:52Z</time>
      </trkpt>
      <trkpt lat="44.57065" lon="6.21888">
        <ele>951.3618164</ele>
        <time>2016-06-10T11:23:53Z</time>
      </trkpt>
      <trkpt lat="44.57054" lon="6.21865">
        <ele>948.9584961</ele>
        <time>2016-06-10T11:23:55Z</time>
      </trkpt>
      <trkpt lat="44.57035" lon="6.21817">
        <ele>945.5939941</ele>
        <time>2016-06-10T11:23:59Z</time>
      </trkpt>
      <trkpt lat="44.57032" lon="6.21804">
        <ele>945.5939941</ele>
        <time>2016-06-10T11:24:00Z</time>
      </trkpt>
      <trkpt lat="44.57025" lon="6.2178">
        <ele>944.1520996</ele>
        <time>2016-06-10T11:24:02Z</time>
      </trkpt>
      <trkpt lat="44.57021" lon="6.21757">
        <ele>941.7487793</ele>
        <time>2016-06-10T11:24:04Z</time>
      </trkpt>
      <trkpt lat="44.57019" lon="6.21736">
        <ele>938.3840332</ele>
        <time>2016-06-10T11:24:06Z</time>
      </trkpt>
      <trkpt lat="44.57018" lon="6.21726">
        <ele>938.3840332</ele>
        <time>2016-06-10T11:24:07Z</time>
      </trkpt>
      <trkpt lat="44.57017" lon="6.21705">
        <ele>935.9807129</ele>
        <time>2016-06-10T11:24:09Z</time>
      </trkpt>
      <trkpt lat="44.57018" lon="6.2163">
        <ele>932.6162109</ele>
        <time>2016-06-10T11:24:15Z</time>
      </trkpt>
      <trkpt lat="44.57018" lon="6.21617">
        <ele>932.135498</ele>
        <time>2016-06-10T11:24:16Z</time>
      </trkpt>
      <trkpt lat="44.57019" lon="6.2155">
        <ele>927.8095703</ele>
        <time>2016-06-10T11:24:21Z</time>
      </trkpt>
      <trkpt lat="44.57015" lon="6.2146">
        <ele>924.9257813</ele>
        <time>2016-06-10T11:24:28Z</time>
      </trkpt>
      <trkpt lat="44.5701" lon="6.21434">
        <ele>922.5222168</ele>
        <time>2016-06-10T11:24:30Z</time>
      </trkpt>
      <trkpt lat="44.57004" lon="6.21408">
        <ele>921.0803223</ele>
        <time>2016-06-10T11:24:32Z</time>
      </trkpt>
      <trkpt lat="44.56991" lon="6.21364">
        <ele>917.7155762</ele>
        <time>2016-06-10T11:24:36Z</time>
      </trkpt>
      <trkpt lat="44.56987" lon="6.21353">
        <ele>917.7155762</ele>
        <time>2016-06-10T11:24:37Z</time>
      </trkpt>
      <trkpt lat="44.5698" lon="6.21331">
        <ele>916.7543945</ele>
        <time>2016-06-10T11:24:39Z</time>
      </trkpt>
      <trkpt lat="44.56959" lon="6.21275">
        <ele>914.3510742</ele>
        <time>2016-06-10T11:24:44Z</time>
      </trkpt>
      <trkpt lat="44.56934" lon="6.21207">
        <ele>910.0251465</ele>
        <time>2016-06-10T11:24:50Z</time>
      </trkpt>
      <trkpt lat="44.56929" lon="6.21195">
        <ele>910.0251465</ele>
        <time>2016-06-10T11:24:51Z</time>
      </trkpt>
      <trkpt lat="44.56912" lon="6.21148">
        <ele>908.583252</ele>
        <time>2016-06-10T11:24:55Z</time>
      </trkpt>
      <trkpt lat="44.56903" lon="6.21125">
        <ele>906.6604004</ele>
        <time>2016-06-10T11:24:57Z</time>
      </trkpt>
      <trkpt lat="44.56861" lon="6.21028">
        <ele>903.7766113</ele>
        <time>2016-06-10T11:25:06Z</time>
      </trkpt>
      <trkpt lat="44.56819" lon="6.20934">
        <ele>900.4121094</ele>
        <time>2016-06-10T11:25:15Z</time>
      </trkpt>
      <trkpt lat="44.56768" lon="6.20779">
        <ele>896.5668945</ele>
        <time>2016-06-10T11:25:29Z</time>
      </trkpt>
      <trkpt lat="44.56737" lon="6.20649">
        <ele>893.2021484</ele>
        <time>2016-06-10T11:25:40Z</time>
      </trkpt>
      <trkpt lat="44.56695" lon="6.2048">
        <ele>891.7600098</ele>
        <time>2016-06-10T11:25:57Z</time>
      </trkpt>
      <trkpt lat="44.56693" lon="6.20472">
        <ele>891.2792969</ele>
        <time>2016-06-10T11:25:58Z</time>
      </trkpt>
      <trkpt lat="44.56639" lon="6.20344">
        <ele>888.3955078</ele>
        <time>2016-06-10T11:26:14Z</time>
      </trkpt>
      <trkpt lat="44.56566" lon="6.20208">
        <ele>885.9921875</ele>
        <time>2016-06-10T11:26:33Z</time>
      </trkpt>
      <trkpt lat="44.56523" lon="6.20109">
        <ele>885.9921875</ele>
        <time>2016-06-10T11:26:50Z</time>
      </trkpt>
      <trkpt lat="44.56485" lon="6.20008">
        <ele>885.9921875</ele>
        <time>2016-06-10T11:27:12Z</time>
      </trkpt>
      <trkpt lat="44.56467" lon="6.19956">
        <ele>885.5114746</ele>
        <time>2016-06-10T11:27:26Z</time>
      </trkpt>
      <trkpt lat="44.56473" lon="6.19881">
        <ele>883.1081543</ele>
        <time>2016-06-10T11:27:39Z</time>
      </trkpt>
      <trkpt lat="44.56485" lon="6.19791">
        <ele>882.6276855</ele>
        <time>2016-06-10T11:27:53Z</time>
      </trkpt>
      <trkpt lat="44.5653" lon="6.19716">
        <ele>881.6662598</ele>
        <time>2016-06-10T11:28:10Z</time>
      </trkpt>
      <trkpt lat="44.56584" lon="6.19639">
        <ele>881.6662598</ele>
        <time>2016-06-10T11:28:31Z</time>
      </trkpt>
      <trkpt lat="44.56611" lon="6.19587">
        <ele>880.7050781</ele>
        <time>2016-06-10T11:28:46Z</time>
      </trkpt>
      <trkpt lat="44.56611" lon="6.19586">
        <ele>880.7050781</ele>
        <time>2016-06-10T11:29:01Z</time>
      </trkpt>
      <trkpt lat="44.56611" lon="6.19586">
        <ele>880.2243652</ele>
        <time>2016-06-10T11:29:37Z</time>
      </trkpt>
      <trkpt lat="44.56612" lon="6.19586">
        <ele>878.7824707</ele>
        <time>2016-06-10T11:30:33Z</time>
      </trkpt>
      <trkpt lat="44.56611" lon="6.19587">
        <ele>878.7824707</ele>
        <time>2016-06-10T11:31:20Z</time>
      </trkpt>
      <trkpt lat="44.56611" lon="6.19589">
        <ele>878.7824707</ele>
        <time>2016-06-10T11:31:32Z</time>
      </trkpt>
      <trkpt lat="44.56589" lon="6.19627">
        <ele>878.7824707</ele>
        <time>2016-06-10T11:31:46Z</time>
      </trkpt>
      <trkpt lat="44.56563" lon="6.1967">
        <ele>878.7824707</ele>
        <time>2016-06-10T11:31:59Z</time>
      </trkpt>
      <trkpt lat="44.56533" lon="6.19711">
        <ele>879.2629395</ele>
        <time>2016-06-10T11:32:15Z</time>
      </trkpt>
      <trkpt lat="44.56521" lon="6.19729">
        <ele>878.7824707</ele>
        <time>2016-06-10T11:32:28Z</time>
      </trkpt>
      <trkpt lat="44.5652" lon="6.19729">
        <ele>878.7824707</ele>
        <time>2016-06-10T11:32:29Z</time>
      </trkpt>
      <trkpt lat="44.56516" lon="6.19729">
        <ele>878.7824707</ele>
        <time>2016-06-10T11:32:32Z</time>
      </trkpt>
      <trkpt lat="44.56492" lon="6.19765">
        <ele>878.7824707</ele>
        <time>2016-06-10T11:32:45Z</time>
      </trkpt>
      <trkpt lat="44.5649" lon="6.19767">
        <ele>878.3017578</ele>
        <time>2016-06-10T11:32:46Z</time>
      </trkpt>
      <trkpt lat="44.56486" lon="6.19768">
        <ele>878.7824707</ele>
        <time>2016-06-10T11:32:49Z</time>
      </trkpt>
      <trkpt lat="44.56478" lon="6.19808">
        <ele>878.3017578</ele>
        <time>2016-06-10T11:33:01Z</time>
      </trkpt>
      <trkpt lat="44.56463" lon="6.19842">
        <ele>878.7824707</ele>
        <time>2016-06-10T11:33:10Z</time>
      </trkpt>
      <trkpt lat="44.56392" lon="6.1982">
        <ele>878.7824707</ele>
        <time>2016-06-10T11:33:29Z</time>
      </trkpt>
      <trkpt lat="44.56341" lon="6.19809">
        <ele>876.3791504</ele>
        <time>2016-06-10T11:33:41Z</time>
      </trkpt>
      <trkpt lat="44.56335" lon="6.19805">
        <ele>876.3791504</ele>
        <time>2016-06-10T11:33:43Z</time>
      </trkpt>
      <trkpt lat="44.56331" lon="6.19779">
        <ele>876.3791504</ele>
        <time>2016-06-10T11:33:48Z</time>
      </trkpt>
      <trkpt lat="44.56342" lon="6.19699">
        <ele>876.3791504</ele>
        <time>2016-06-10T11:34:07Z</time>
      </trkpt>
      <trkpt lat="44.56341" lon="6.19697">
        <ele>876.3791504</ele>
        <time>2016-06-10T11:34:08Z</time>
      </trkpt>
      <trkpt lat="44.56339" lon="6.19695">
        <ele>875.4174805</ele>
        <time>2016-06-10T11:34:20Z</time>
      </trkpt>
      <trkpt lat="44.56339" lon="6.19695">
        <ele>875.8981934</ele>
        <time>2016-06-10T11:34:39Z</time>
      </trkpt>
      <trkpt lat="44.56321" lon="6.1969">
        <ele>875.8981934</ele>
        <time>2016-06-10T11:34:48Z</time>
      </trkpt>
      <trkpt lat="44.56312" lon="6.19702">
        <ele>875.8981934</ele>
        <time>2016-06-10T11:34:52Z</time>
      </trkpt>
      <trkpt lat="44.56294" lon="6.19771">
        <ele>873.9755859</ele>
        <time>2016-06-10T11:35:03Z</time>
      </trkpt>
      <trkpt lat="44.5627" lon="6.19802">
        <ele>873.0144043</ele>
        <time>2016-06-10T11:35:09Z</time>
      </trkpt>
      <trkpt lat="44.56252" lon="6.19799">
        <ele>872.5336914</ele>
        <time>2016-06-10T11:35:12Z</time>
      </trkpt>
      <trkpt lat="44.5618" lon="6.19771">
        <ele>872.0529785</ele>
        <time>2016-06-10T11:35:27Z</time>
      </trkpt>
      <trkpt lat="44.56147" lon="6.19733">
        <ele>873.9755859</ele>
        <time>2016-06-10T11:35:43Z</time>
      </trkpt>
      <trkpt lat="44.56106" lon="6.19699">
        <ele>874.9370117</ele>
        <time>2016-06-10T11:36:02Z</time>
      </trkpt>
      <trkpt lat="44.56046" lon="6.19656">
        <ele>874.9370117</ele>
        <time>2016-06-10T11:36:24Z</time>
      </trkpt>
      <trkpt lat="44.55965" lon="6.19596">
        <ele>873.0144043</ele>
        <time>2016-06-10T11:36:47Z</time>
      </trkpt>
      <trkpt lat="44.55909" lon="6.19556">
        <ele>871.0917969</ele>
        <time>2016-06-10T11:36:58Z</time>
      </trkpt>
      <trkpt lat="44.55859" lon="6.19515">
        <ele>869.1691895</ele>
        <time>2016-06-10T11:37:06Z</time>
      </trkpt>
      <trkpt lat="44.55833" lon="6.19508">
        <ele>868.6884766</ele>
        <time>2016-06-10T11:37:10Z</time>
      </trkpt>
      <trkpt lat="44.55789" lon="6.19517">
        <ele>870.611084</ele>
        <time>2016-06-10T11:37:22Z</time>
      </trkpt>
      <trkpt lat="44.55736" lon="6.19521">
        <ele>872.0529785</ele>
        <time>2016-06-10T11:37:42Z</time>
      </trkpt>
      <trkpt lat="44.55678" lon="6.1951">
        <ele>874.4562988</ele>
        <time>2016-06-10T11:38:05Z</time>
      </trkpt>
      <trkpt lat="44.55636" lon="6.19485">
        <ele>873.4951172</ele>
        <time>2016-06-10T11:38:18Z</time>
      </trkpt>
      <trkpt lat="44.55626" lon="6.19476">
        <ele>873.0144043</ele>
        <time>2016-06-10T11:38:20Z</time>
      </trkpt>
      <trkpt lat="44.556" lon="6.19434">
        <ele>871.0917969</ele>
        <time>2016-06-10T11:38:26Z</time>
      </trkpt>
      <trkpt lat="44.55574" lon="6.19432">
        <ele>870.611084</ele>
        <time>2016-06-10T11:38:32Z</time>
      </trkpt>
      <trkpt lat="44.55546" lon="6.19453">
        <ele>870.1303711</ele>
        <time>2016-06-10T11:38:40Z</time>
      </trkpt>
      <trkpt lat="44.55542" lon="6.19452">
        <ele>870.1303711</ele>
        <time>2016-06-10T11:38:41Z</time>
      </trkpt>
      <trkpt lat="44.55519" lon="6.19441">
        <ele>870.611084</ele>
        <time>2016-06-10T11:38:48Z</time>
      </trkpt>
      <trkpt lat="44.55499" lon="6.19448">
        <ele>870.611084</ele>
        <time>2016-06-10T11:38:53Z</time>
      </trkpt>
      <trkpt lat="44.55455" lon="6.19453">
        <ele>871.0917969</ele>
        <time>2016-06-10T11:39:06Z</time>
      </trkpt>
      <trkpt lat="44.55405" lon="6.19418">
        <ele>872.0529785</ele>
        <time>2016-06-10T11:39:26Z</time>
      </trkpt>
      <trkpt lat="44.55369" lon="6.19393">
        <ele>873.9755859</ele>
        <time>2016-06-10T11:39:44Z</time>
      </trkpt>
      <trkpt lat="44.55325" lon="6.19353">
        <ele>876.3791504</ele>
        <time>2016-06-10T11:40:07Z</time>
      </trkpt>
      <trkpt lat="44.55289" lon="6.19297">
        <ele>878.7824707</ele>
        <time>2016-06-10T11:40:31Z</time>
      </trkpt>
      <trkpt lat="44.55256" lon="6.19238">
        <ele>881.6662598</ele>
        <time>2016-06-10T11:40:56Z</time>
      </trkpt>
      <trkpt lat="44.55231" lon="6.19184">
        <ele>883.1081543</ele>
        <time>2016-06-10T11:41:16Z</time>
      </trkpt>
      <trkpt lat="44.55237" lon="6.1915">
        <ele>885.0310059</ele>
        <time>2016-06-10T11:41:28Z</time>
      </trkpt>
      <trkpt lat="44.55234" lon="6.19141">
        <ele>885.0310059</ele>
        <time>2016-06-10T11:41:32Z</time>
      </trkpt>
      <trkpt lat="44.5521" lon="6.19146">
        <ele>887.434082</ele>
        <time>2016-06-10T11:41:46Z</time>
      </trkpt>
      <trkpt lat="44.55182" lon="6.1916">
        <ele>889.3566895</ele>
        <time>2016-06-10T11:42:03Z</time>
      </trkpt>
      <trkpt lat="44.55149" lon="6.19122">
        <ele>892.2409668</ele>
        <time>2016-06-10T11:42:28Z</time>
      </trkpt>
      <trkpt lat="44.55124" lon="6.1909">
        <ele>895.6054688</ele>
        <time>2016-06-10T11:42:49Z</time>
      </trkpt>
      <trkpt lat="44.55111" lon="6.19043">
        <ele>898.0087891</ele>
        <time>2016-06-10T11:43:12Z</time>
      </trkpt>
      <trkpt lat="44.55113" lon="6.18994">
        <ele>901.373291</ele>
        <time>2016-06-10T11:43:35Z</time>
      </trkpt>
      <trkpt lat="44.55094" lon="6.18979">
        <ele>901.8540039</ele>
        <time>2016-06-10T11:43:50Z</time>
      </trkpt>
      <trkpt lat="44.55058" lon="6.18986">
        <ele>903.2958984</ele>
        <time>2016-06-10T11:44:09Z</time>
      </trkpt>
      <trkpt lat="44.55025" lon="6.18951">
        <ele>903.7766113</ele>
        <time>2016-06-10T11:44:30Z</time>
      </trkpt>
      <trkpt lat="44.55005" lon="6.18902">
        <ele>905.6992188</ele>
        <time>2016-06-10T11:44:51Z</time>
      </trkpt>
      <trkpt lat="44.5501" lon="6.18851">
        <ele>908.1027832</ele>
        <time>2016-06-10T11:45:12Z</time>
      </trkpt>
      <trkpt lat="44.54995" lon="6.1883">
        <ele>910.0251465</ele>
        <time>2016-06-10T11:45:27Z</time>
      </trkpt>
      <trkpt lat="44.54959" lon="6.18837">
        <ele>911.947998</ele>
        <time>2016-06-10T11:45:48Z</time>
      </trkpt>
      <trkpt lat="44.54922" lon="6.1882">
        <ele>914.3510742</ele>
        <time>2016-06-10T11:46:10Z</time>
      </trkpt>
      <trkpt lat="44.54888" lon="6.18776">
        <ele>917.2351074</ele>
        <time>2016-06-10T11:46:37Z</time>
      </trkpt>
      <trkpt lat="44.54863" lon="6.18735">
        <ele>919.6384277</ele>
        <time>2016-06-10T11:46:59Z</time>
      </trkpt>
      <trkpt lat="44.54835" lon="6.18685">
        <ele>922.0415039</ele>
        <time>2016-06-10T11:47:27Z</time>
      </trkpt>
      <trkpt lat="44.54806" lon="6.18657">
        <ele>925.40625</ele>
        <time>2016-06-10T11:47:49Z</time>
      </trkpt>
      <trkpt lat="44.54777" lon="6.18613">
        <ele>927.8095703</ele>
        <time>2016-06-10T11:48:15Z</time>
      </trkpt>
      <trkpt lat="44.54768" lon="6.18589">
        <ele>929.2514648</ele>
        <time>2016-06-10T11:48:27Z</time>
      </trkpt>
      <trkpt lat="44.54737" lon="6.1855">
        <ele>932.135498</ele>
        <time>2016-06-10T11:48:52Z</time>
      </trkpt>
      <trkpt lat="44.54736" lon="6.18513">
        <ele>935.5</ele>
        <time>2016-06-10T11:49:11Z</time>
      </trkpt>
      <trkpt lat="44.54724" lon="6.18479">
        <ele>936.4614258</ele>
        <time>2016-06-10T11:49:28Z</time>
      </trkpt>
      <trkpt lat="44.5469" lon="6.18465">
        <ele>938.3840332</ele>
        <time>2016-06-10T11:49:48Z</time>
      </trkpt>
      <trkpt lat="44.54671" lon="6.18419">
        <ele>940.7873535</ele>
        <time>2016-06-10T11:50:10Z</time>
      </trkpt>
      <trkpt lat="44.54647" lon="6.18365">
        <ele>943.1906738</ele>
        <time>2016-06-10T11:50:35Z</time>
      </trkpt>
      <trkpt lat="44.54632" lon="6.18313">
        <ele>945.1132813</ele>
        <time>2016-06-10T11:50:59Z</time>
      </trkpt>
      <trkpt lat="44.54608" lon="6.18266">
        <ele>947.5166016</ele>
        <time>2016-06-10T11:51:23Z</time>
      </trkpt>
      <trkpt lat="44.54582" lon="6.18233">
        <ele>948.9584961</ele>
        <time>2016-06-10T11:51:44Z</time>
      </trkpt>
      <trkpt lat="44.54559" lon="6.18193">
        <ele>952.322998</ele>
        <time>2016-06-10T11:52:07Z</time>
      </trkpt>
      <trkpt lat="44.5454" lon="6.1815">
        <ele>954.7263184</ele>
        <time>2016-06-10T11:52:29Z</time>
      </trkpt>
      <trkpt lat="44.54508" lon="6.18119">
        <ele>956.168457</ele>
        <time>2016-06-10T11:52:52Z</time>
      </trkpt>
      <trkpt lat="44.54467" lon="6.1811">
        <ele>957.6105957</ele>
        <time>2016-06-10T11:53:14Z</time>
      </trkpt>
      <trkpt lat="44.54431" lon="6.18074">
        <ele>960.0136719</ele>
        <time>2016-06-10T11:53:38Z</time>
      </trkpt>
      <trkpt lat="44.54404" lon="6.18032">
        <ele>962.4169922</ele>
        <time>2016-06-10T11:54:03Z</time>
      </trkpt>
      <trkpt lat="44.54381" lon="6.17994">
        <ele>964.8203125</ele>
        <time>2016-06-10T11:54:25Z</time>
      </trkpt>
      <trkpt lat="44.54361" lon="6.17964">
        <ele>966.7429199</ele>
        <time>2016-06-10T11:54:43Z</time>
      </trkpt>
      <trkpt lat="44.54336" lon="6.17949">
        <ele>969.1462402</ele>
        <time>2016-06-10T11:54:59Z</time>
      </trkpt>
      <trkpt lat="44.54331" lon="6.17949">
        <ele>969.6269531</ele>
        <time>2016-06-10T11:55:02Z</time>
      </trkpt>
      <trkpt lat="44.54292" lon="6.17927">
        <ele>971.0688477</ele>
        <time>2016-06-10T11:55:27Z</time>
      </trkpt>
      <trkpt lat="44.54248" lon="6.17902">
        <ele>973.4724121</ele>
        <time>2016-06-10T11:55:55Z</time>
      </trkpt>
      <trkpt lat="44.54206" lon="6.17886">
        <ele>975.3947754</ele>
        <time>2016-06-10T11:56:19Z</time>
      </trkpt>
      <trkpt lat="44.54179" lon="6.17824">
        <ele>977.317627</ele>
        <time>2016-06-10T11:56:47Z</time>
      </trkpt>
      <trkpt lat="44.54179" lon="6.17758">
        <ele>978.2788086</ele>
        <time>2016-06-10T11:57:13Z</time>
      </trkpt>
      <trkpt lat="44.54195" lon="6.17698">
        <ele>979.7207031</ele>
        <time>2016-06-10T11:57:37Z</time>
      </trkpt>
      <trkpt lat="44.54214" lon="6.17656">
        <ele>981.6433105</ele>
        <time>2016-06-10T11:57:57Z</time>
      </trkpt>
      <trkpt lat="44.54224" lon="6.17631">
        <ele>983.0852051</ele>
        <time>2016-06-10T11:58:10Z</time>
      </trkpt>
      <trkpt lat="44.54225" lon="6.17623">
        <ele>983.565918</ele>
        <time>2016-06-10T11:58:14Z</time>
      </trkpt>
      <trkpt lat="44.54235" lon="6.17584">
        <ele>986.4499512</ele>
        <time>2016-06-10T11:58:33Z</time>
      </trkpt>
      <trkpt lat="44.54235" lon="6.17547">
        <ele>988.8535156</ele>
        <time>2016-06-10T11:58:51Z</time>
      </trkpt>
      <trkpt lat="44.54214" lon="6.17518">
        <ele>991.2565918</ele>
        <time>2016-06-10T11:59:11Z</time>
      </trkpt>
      <trkpt lat="44.54194" lon="6.17515">
        <ele>992.2180176</ele>
        <time>2016-06-10T11:59:24Z</time>
      </trkpt>
      <trkpt lat="44.54203" lon="6.17486">
        <ele>994.140625</ele>
        <time>2016-06-10T11:59:38Z</time>
      </trkpt>
      <trkpt lat="44.5423" lon="6.17485">
        <ele>996.5439453</ele>
        <time>2016-06-10T11:59:55Z</time>
      </trkpt>
      <trkpt lat="44.54267" lon="6.1749">
        <ele>998.9470215</ele>
        <time>2016-06-10T12:00:17Z</time>
      </trkpt>
      <trkpt lat="44.54291" lon="6.17492">
        <ele>1000.3891602</ele>
        <time>2016-06-10T12:00:33Z</time>
      </trkpt>
      <trkpt lat="44.54322" lon="6.17497">
        <ele>1003.2729492</ele>
        <time>2016-06-10T12:00:55Z</time>
      </trkpt>
      <trkpt lat="44.54326" lon="6.17502">
        <ele>1003.7536621</ele>
        <time>2016-06-10T12:00:59Z</time>
      </trkpt>
      <trkpt lat="44.5435" lon="6.17515">
        <ele>1005.6765137</ele>
        <time>2016-06-10T12:01:16Z</time>
      </trkpt>
      <trkpt lat="44.54371" lon="6.1754">
        <ele>1007.5991211</ele>
        <time>2016-06-10T12:01:33Z</time>
      </trkpt>
      <trkpt lat="44.54389" lon="6.1759">
        <ele>1010.0021973</ele>
        <time>2016-06-10T12:01:58Z</time>
      </trkpt>
      <trkpt lat="44.54393" lon="6.17648">
        <ele>1011.9250488</ele>
        <time>2016-06-10T12:02:23Z</time>
      </trkpt>
      <trkpt lat="44.54401" lon="6.17696">
        <ele>1013.3669434</ele>
        <time>2016-06-10T12:02:44Z</time>
      </trkpt>
      <trkpt lat="44.54419" lon="6.17685">
        <ele>1014.328125</ele>
        <time>2016-06-10T12:02:57Z</time>
      </trkpt>
      <trkpt lat="44.54424" lon="6.17638">
        <ele>1016.2507324</ele>
        <time>2016-06-10T12:03:16Z</time>
      </trkpt>
      <trkpt lat="44.54431" lon="6.17591">
        <ele>1018.1733398</ele>
        <time>2016-06-10T12:03:37Z</time>
      </trkpt>
      <trkpt lat="44.54445" lon="6.17543">
        <ele>1021.5380859</ele>
        <time>2016-06-10T12:04:00Z</time>
      </trkpt>
      <trkpt lat="44.54456" lon="6.17496">
        <ele>1024.4221191</ele>
        <time>2016-06-10T12:04:24Z</time>
      </trkpt>
      <trkpt lat="44.54461" lon="6.17456">
        <ele>1027.7866211</ele>
        <time>2016-06-10T12:04:44Z</time>
      </trkpt>
      <trkpt lat="44.54459" lon="6.1743">
        <ele>1028.7480469</ele>
        <time>2016-06-10T12:04:57Z</time>
      </trkpt>
      <trkpt lat="44.5446" lon="6.1742">
        <ele>1029.7092285</ele>
        <time>2016-06-10T12:05:02Z</time>
      </trkpt>
      <trkpt lat="44.5446" lon="6.17411">
        <ele>1029.7092285</ele>
        <time>2016-06-10T12:05:06Z</time>
      </trkpt>
      <trkpt lat="44.54463" lon="6.17378">
        <ele>1032.1125488</ele>
        <time>2016-06-10T12:05:22Z</time>
      </trkpt>
      <trkpt lat="44.54469" lon="6.17344">
        <ele>1034.5158691</ele>
        <time>2016-06-10T12:05:39Z</time>
      </trkpt>
      <trkpt lat="44.54475" lon="6.17303">
        <ele>1037.3999023</ele>
        <time>2016-06-10T12:05:59Z</time>
      </trkpt>
      <trkpt lat="44.54468" lon="6.17233">
        <ele>1039.3225098</ele>
        <time>2016-06-10T12:06:29Z</time>
      </trkpt>
      <trkpt lat="44.54456" lon="6.17168">
        <ele>1039.8032227</ele>
        <time>2016-06-10T12:06:52Z</time>
      </trkpt>
      <trkpt lat="44.54447" lon="6.17107">
        <ele>1040.2839355</ele>
        <time>2016-06-10T12:07:10Z</time>
      </trkpt>
      <trkpt lat="44.54443" lon="6.17033">
        <ele>1041.7258301</ele>
        <time>2016-06-10T12:07:30Z</time>
      </trkpt>
      <trkpt lat="44.54445" lon="6.16969">
        <ele>1043.6484375</ele>
        <time>2016-06-10T12:07:49Z</time>
      </trkpt>
      <trkpt lat="44.54452" lon="6.16875">
        <ele>1044.6096191</ele>
        <time>2016-06-10T12:08:15Z</time>
      </trkpt>
      <trkpt lat="44.54469" lon="6.1682">
        <ele>1045.5710449</ele>
        <time>2016-06-10T12:08:32Z</time>
      </trkpt>
      <trkpt lat="44.54504" lon="6.16779">
        <ele>1046.5324707</ele>
        <time>2016-06-10T12:08:52Z</time>
      </trkpt>
      <trkpt lat="44.54557" lon="6.16755">
        <ele>1045.090332</ele>
        <time>2016-06-10T12:09:07Z</time>
      </trkpt>
      <trkpt lat="44.54657" lon="6.16723">
        <ele>1044.1291504</ele>
        <time>2016-06-10T12:09:29Z</time>
      </trkpt>
      <trkpt lat="44.5472" lon="6.16711">
        <ele>1046.0517578</ele>
        <time>2016-06-10T12:09:48Z</time>
      </trkpt>
      <trkpt lat="44.5477" lon="6.16703">
        <ele>1048.9355469</ele>
        <time>2016-06-10T12:10:10Z</time>
      </trkpt>
      <trkpt lat="44.5481" lon="6.16695">
        <ele>1051.3388672</ele>
        <time>2016-06-10T12:10:32Z</time>
      </trkpt>
      <trkpt lat="44.54853" lon="6.16673">
        <ele>1051.3388672</ele>
        <time>2016-06-10T12:10:51Z</time>
      </trkpt>
      <trkpt lat="44.54911" lon="6.16649">
        <ele>1049.8969727</ele>
        <time>2016-06-10T12:11:04Z</time>
      </trkpt>
      <trkpt lat="44.54966" lon="6.16622">
        <ele>1047.0129395</ele>
        <time>2016-06-10T12:11:12Z</time>
      </trkpt>
      <trkpt lat="44.54982" lon="6.16615">
        <ele>1046.0517578</ele>
        <time>2016-06-10T12:11:14Z</time>
      </trkpt>
      <trkpt lat="44.54996" lon="6.16607">
        <ele>1044.6096191</ele>
        <time>2016-06-10T12:11:16Z</time>
      </trkpt>
      <trkpt lat="44.55015" lon="6.16592">
        <ele>1042.6872559</ele>
        <time>2016-06-10T12:11:19Z</time>
      </trkpt>
      <trkpt lat="44.55023" lon="6.1658">
        <ele>1042.206543</ele>
        <time>2016-06-10T12:11:21Z</time>
      </trkpt>
      <trkpt lat="44.55049" lon="6.16515">
        <ele>1039.3225098</ele>
        <time>2016-06-10T12:11:28Z</time>
      </trkpt>
      <trkpt lat="44.55093" lon="6.16426">
        <ele>1035.4770508</ele>
        <time>2016-06-10T12:11:36Z</time>
      </trkpt>
      <trkpt lat="44.55099" lon="6.16415">
        <ele>1035.4770508</ele>
        <time>2016-06-10T12:11:37Z</time>
      </trkpt>
      <trkpt lat="44.55122" lon="6.16374">
        <ele>1033.0737305</ele>
        <time>2016-06-10T12:11:41Z</time>
      </trkpt>
      <trkpt lat="44.55139" lon="6.16345">
        <ele>1031.1513672</ele>
        <time>2016-06-10T12:11:44Z</time>
      </trkpt>
      <trkpt lat="44.55149" lon="6.16325">
        <ele>1029.2285156</ele>
        <time>2016-06-10T12:11:46Z</time>
      </trkpt>
      <trkpt lat="44.55158" lon="6.1631">
        <ele>1026.8254395</ele>
        <time>2016-06-10T12:11:48Z</time>
      </trkpt>
      <trkpt lat="44.55194" lon="6.16259">
        <ele>1023.9414063</ele>
        <time>2016-06-10T12:11:56Z</time>
      </trkpt>
      <trkpt lat="44.552" lon="6.16254">
        <ele>1023.4609375</ele>
        <time>2016-06-10T12:11:57Z</time>
      </trkpt>
      <trkpt lat="44.55248" lon="6.16254">
        <ele>1020.0961914</ele>
        <time>2016-06-10T12:12:04Z</time>
      </trkpt>
      <trkpt lat="44.55254" lon="6.16258">
        <ele>1020.0961914</ele>
        <time>2016-06-10T12:12:05Z</time>
      </trkpt>
      <trkpt lat="44.55263" lon="6.16265">
        <ele>1018.6540527</ele>
        <time>2016-06-10T12:12:07Z</time>
      </trkpt>
      <trkpt lat="44.55294" lon="6.16247">
        <ele>1017.692627</ele>
        <time>2016-06-10T12:12:14Z</time>
      </trkpt>
      <trkpt lat="44.55312" lon="6.16215">
        <ele>1017.2121582</ele>
        <time>2016-06-10T12:12:20Z</time>
      </trkpt>
      <trkpt lat="44.55356" lon="6.16169">
        <ele>1017.692627</ele>
        <time>2016-06-10T12:12:36Z</time>
      </trkpt>
      <trkpt lat="44.55381" lon="6.16176">
        <ele>1020.0961914</ele>
        <time>2016-06-10T12:12:49Z</time>
      </trkpt>
      <trkpt lat="44.55398" lon="6.16195">
        <ele>1022.9802246</ele>
        <time>2016-06-10T12:13:01Z</time>
      </trkpt>
      <trkpt lat="44.55404" lon="6.16196">
        <ele>1023.4609375</ele>
        <time>2016-06-10T12:13:05Z</time>
      </trkpt>
      <trkpt lat="44.5541" lon="6.1619">
        <ele>1023.9414063</ele>
        <time>2016-06-10T12:13:09Z</time>
      </trkpt>
      <trkpt lat="44.55419" lon="6.16145">
        <ele>1025.3833008</ele>
        <time>2016-06-10T12:13:24Z</time>
      </trkpt>
      <trkpt lat="44.55426" lon="6.1609">
        <ele>1026.3447266</ele>
        <time>2016-06-10T12:13:41Z</time>
      </trkpt>
      <trkpt lat="44.55424" lon="6.16087">
        <ele>1026.3447266</ele>
        <time>2016-06-10T12:13:42Z</time>
      </trkpt>
      <trkpt lat="44.55425" lon="6.16083">
        <ele>1026.8254395</ele>
        <time>2016-06-10T12:13:44Z</time>
      </trkpt>
      <trkpt lat="44.55438" lon="6.16046">
        <ele>1026.3447266</ele>
        <time>2016-06-10T12:13:55Z</time>
      </trkpt>
      <trkpt lat="44.55485" lon="6.15998">
        <ele>1024.902832</ele>
        <time>2016-06-10T12:14:06Z</time>
      </trkpt>
      <trkpt lat="44.5551" lon="6.15988">
        <ele>1022.9802246</ele>
        <time>2016-06-10T12:14:10Z</time>
      </trkpt>
      <trkpt lat="44.5553" lon="6.15987">
        <ele>1021.0576172</ele>
        <time>2016-06-10T12:14:13Z</time>
      </trkpt>
      <trkpt lat="44.55544" lon="6.1599">
        <ele>1019.6154785</ele>
        <time>2016-06-10T12:14:15Z</time>
      </trkpt>
      <trkpt lat="44.55556" lon="6.15995">
        <ele>1018.6540527</ele>
        <time>2016-06-10T12:14:17Z</time>
      </trkpt>
      <trkpt lat="44.55567" lon="6.16003">
        <ele>1018.1733398</ele>
        <time>2016-06-10T12:14:19Z</time>
      </trkpt>
      <trkpt lat="44.556" lon="6.16032">
        <ele>1015.2895508</ele>
        <time>2016-06-10T12:14:24Z</time>
      </trkpt>
      <trkpt lat="44.55653" lon="6.16068">
        <ele>1011.9250488</ele>
        <time>2016-06-10T12:14:31Z</time>
      </trkpt>
      <trkpt lat="44.5567" lon="6.16076">
        <ele>1010.4829102</ele>
        <time>2016-06-10T12:14:33Z</time>
      </trkpt>
      <trkpt lat="44.55687" lon="6.16083">
        <ele>1008.5603027</ele>
        <time>2016-06-10T12:14:35Z</time>
      </trkpt>
      <trkpt lat="44.55703" lon="6.1609">
        <ele>1007.1184082</ele>
        <time>2016-06-10T12:14:37Z</time>
      </trkpt>
      <trkpt lat="44.55758" lon="6.16109">
        <ele>1004.2346191</ele>
        <time>2016-06-10T12:14:44Z</time>
      </trkpt>
      <trkpt lat="44.55818" lon="6.16096">
        <ele>1001.8310547</ele>
        <time>2016-06-10T12:14:51Z</time>
      </trkpt>
      <trkpt lat="44.55844" lon="6.16078">
        <ele>999.9084473</ele>
        <time>2016-06-10T12:14:54Z</time>
      </trkpt>
      <trkpt lat="44.5586" lon="6.16065">
        <ele>998.4663086</ele>
        <time>2016-06-10T12:14:56Z</time>
      </trkpt>
      <trkpt lat="44.55873" lon="6.16055">
        <ele>997.0244141</ele>
        <time>2016-06-10T12:14:58Z</time>
      </trkpt>
      <trkpt lat="44.55903" lon="6.16029">
        <ele>994.6210938</ele>
        <time>2016-06-10T12:15:03Z</time>
      </trkpt>
      <trkpt lat="44.55922" lon="6.15997">
        <ele>995.1018066</ele>
        <time>2016-06-10T12:15:07Z</time>
      </trkpt>
      <trkpt lat="44.5594" lon="6.15925">
        <ele>992.6987305</ele>
        <time>2016-06-10T12:15:14Z</time>
      </trkpt>
      <trkpt lat="44.55954" lon="6.15817">
        <ele>989.3339844</ele>
        <time>2016-06-10T12:15:23Z</time>
      </trkpt>
      <trkpt lat="44.55955" lon="6.15805">
        <ele>989.3339844</ele>
        <time>2016-06-10T12:15:24Z</time>
      </trkpt>
      <trkpt lat="44.55956" lon="6.15779">
        <ele>987.4111328</ele>
        <time>2016-06-10T12:15:26Z</time>
      </trkpt>
      <trkpt lat="44.5596" lon="6.15726">
        <ele>985.9692383</ele>
        <time>2016-06-10T12:15:30Z</time>
      </trkpt>
      <trkpt lat="44.55962" lon="6.15686">
        <ele>984.5273438</ele>
        <time>2016-06-10T12:15:33Z</time>
      </trkpt>
      <trkpt lat="44.55965" lon="6.15647">
        <ele>982.6047363</ele>
        <time>2016-06-10T12:15:36Z</time>
      </trkpt>
      <trkpt lat="44.55964" lon="6.15619">
        <ele>981.6433105</ele>
        <time>2016-06-10T12:15:38Z</time>
      </trkpt>
      <trkpt lat="44.55952" lon="6.15543">
        <ele>977.7980957</ele>
        <time>2016-06-10T12:15:43Z</time>
      </trkpt>
      <trkpt lat="44.55949" lon="6.15528">
        <ele>977.7980957</ele>
        <time>2016-06-10T12:15:44Z</time>
      </trkpt>
      <trkpt lat="44.55938" lon="6.15481">
        <ele>976.3562012</ele>
        <time>2016-06-10T12:15:47Z</time>
      </trkpt>
      <trkpt lat="44.55933" lon="6.15456">
        <ele>973.9528809</ele>
        <time>2016-06-10T12:15:49Z</time>
      </trkpt>
      <trkpt lat="44.55929" lon="6.15432">
        <ele>972.0302734</ele>
        <time>2016-06-10T12:15:51Z</time>
      </trkpt>
      <trkpt lat="44.55919" lon="6.15382">
        <ele>968.1848145</ele>
        <time>2016-06-10T12:15:55Z</time>
      </trkpt>
      <trkpt lat="44.55917" lon="6.15371">
        <ele>968.1848145</ele>
        <time>2016-06-10T12:15:56Z</time>
      </trkpt>
      <trkpt lat="44.55906" lon="6.15309">
        <ele>966.7429199</ele>
        <time>2016-06-10T12:16:01Z</time>
      </trkpt>
      <trkpt lat="44.559" lon="6.15245">
        <ele>962.4169922</ele>
        <time>2016-06-10T12:16:06Z</time>
      </trkpt>
      <trkpt lat="44.55899" lon="6.15219">
        <ele>961.9365234</ele>
        <time>2016-06-10T12:16:08Z</time>
      </trkpt>
      <trkpt lat="44.55895" lon="6.15081">
        <ele>957.6105957</ele>
        <time>2016-06-10T12:16:18Z</time>
      </trkpt>
      <trkpt lat="44.55895" lon="6.15067">
        <ele>957.6105957</ele>
        <time>2016-06-10T12:16:19Z</time>
      </trkpt>
      <trkpt lat="44.55892" lon="6.15024">
        <ele>956.6491699</ele>
        <time>2016-06-10T12:16:22Z</time>
      </trkpt>
      <trkpt lat="44.55892" lon="6.14993">
        <ele>954.7263184</ele>
        <time>2016-06-10T12:16:24Z</time>
      </trkpt>
      <trkpt lat="44.55888" lon="6.14919">
        <ele>951.8425293</ele>
        <time>2016-06-10T12:16:29Z</time>
      </trkpt>
      <trkpt lat="44.55878" lon="6.14844">
        <ele>948.9584961</ele>
        <time>2016-06-10T12:16:34Z</time>
      </trkpt>
      <trkpt lat="44.55876" lon="6.14831">
        <ele>948.9584961</ele>
        <time>2016-06-10T12:16:35Z</time>
      </trkpt>
      <trkpt lat="44.55868" lon="6.14792">
        <ele>946.074707</ele>
        <time>2016-06-10T12:16:38Z</time>
      </trkpt>
      <trkpt lat="44.55863" lon="6.14764">
        <ele>944.1520996</ele>
        <time>2016-06-10T12:16:40Z</time>
      </trkpt>
      <trkpt lat="44.55854" lon="6.14693">
        <ele>942.2294922</ele>
        <time>2016-06-10T12:16:45Z</time>
      </trkpt>
      <trkpt lat="44.5585" lon="6.14665">
        <ele>941.2680664</ele>
        <time>2016-06-10T12:16:47Z</time>
      </trkpt>
      <trkpt lat="44.55845" lon="6.14639">
        <ele>939.8259277</ele>
        <time>2016-06-10T12:16:49Z</time>
      </trkpt>
      <trkpt lat="44.55838" lon="6.14612">
        <ele>938.8647461</ele>
        <time>2016-06-10T12:16:51Z</time>
      </trkpt>
      <trkpt lat="44.55818" lon="6.14518">
        <ele>935.0195313</ele>
        <time>2016-06-10T12:16:58Z</time>
      </trkpt>
      <trkpt lat="44.55815" lon="6.14504">
        <ele>935.0195313</ele>
        <time>2016-06-10T12:16:59Z</time>
      </trkpt>
      <trkpt lat="44.5581" lon="6.14477">
        <ele>933.5773926</ele>
        <time>2016-06-10T12:17:01Z</time>
      </trkpt>
      <trkpt lat="44.55794" lon="6.14408">
        <ele>930.6936035</ele>
        <time>2016-06-10T12:17:06Z</time>
      </trkpt>
      <trkpt lat="44.5578" lon="6.14352">
        <ele>929.7321777</ele>
        <time>2016-06-10T12:17:10Z</time>
      </trkpt>
      <trkpt lat="44.55754" lon="6.14295">
        <ele>927.3291016</ele>
        <time>2016-06-10T12:17:15Z</time>
      </trkpt>
      <trkpt lat="44.55743" lon="6.14275">
        <ele>925.40625</ele>
        <time>2016-06-10T12:17:17Z</time>
      </trkpt>
      <trkpt lat="44.55723" lon="6.14219">
        <ele>923.4836426</ele>
        <time>2016-06-10T12:17:22Z</time>
      </trkpt>
      <trkpt lat="44.55686" lon="6.1413">
        <ele>920.1188965</ele>
        <time>2016-06-10T12:17:30Z</time>
      </trkpt>
      <trkpt lat="44.55682" lon="6.14119">
        <ele>920.1188965</ele>
        <time>2016-06-10T12:17:31Z</time>
      </trkpt>
      <trkpt lat="44.55672" lon="6.14098">
        <ele>918.677002</ele>
        <time>2016-06-10T12:17:33Z</time>
      </trkpt>
      <trkpt lat="44.55659" lon="6.14065">
        <ele>917.2351074</ele>
        <time>2016-06-10T12:17:36Z</time>
      </trkpt>
      <trkpt lat="44.5564" lon="6.13965">
        <ele>912.4284668</ele>
        <time>2016-06-10T12:17:44Z</time>
      </trkpt>
      <trkpt lat="44.55638" lon="6.13954">
        <ele>912.4284668</ele>
        <time>2016-06-10T12:17:45Z</time>
      </trkpt>
      <trkpt lat="44.55625" lon="6.13896">
        <ele>909.5446777</ele>
        <time>2016-06-10T12:17:50Z</time>
      </trkpt>
      <trkpt lat="44.55578" lon="6.13784">
        <ele>905.6992188</ele>
        <time>2016-06-10T12:18:00Z</time>
      </trkpt>
      <trkpt lat="44.55572" lon="6.13772">
        <ele>905.6992188</ele>
        <time>2016-06-10T12:18:01Z</time>
      </trkpt>
      <trkpt lat="44.55551" lon="6.13727">
        <ele>902.8151855</ele>
        <time>2016-06-10T12:18:05Z</time>
      </trkpt>
      <trkpt lat="44.55533" lon="6.13665">
        <ele>901.373291</ele>
        <time>2016-06-10T12:18:10Z</time>
      </trkpt>
      <trkpt lat="44.5552" lon="6.13616">
        <ele>898.4892578</ele>
        <time>2016-06-10T12:18:14Z</time>
      </trkpt>
      <trkpt lat="44.55517" lon="6.13604">
        <ele>898.4892578</ele>
        <time>2016-06-10T12:18:15Z</time>
      </trkpt>
      <trkpt lat="44.555" lon="6.13544">
        <ele>896.0861816</ele>
        <time>2016-06-10T12:18:20Z</time>
      </trkpt>
      <trkpt lat="44.55484" lon="6.13473">
        <ele>894.1635742</ele>
        <time>2016-06-10T12:18:26Z</time>
      </trkpt>
      <trkpt lat="44.55481" lon="6.13406">
        <ele>893.6828613</ele>
        <time>2016-06-10T12:18:32Z</time>
      </trkpt>
      <trkpt lat="44.55478" lon="6.13385">
        <ele>893.2021484</ele>
        <time>2016-06-10T12:18:34Z</time>
      </trkpt>
      <trkpt lat="44.5546" lon="6.13315">
        <ele>890.798584</ele>
        <time>2016-06-10T12:18:41Z</time>
      </trkpt>
      <trkpt lat="44.5545" lon="6.13276">
        <ele>888.8762207</ele>
        <time>2016-06-10T12:18:45Z</time>
      </trkpt>
      <trkpt lat="44.55445" lon="6.13257">
        <ele>890.798584</ele>
        <time>2016-06-10T12:18:47Z</time>
      </trkpt>
      <trkpt lat="44.55434" lon="6.13219">
        <ele>886.9533691</ele>
        <time>2016-06-10T12:18:51Z</time>
      </trkpt>
      <trkpt lat="44.55431" lon="6.1321">
        <ele>886.9533691</ele>
        <time>2016-06-10T12:18:52Z</time>
      </trkpt>
      <trkpt lat="44.55413" lon="6.13089">
        <ele>885.0310059</ele>
        <time>2016-06-10T12:19:04Z</time>
      </trkpt>
      <trkpt lat="44.55405" lon="6.13023">
        <ele>884.550293</ele>
        <time>2016-06-10T12:19:10Z</time>
      </trkpt>
      <trkpt lat="44.55378" lon="6.12981">
        <ele>882.6276855</ele>
        <time>2016-06-10T12:19:15Z</time>
      </trkpt>
      <trkpt lat="44.55354" lon="6.12967">
        <ele>879.7436523</ele>
        <time>2016-06-10T12:19:18Z</time>
      </trkpt>
      <trkpt lat="44.55337" lon="6.12959">
        <ele>877.3405762</ele>
        <time>2016-06-10T12:19:20Z</time>
      </trkpt>
      <trkpt lat="44.55328" lon="6.12955">
        <ele>877.3405762</ele>
        <time>2016-06-10T12:19:21Z</time>
      </trkpt>
      <trkpt lat="44.55276" lon="6.12883">
        <ele>875.4174805</ele>
        <time>2016-06-10T12:19:29Z</time>
      </trkpt>
      <trkpt lat="44.55269" lon="6.12858">
        <ele>873.9755859</ele>
        <time>2016-06-10T12:19:31Z</time>
      </trkpt>
      <trkpt lat="44.55247" lon="6.12774">
        <ele>872.0529785</ele>
        <time>2016-06-10T12:19:39Z</time>
      </trkpt>
      <trkpt lat="44.55248" lon="6.12754">
        <ele>871.5722656</ele>
        <time>2016-06-10T12:19:41Z</time>
      </trkpt>
      <trkpt lat="44.55265" lon="6.12721">
        <ele>870.1303711</ele>
        <time>2016-06-10T12:19:45Z</time>
      </trkpt>
      <trkpt lat="44.55363" lon="6.12628">
        <ele>866.2851563</ele>
        <time>2016-06-10T12:20:01Z</time>
      </trkpt>
      <trkpt lat="44.55442" lon="6.12554">
        <ele>865.3239746</ele>
        <time>2016-06-10T12:20:16Z</time>
      </trkpt>
      <trkpt lat="44.55499" lon="6.12448">
        <ele>865.8046875</ele>
        <time>2016-06-10T12:20:31Z</time>
      </trkpt>
      <trkpt lat="44.55525" lon="6.12405">
        <ele>863.8818359</ele>
        <time>2016-06-10T12:20:38Z</time>
      </trkpt>
      <trkpt lat="44.55545" lon="6.12386">
        <ele>863.8818359</ele>
        <time>2016-06-10T12:20:42Z</time>
      </trkpt>
      <trkpt lat="44.55556" lon="6.12379">
        <ele>863.8818359</ele>
        <time>2016-06-10T12:20:44Z</time>
      </trkpt>
      <trkpt lat="44.55596" lon="6.12309">
        <ele>863.4013672</ele>
        <time>2016-06-10T12:20:54Z</time>
      </trkpt>
      <trkpt lat="44.55596" lon="6.12299">
        <ele>863.4013672</ele>
        <time>2016-06-10T12:20:55Z</time>
      </trkpt>
      <trkpt lat="44.55598" lon="6.1228">
        <ele>863.8818359</ele>
        <time>2016-06-10T12:20:57Z</time>
      </trkpt>
      <trkpt lat="44.5562" lon="6.12221">
        <ele>860.9980469</ele>
        <time>2016-06-10T12:21:04Z</time>
      </trkpt>
      <trkpt lat="44.55701" lon="6.12122">
        <ele>860.0366211</ele>
        <time>2016-06-10T12:21:20Z</time>
      </trkpt>
      <trkpt lat="44.55733" lon="6.12004">
        <ele>858.5944824</ele>
        <time>2016-06-10T12:21:34Z</time>
      </trkpt>
      <trkpt lat="44.5575" lon="6.11858">
        <ele>856.1911621</ele>
        <time>2016-06-10T12:21:46Z</time>
      </trkpt>
      <trkpt lat="44.55754" lon="6.11833">
        <ele>855.7106934</ele>
        <time>2016-06-10T12:21:48Z</time>
      </trkpt>
      <trkpt lat="44.55773" lon="6.1178">
        <ele>855.2299805</ele>
        <time>2016-06-10T12:21:53Z</time>
      </trkpt>
      <trkpt lat="44.55796" lon="6.11754">
        <ele>856.1911621</ele>
        <time>2016-06-10T12:21:57Z</time>
      </trkpt>
      <trkpt lat="44.55814" lon="6.11742">
        <ele>854.2687988</ele>
        <time>2016-06-10T12:22:00Z</time>
      </trkpt>
      <trkpt lat="44.55868" lon="6.11679">
        <ele>853.7880859</ele>
        <time>2016-06-10T12:22:14Z</time>
      </trkpt>
      <trkpt lat="44.55918" lon="6.1156">
        <ele>853.307373</ele>
        <time>2016-06-10T12:22:32Z</time>
      </trkpt>
      <trkpt lat="44.5593" lon="6.11498">
        <ele>852.3459473</ele>
        <time>2016-06-10T12:22:41Z</time>
      </trkpt>
      <trkpt lat="44.5593" lon="6.11361">
        <ele>850.9040527</ele>
        <time>2016-06-10T12:22:58Z</time>
      </trkpt>
      <trkpt lat="44.55929" lon="6.11341">
        <ele>848.9814453</ele>
        <time>2016-06-10T12:23:00Z</time>
      </trkpt>
      <trkpt lat="44.55931" lon="6.11299">
        <ele>848.5007324</ele>
        <time>2016-06-10T12:23:04Z</time>
      </trkpt>
      <trkpt lat="44.55952" lon="6.11188">
        <ele>846.0976563</ele>
        <time>2016-06-10T12:23:14Z</time>
      </trkpt>
      <trkpt lat="44.55965" lon="6.11079">
        <ele>843.6940918</ele>
        <time>2016-06-10T12:23:23Z</time>
      </trkpt>
      <trkpt lat="44.55974" lon="6.11011">
        <ele>841.7714844</ele>
        <time>2016-06-10T12:23:28Z</time>
      </trkpt>
      <trkpt lat="44.55988" lon="6.10914">
        <ele>839.3681641</ele>
        <time>2016-06-10T12:23:35Z</time>
      </trkpt>
      <trkpt lat="44.56014" lon="6.10832">
        <ele>836.484375</ele>
        <time>2016-06-10T12:23:41Z</time>
      </trkpt>
      <trkpt lat="44.56026" lon="6.10761">
        <ele>834.5617676</ele>
        <time>2016-06-10T12:23:46Z</time>
      </trkpt>
      <trkpt lat="44.56035" lon="6.1069">
        <ele>832.1584473</ele>
        <time>2016-06-10T12:23:51Z</time>
      </trkpt>
      <trkpt lat="44.56053" lon="6.10604">
        <ele>828.7939453</ele>
        <time>2016-06-10T12:23:57Z</time>
      </trkpt>
      <trkpt lat="44.56057" lon="6.10591">
        <ele>828.7939453</ele>
        <time>2016-06-10T12:23:58Z</time>
      </trkpt>
      <trkpt lat="44.56065" lon="6.10569">
        <ele>826.3903809</ele>
        <time>2016-06-10T12:24:00Z</time>
      </trkpt>
      <trkpt lat="44.56071" lon="6.10546">
        <ele>824.9484863</ele>
        <time>2016-06-10T12:24:02Z</time>
      </trkpt>
      <trkpt lat="44.5609" lon="6.10469">
        <ele>821.5837402</ele>
        <time>2016-06-10T12:24:08Z</time>
      </trkpt>
      <trkpt lat="44.56099" lon="6.10429">
        <ele>820.1418457</ele>
        <time>2016-06-10T12:24:11Z</time>
      </trkpt>
      <trkpt lat="44.56105" lon="6.10389">
        <ele>817.7385254</ele>
        <time>2016-06-10T12:24:14Z</time>
      </trkpt>
      <trkpt lat="44.56108" lon="6.10361">
        <ele>816.2966309</ele>
        <time>2016-06-10T12:24:16Z</time>
      </trkpt>
      <trkpt lat="44.56111" lon="6.10332">
        <ele>812.451416</ele>
        <time>2016-06-10T12:24:18Z</time>
      </trkpt>
      <trkpt lat="44.56112" lon="6.10318">
        <ele>812.451416</ele>
        <time>2016-06-10T12:24:19Z</time>
      </trkpt>
      <trkpt lat="44.56114" lon="6.10289">
        <ele>811.0092773</ele>
        <time>2016-06-10T12:24:21Z</time>
      </trkpt>
      <trkpt lat="44.5612" lon="6.10231">
        <ele>808.1254883</ele>
        <time>2016-06-10T12:24:25Z</time>
      </trkpt>
      <trkpt lat="44.56122" lon="6.10216">
        <ele>808.1254883</ele>
        <time>2016-06-10T12:24:26Z</time>
      </trkpt>
      <trkpt lat="44.56125" lon="6.10186">
        <ele>805.722168</ele>
        <time>2016-06-10T12:24:28Z</time>
      </trkpt>
      <trkpt lat="44.5613" lon="6.10142">
        <ele>802.8381348</ele>
        <time>2016-06-10T12:24:31Z</time>
      </trkpt>
      <trkpt lat="44.56132" lon="6.10127">
        <ele>802.8381348</ele>
        <time>2016-06-10T12:24:32Z</time>
      </trkpt>
      <trkpt lat="44.56135" lon="6.10098">
        <ele>799.4736328</ele>
        <time>2016-06-10T12:24:34Z</time>
      </trkpt>
      <trkpt lat="44.56137" lon="6.10083">
        <ele>799.4736328</ele>
        <time>2016-06-10T12:24:35Z</time>
      </trkpt>
      <trkpt lat="44.56142" lon="6.10053">
        <ele>798.0317383</ele>
        <time>2016-06-10T12:24:37Z</time>
      </trkpt>
      <trkpt lat="44.56147" lon="6.10021">
        <ele>796.5898438</ele>
        <time>2016-06-10T12:24:39Z</time>
      </trkpt>
      <trkpt lat="44.56158" lon="6.09902">
        <ele>793.7055664</ele>
        <time>2016-06-10T12:24:46Z</time>
      </trkpt>
      <trkpt lat="44.56158" lon="6.09852">
        <ele>791.3022461</ele>
        <time>2016-06-10T12:24:49Z</time>
      </trkpt>
      <trkpt lat="44.56159" lon="6.09743">
        <ele>787.4570313</ele>
        <time>2016-06-10T12:24:57Z</time>
      </trkpt>
      <trkpt lat="44.56139" lon="6.0961">
        <ele>784.0925293</ele>
        <time>2016-06-10T12:25:08Z</time>
      </trkpt>
      <trkpt lat="44.56138" lon="6.09599">
        <ele>784.0925293</ele>
        <time>2016-06-10T12:25:09Z</time>
      </trkpt>
      <trkpt lat="44.56136" lon="6.09568">
        <ele>782.1699219</ele>
        <time>2016-06-10T12:25:12Z</time>
      </trkpt>
      <trkpt lat="44.56141" lon="6.09542">
        <ele>780.7280273</ele>
        <time>2016-06-10T12:25:15Z</time>
      </trkpt>
      <trkpt lat="44.56156" lon="6.09509">
        <ele>779.2856445</ele>
        <time>2016-06-10T12:25:22Z</time>
      </trkpt>
      <trkpt lat="44.56174" lon="6.09456">
        <ele>779.2856445</ele>
        <time>2016-06-10T12:25:32Z</time>
      </trkpt>
      <trkpt lat="44.56181" lon="6.09422">
        <ele>779.2856445</ele>
        <time>2016-06-10T12:25:38Z</time>
      </trkpt>
      <trkpt lat="44.56188" lon="6.09405">
        <ele>779.2856445</ele>
        <time>2016-06-10T12:25:41Z</time>
      </trkpt>
      <trkpt lat="44.56204" lon="6.09309">
        <ele>775.9211426</ele>
        <time>2016-06-10T12:25:52Z</time>
      </trkpt>
      <trkpt lat="44.56206" lon="6.09237">
        <ele>773.5180664</ele>
        <time>2016-06-10T12:25:58Z</time>
      </trkpt>
      <trkpt lat="44.56206" lon="6.09226">
        <ele>772.5566406</ele>
        <time>2016-06-10T12:25:59Z</time>
      </trkpt>
      <trkpt lat="44.56205" lon="6.09184">
        <ele>770.6340332</ele>
        <time>2016-06-10T12:26:03Z</time>
      </trkpt>
      <trkpt lat="44.56205" lon="6.09107">
        <ele>767.75</ele>
        <time>2016-06-10T12:26:10Z</time>
      </trkpt>
      <trkpt lat="44.56206" lon="6.09097">
        <ele>766.3081055</ele>
        <time>2016-06-10T12:26:11Z</time>
      </trkpt>
      <trkpt lat="44.56205" lon="6.0908">
        <ele>764.8662109</ele>
        <time>2016-06-10T12:26:13Z</time>
      </trkpt>
      <trkpt lat="44.56232" lon="6.09041">
        <ele>763.4240723</ele>
        <time>2016-06-10T12:26:19Z</time>
      </trkpt>
      <trkpt lat="44.56269" lon="6.09014">
        <ele>763.4240723</ele>
        <time>2016-06-10T12:26:27Z</time>
      </trkpt>
      <trkpt lat="44.56346" lon="6.08951">
        <ele>762.4626465</ele>
        <time>2016-06-10T12:26:47Z</time>
      </trkpt>
      <trkpt lat="44.56354" lon="6.08923">
        <ele>762.9433594</ele>
        <time>2016-06-10T12:26:55Z</time>
      </trkpt>
      <trkpt lat="44.56343" lon="6.08888">
        <ele>761.9821777</ele>
        <time>2016-06-10T12:27:01Z</time>
      </trkpt>
      <trkpt lat="44.56332" lon="6.08863">
        <ele>761.020752</ele>
        <time>2016-06-10T12:27:06Z</time>
      </trkpt>
      <trkpt lat="44.56325" lon="6.08855">
        <ele>760.5400391</ele>
        <time>2016-06-10T12:27:09Z</time>
      </trkpt>
      <trkpt lat="44.56322" lon="6.08844">
        <ele>761.020752</ele>
        <time>2016-06-10T12:27:13Z</time>
      </trkpt>
      <trkpt lat="44.56309" lon="6.08832">
        <ele>760.5400391</ele>
        <time>2016-06-10T12:27:19Z</time>
      </trkpt>
      <trkpt lat="44.56293" lon="6.08784">
        <ele>761.020752</ele>
        <time>2016-06-10T12:27:32Z</time>
      </trkpt>
      <trkpt lat="44.56275" lon="6.08747">
        <ele>761.9821777</ele>
        <time>2016-06-10T12:27:43Z</time>
      </trkpt>
      <trkpt lat="44.56265" lon="6.08736">
        <ele>761.5014648</ele>
        <time>2016-06-10T12:27:48Z</time>
      </trkpt>
      <trkpt lat="44.56248" lon="6.08685">
        <ele>761.5014648</ele>
        <time>2016-06-10T12:28:02Z</time>
      </trkpt>
      <trkpt lat="44.56236" lon="6.08652">
        <ele>761.5014648</ele>
        <time>2016-06-10T12:28:11Z</time>
      </trkpt>
      <trkpt lat="44.56208" lon="6.08594">
        <ele>761.020752</ele>
        <time>2016-06-10T12:28:23Z</time>
      </trkpt>
      <trkpt lat="44.56194" lon="6.08558">
        <ele>760.5400391</ele>
        <time>2016-06-10T12:28:32Z</time>
      </trkpt>
      <trkpt lat="44.56188" lon="6.08531">
        <ele>760.0593262</ele>
        <time>2016-06-10T12:28:38Z</time>
      </trkpt>
      <trkpt lat="44.56201" lon="6.08484">
        <ele>761.5014648</ele>
        <time>2016-06-10T12:28:50Z</time>
      </trkpt>
      <trkpt lat="44.56205" lon="6.0846">
        <ele>762.4626465</ele>
        <time>2016-06-10T12:29:03Z</time>
      </trkpt>
      <trkpt lat="44.5621" lon="6.08452">
        <ele>762.9433594</ele>
        <time>2016-06-10T12:29:12Z</time>
      </trkpt>
      <trkpt lat="44.56224" lon="6.08435">
        <ele>762.9433594</ele>
        <time>2016-06-10T12:29:30Z</time>
      </trkpt>
      <trkpt lat="44.56222" lon="6.08419">
        <ele>762.9433594</ele>
        <time>2016-06-10T12:29:46Z</time>
      </trkpt>
      <trkpt lat="44.56223" lon="6.08417">
        <ele>763.4240723</ele>
        <time>2016-06-10T12:29:48Z</time>
      </trkpt>
      <trkpt lat="44.56228" lon="6.08411">
        <ele>763.4240723</ele>
        <time>2016-06-10T12:30:01Z</time>
      </trkpt>
      <trkpt lat="44.56221" lon="6.08399">
        <ele>763.4240723</ele>
        <time>2016-06-10T12:30:15Z</time>
      </trkpt>
      <trkpt lat="44.56218" lon="6.08397">
        <ele>762.9433594</ele>
        <time>2016-06-10T12:30:18Z</time>
      </trkpt>
      <trkpt lat="44.56202" lon="6.08379">
        <ele>763.4240723</ele>
        <time>2016-06-10T12:30:34Z</time>
      </trkpt>
      <trkpt lat="44.56205" lon="6.08361">
        <ele>763.4240723</ele>
        <time>2016-06-10T12:30:50Z</time>
      </trkpt>
      <trkpt lat="44.56208" lon="6.0836">
        <ele>763.4240723</ele>
        <time>2016-06-10T12:31:08Z</time>
      </trkpt>
      <trkpt lat="44.56179" lon="6.08324">
        <ele>763.4240723</ele>
        <time>2016-06-10T12:31:17Z</time>
      </trkpt>
      <trkpt lat="44.56159" lon="6.08269">
        <ele>763.4240723</ele>
        <time>2016-06-10T12:31:28Z</time>
      </trkpt>
      <trkpt lat="44.56155" lon="6.08264">
        <ele>763.4240723</ele>
        <time>2016-06-10T12:31:29Z</time>
      </trkpt>
      <trkpt lat="44.56146" lon="6.08185">
        <ele>762.4626465</ele>
        <time>2016-06-10T12:31:41Z</time>
      </trkpt>
      <trkpt lat="44.5612" lon="6.08093">
        <ele>762.4626465</ele>
        <time>2016-06-10T12:31:59Z</time>
      </trkpt>
      <trkpt lat="44.56108" lon="6.08054">
        <ele>762.9433594</ele>
        <time>2016-06-10T12:32:07Z</time>
      </trkpt>
      <trkpt lat="44.56105" lon="6.08014">
        <ele>763.4240723</ele>
        <time>2016-06-10T12:32:16Z</time>
      </trkpt>
      <trkpt lat="44.56119" lon="6.07985">
        <ele>763.904541</ele>
        <time>2016-06-10T12:32:21Z</time>
      </trkpt>
      <trkpt lat="44.56117" lon="6.07952">
        <ele>764.385498</ele>
        <time>2016-06-10T12:32:28Z</time>
      </trkpt>
      <trkpt lat="44.56101" lon="6.07889">
        <ele>764.8662109</ele>
        <time>2016-06-10T12:32:41Z</time>
      </trkpt>
      <trkpt lat="44.56077" lon="6.07802">
        <ele>765.3469238</ele>
        <time>2016-06-10T12:32:59Z</time>
      </trkpt>
      <trkpt lat="44.56066" lon="6.07773">
        <ele>765.8276367</ele>
        <time>2016-06-10T12:33:05Z</time>
      </trkpt>
      <trkpt lat="44.56044" lon="6.0769">
        <ele>765.3469238</ele>
        <time>2016-06-10T12:33:20Z</time>
      </trkpt>
      <trkpt lat="44.56032" lon="6.07653">
        <ele>765.3469238</ele>
        <time>2016-06-10T12:33:27Z</time>
      </trkpt>
      <trkpt lat="44.55984" lon="6.07589">
        <ele>767.2695313</ele>
        <time>2016-06-10T12:33:44Z</time>
      </trkpt>
      <trkpt lat="44.55951" lon="6.0756">
        <ele>766.7888184</ele>
        <time>2016-06-10T12:33:56Z</time>
      </trkpt>
      <trkpt lat="44.5591" lon="6.07512">
        <ele>765.8276367</ele>
        <time>2016-06-10T12:34:08Z</time>
      </trkpt>
      <trkpt lat="44.55903" lon="6.07503">
        <ele>765.8276367</ele>
        <time>2016-06-10T12:34:12Z</time>
      </trkpt>
      <trkpt lat="44.55895" lon="6.07506">
        <ele>764.8662109</ele>
        <time>2016-06-10T12:34:23Z</time>
      </trkpt>
      <trkpt lat="44.5589" lon="6.07509">
        <ele>764.8662109</ele>
        <time>2016-06-10T12:34:38Z</time>
      </trkpt>
      <trkpt lat="44.55884" lon="6.07513">
        <ele>764.8662109</ele>
        <time>2016-06-10T12:34:41Z</time>
      </trkpt>
      <trkpt lat="44.55919" lon="6.07534">
        <ele>743.4648438</ele>
      </trkpt>
      <trkpt lat="44.55932" lon="6.07572">
        <ele>742.4023438</ele>
      </trkpt>
      <trkpt lat="44.55941" lon="6.07605">
        <ele>742.1796875</ele>
      </trkpt>
      <trkpt lat="44.5595" lon="6.07638">
        <ele>741.65625</ele>
      </trkpt>
      <trkpt lat="44.55968" lon="6.07654">
        <ele>741.7109375</ele>
      </trkpt>
      <trkpt lat="44.55991" lon="6.07665">
        <ele>742.125</ele>
      </trkpt>
      <trkpt lat="44.56018" lon="6.07676">
        <ele>742.953125</ele>
      </trkpt>
      <trkpt lat="44.56045" lon="6.07693">
        <ele>744</ele>
      </trkpt>
      <trkpt lat="44.56067" lon="6.07715">
        <ele>744.1523438</ele>
      </trkpt>
      <trkpt lat="44.5608" lon="6.07748">
        <ele>744.3984375</ele>
      </trkpt>
      <trkpt lat="44.56094" lon="6.07775">
        <ele>743.921875</ele>
      </trkpt>
      <trkpt lat="44.56112" lon="6.07753">
        <ele>745.3320313</ele>
      </trkpt>
      <trkpt lat="44.56139" lon="6.07748">
        <ele>746.5</ele>
      </trkpt>
      <trkpt lat="44.56166" lon="6.07737">
        <ele>747.8671875</ele>
      </trkpt>
      <trkpt lat="44.56193" lon="6.07753">
        <ele>748.6835938</ele>
      </trkpt>
      <trkpt lat="44.56211" lon="6.07775">
        <ele>749.1015625</ele>
      </trkpt>
      <trkpt lat="44.56238" lon="6.0778">
        <ele>749.4023438</ele>
      </trkpt>
      <trkpt lat="44.56265" lon="6.07791">
        <ele>749</ele>
      </trkpt>
      <trkpt lat="44.56292" lon="6.07797">
        <ele>749</ele>
      </trkpt>
      <trkpt lat="44.56314" lon="6.07808">
        <ele>749</ele>
      </trkpt>
      <trkpt lat="44.56341" lon="6.07819">
        <ele>749.0234375</ele>
      </trkpt>
      <trkpt lat="44.56359" lon="6.07835">
        <ele>750.0703125</ele>
      </trkpt>
      <trkpt lat="44.56381" lon="6.07857">
        <ele>751.0898438</ele>
      </trkpt>
      <trkpt lat="44.5639" lon="6.0789">
        <ele>751.8007813</ele>
      </trkpt>
      <trkpt lat="44.5639" lon="6.07928">
        <ele>751.8007813</ele>
      </trkpt>
      <trkpt lat="44.56386" lon="6.07967">
        <ele>751.640625</ele>
      </trkpt>
      <trkpt lat="44.56377" lon="6.07989">
        <ele>751.3164063</ele>
      </trkpt>
      <trkpt lat="44.56359" lon="6.08115">
        <ele>749.6679688</ele>
      </trkpt>
    </trkseg>
  </trk>
</gpx>